<?xml version="1.0" encoding="UTF-8" standalone="no" ?>
<gpx xmlns="http://www.topografix.com/GPX/1/1" xmlns:xsi="http://www.w3.org/2001/XMLSchema-instance" xsi:schemaLocation="http://www.topografix.com/GPX/1/1 http://www.topografix.com/GPX/1/1/gpx.xsd" version="1.1" creator="VisuGPX - https://www.visugpx.com">
  <metadata>
    <name>83-Me-Villecroze</name>
    <desc><![CDATA[83-Me-Villecroze : Villecroze  à Tourtour
2023-01-25]]></desc>
  </metadata>
  <trk>
    <name><![CDATA[2023-01-25-Me-Villecroze]]></name>
    <extensions>
      <line xmlns="http://www.topografix.com/GPX/gpx_style/0/2">
        <width>4</width>
      </line>
    </extensions>
    <trkseg>
      <trkpt lat="43.58353" lon="6.27577">
        <ele>354</ele>
        <time>2023-01-25T12:53:02.000Z</time>
      </trkpt>
      <trkpt lat="43.58353" lon="6.27577">
        <ele>353.9</ele>
        <time>2023-01-25T12:53:03.000Z</time>
      </trkpt>
      <trkpt lat="43.58357" lon="6.27574">
        <ele>352.5</ele>
        <time>2023-01-25T12:54:04.000Z</time>
      </trkpt>
      <trkpt lat="43.58355" lon="6.27568">
        <ele>353.4</ele>
        <time>2023-01-25T12:54:47.000Z</time>
      </trkpt>
      <trkpt lat="43.58355" lon="6.27574">
        <ele>354.3</ele>
        <time>2023-01-25T12:56:06.000Z</time>
      </trkpt>
      <trkpt lat="43.58357" lon="6.27579">
        <ele>354.4</ele>
        <time>2023-01-25T12:56:12.000Z</time>
      </trkpt>
      <trkpt lat="43.58361" lon="6.27584">
        <ele>354.4</ele>
        <time>2023-01-25T12:56:21.000Z</time>
      </trkpt>
      <trkpt lat="43.58364" lon="6.27589">
        <ele>354.4</ele>
        <time>2023-01-25T12:56:39.000Z</time>
      </trkpt>
      <trkpt lat="43.58367" lon="6.27594">
        <ele>354.2</ele>
        <time>2023-01-25T12:57:41.000Z</time>
      </trkpt>
      <trkpt lat="43.5837" lon="6.27599">
        <ele>354.2</ele>
        <time>2023-01-25T12:57:55.000Z</time>
      </trkpt>
      <trkpt lat="43.58373" lon="6.27604">
        <ele>354.3</ele>
        <time>2023-01-25T12:58:01.000Z</time>
      </trkpt>
      <trkpt lat="43.58375" lon="6.2761">
        <ele>354.4</ele>
        <time>2023-01-25T12:58:08.000Z</time>
      </trkpt>
      <trkpt lat="43.58377" lon="6.27616">
        <ele>354.4</ele>
        <time>2023-01-25T12:58:13.000Z</time>
      </trkpt>
      <trkpt lat="43.58379" lon="6.27622">
        <ele>354.5</ele>
        <time>2023-01-25T12:58:18.000Z</time>
      </trkpt>
      <trkpt lat="43.5838" lon="6.27628">
        <ele>354.6</ele>
        <time>2023-01-25T12:58:25.000Z</time>
      </trkpt>
      <trkpt lat="43.58379" lon="6.27635">
        <ele>354.6</ele>
        <time>2023-01-25T12:58:30.000Z</time>
      </trkpt>
      <trkpt lat="43.58378" lon="6.27641">
        <ele>354.6</ele>
        <time>2023-01-25T12:58:35.000Z</time>
      </trkpt>
      <trkpt lat="43.58376" lon="6.27647">
        <ele>354.6</ele>
        <time>2023-01-25T12:58:40.000Z</time>
      </trkpt>
      <trkpt lat="43.58374" lon="6.27653">
        <ele>354.8</ele>
        <time>2023-01-25T12:58:45.000Z</time>
      </trkpt>
      <trkpt lat="43.58372" lon="6.27659">
        <ele>354.9</ele>
        <time>2023-01-25T12:58:50.000Z</time>
      </trkpt>
      <trkpt lat="43.58371" lon="6.27666">
        <ele>355</ele>
        <time>2023-01-25T12:58:56.000Z</time>
      </trkpt>
      <trkpt lat="43.5837" lon="6.27674">
        <ele>355</ele>
        <time>2023-01-25T12:59:02.000Z</time>
      </trkpt>
      <trkpt lat="43.58369" lon="6.2768">
        <ele>355</ele>
        <time>2023-01-25T12:59:06.000Z</time>
      </trkpt>
      <trkpt lat="43.58367" lon="6.27687">
        <ele>355</ele>
        <time>2023-01-25T12:59:10.000Z</time>
      </trkpt>
      <trkpt lat="43.58366" lon="6.27693">
        <ele>354.7</ele>
        <time>2023-01-25T12:59:15.000Z</time>
      </trkpt>
      <trkpt lat="43.58365" lon="6.277">
        <ele>354.5</ele>
        <time>2023-01-25T12:59:19.000Z</time>
      </trkpt>
      <trkpt lat="43.58365" lon="6.27706">
        <ele>354.3</ele>
        <time>2023-01-25T12:59:23.000Z</time>
      </trkpt>
      <trkpt lat="43.58363" lon="6.27713">
        <ele>354.2</ele>
        <time>2023-01-25T12:59:28.000Z</time>
      </trkpt>
      <trkpt lat="43.58359" lon="6.27717">
        <ele>354.1</ele>
        <time>2023-01-25T12:59:34.000Z</time>
      </trkpt>
      <trkpt lat="43.58354" lon="6.2772">
        <ele>354.1</ele>
        <time>2023-01-25T12:59:39.000Z</time>
      </trkpt>
      <trkpt lat="43.58349" lon="6.27721">
        <ele>354.2</ele>
        <time>2023-01-25T12:59:44.000Z</time>
      </trkpt>
      <trkpt lat="43.58344" lon="6.27722">
        <ele>354.3</ele>
        <time>2023-01-25T12:59:49.000Z</time>
      </trkpt>
      <trkpt lat="43.58339" lon="6.27721">
        <ele>354.3</ele>
        <time>2023-01-25T12:59:54.000Z</time>
      </trkpt>
      <trkpt lat="43.58334" lon="6.2772">
        <ele>354.5</ele>
        <time>2023-01-25T12:59:59.000Z</time>
      </trkpt>
      <trkpt lat="43.5833" lon="6.27723">
        <ele>355.1</ele>
        <time>2023-01-25T13:00:05.000Z</time>
      </trkpt>
      <trkpt lat="43.5833" lon="6.2773">
        <ele>356.3</ele>
        <time>2023-01-25T13:00:14.000Z</time>
      </trkpt>
      <trkpt lat="43.58329" lon="6.27736">
        <ele>357.2</ele>
        <time>2023-01-25T13:00:22.000Z</time>
      </trkpt>
      <trkpt lat="43.58331" lon="6.27742">
        <ele>357.8</ele>
        <time>2023-01-25T13:00:27.000Z</time>
      </trkpt>
      <trkpt lat="43.58334" lon="6.27747">
        <ele>358.3</ele>
        <time>2023-01-25T13:00:31.000Z</time>
      </trkpt>
      <trkpt lat="43.58335" lon="6.27754">
        <ele>358.8</ele>
        <time>2023-01-25T13:00:36.000Z</time>
      </trkpt>
      <trkpt lat="43.58336" lon="6.27761">
        <ele>359.4</ele>
        <time>2023-01-25T13:00:41.000Z</time>
      </trkpt>
      <trkpt lat="43.58336" lon="6.27768">
        <ele>360</ele>
        <time>2023-01-25T13:00:46.000Z</time>
      </trkpt>
      <trkpt lat="43.58336" lon="6.27775">
        <ele>360.8</ele>
        <time>2023-01-25T13:00:51.000Z</time>
      </trkpt>
      <trkpt lat="43.58335" lon="6.27782">
        <ele>361.5</ele>
        <time>2023-01-25T13:00:56.000Z</time>
      </trkpt>
      <trkpt lat="43.58334" lon="6.27788">
        <ele>362.2</ele>
        <time>2023-01-25T13:01:02.000Z</time>
      </trkpt>
      <trkpt lat="43.58334" lon="6.27795">
        <ele>363.1</ele>
        <time>2023-01-25T13:01:09.000Z</time>
      </trkpt>
      <trkpt lat="43.58335" lon="6.27802">
        <ele>363.9</ele>
        <time>2023-01-25T13:01:15.000Z</time>
      </trkpt>
      <trkpt lat="43.58335" lon="6.27809">
        <ele>364.4</ele>
        <time>2023-01-25T13:01:20.000Z</time>
      </trkpt>
      <trkpt lat="43.58333" lon="6.27815">
        <ele>365.1</ele>
        <time>2023-01-25T13:01:26.000Z</time>
      </trkpt>
      <trkpt lat="43.5833" lon="6.27821">
        <ele>366</ele>
        <time>2023-01-25T13:01:31.899Z</time>
      </trkpt>
      <trkpt lat="43.58326" lon="6.27825">
        <ele>366.8</ele>
        <time>2023-01-25T13:01:37.000Z</time>
      </trkpt>
      <trkpt lat="43.58322" lon="6.27828">
        <ele>367.6</ele>
        <time>2023-01-25T13:01:42.000Z</time>
      </trkpt>
      <trkpt lat="43.58318" lon="6.27831">
        <ele>368.4</ele>
        <time>2023-01-25T13:01:48.000Z</time>
      </trkpt>
      <trkpt lat="43.58313" lon="6.27835">
        <ele>369.1</ele>
        <time>2023-01-25T13:01:54.000Z</time>
      </trkpt>
      <trkpt lat="43.5831" lon="6.27839">
        <ele>369.6</ele>
        <time>2023-01-25T13:01:59.000Z</time>
      </trkpt>
      <trkpt lat="43.58305" lon="6.27843">
        <ele>370</ele>
        <time>2023-01-25T13:02:05.000Z</time>
      </trkpt>
      <trkpt lat="43.58302" lon="6.27848">
        <ele>370.2</ele>
        <time>2023-01-25T13:02:09.000Z</time>
      </trkpt>
      <trkpt lat="43.58297" lon="6.27853">
        <ele>370.4</ele>
        <time>2023-01-25T13:02:13.000Z</time>
      </trkpt>
      <trkpt lat="43.58292" lon="6.27856">
        <ele>370.6</ele>
        <time>2023-01-25T13:02:16.000Z</time>
      </trkpt>
      <trkpt lat="43.58288" lon="6.27859">
        <ele>370.8</ele>
        <time>2023-01-25T13:02:19.000Z</time>
      </trkpt>
      <trkpt lat="43.58285" lon="6.27865">
        <ele>371.1</ele>
        <time>2023-01-25T13:02:23.000Z</time>
      </trkpt>
      <trkpt lat="43.58283" lon="6.27871">
        <ele>371.4</ele>
        <time>2023-01-25T13:02:27.000Z</time>
      </trkpt>
      <trkpt lat="43.58282" lon="6.27877">
        <ele>372</ele>
        <time>2023-01-25T13:02:32.000Z</time>
      </trkpt>
      <trkpt lat="43.58278" lon="6.27881">
        <ele>372.7</ele>
        <time>2023-01-25T13:02:37.000Z</time>
      </trkpt>
      <trkpt lat="43.58277" lon="6.27889">
        <ele>373.3</ele>
        <time>2023-01-25T13:02:42.000Z</time>
      </trkpt>
      <trkpt lat="43.58276" lon="6.27896">
        <ele>373.9</ele>
        <time>2023-01-25T13:02:47.000Z</time>
      </trkpt>
      <trkpt lat="43.58274" lon="6.27903">
        <ele>374.5</ele>
        <time>2023-01-25T13:02:52.000Z</time>
      </trkpt>
      <trkpt lat="43.58274" lon="6.27909">
        <ele>375.8</ele>
        <time>2023-01-25T13:03:01.000Z</time>
      </trkpt>
      <trkpt lat="43.58274" lon="6.27916">
        <ele>377.2</ele>
        <time>2023-01-25T13:03:11.000Z</time>
      </trkpt>
      <trkpt lat="43.58272" lon="6.27922">
        <ele>377.5</ele>
        <time>2023-01-25T13:03:18.000Z</time>
      </trkpt>
      <trkpt lat="43.5827" lon="6.27928">
        <ele>377.7</ele>
        <time>2023-01-25T13:03:24.000Z</time>
      </trkpt>
      <trkpt lat="43.58272" lon="6.27936">
        <ele>377.9</ele>
        <time>2023-01-25T13:03:33.000Z</time>
      </trkpt>
      <trkpt lat="43.58274" lon="6.27942">
        <ele>378.7</ele>
        <time>2023-01-25T13:03:40.000Z</time>
      </trkpt>
      <trkpt lat="43.58273" lon="6.27948">
        <ele>380.3</ele>
        <time>2023-01-25T13:03:52.000Z</time>
      </trkpt>
      <trkpt lat="43.58276" lon="6.27953">
        <ele>381.7</ele>
        <time>2023-01-25T13:04:03.000Z</time>
      </trkpt>
      <trkpt lat="43.58281" lon="6.27955">
        <ele>382.9</ele>
        <time>2023-01-25T13:04:09.000Z</time>
      </trkpt>
      <trkpt lat="43.58286" lon="6.27956">
        <ele>384</ele>
        <time>2023-01-25T13:04:14.000Z</time>
      </trkpt>
      <trkpt lat="43.5829" lon="6.2796">
        <ele>386.7</ele>
        <time>2023-01-25T13:04:29.000Z</time>
      </trkpt>
      <trkpt lat="43.58293" lon="6.27965">
        <ele>387.6</ele>
        <time>2023-01-25T13:04:34.000Z</time>
      </trkpt>
      <trkpt lat="43.58295" lon="6.27971">
        <ele>388.9</ele>
        <time>2023-01-25T13:04:42.000Z</time>
      </trkpt>
      <trkpt lat="43.58297" lon="6.27978">
        <ele>390.2</ele>
        <time>2023-01-25T13:04:48.000Z</time>
      </trkpt>
      <trkpt lat="43.58299" lon="6.27984">
        <ele>391.6</ele>
        <time>2023-01-25T13:04:56.000Z</time>
      </trkpt>
      <trkpt lat="43.58302" lon="6.2799">
        <ele>392.8</ele>
        <time>2023-01-25T13:05:04.000Z</time>
      </trkpt>
      <trkpt lat="43.58305" lon="6.27995">
        <ele>394.1</ele>
        <time>2023-01-25T13:05:13.000Z</time>
      </trkpt>
      <trkpt lat="43.58306" lon="6.28001">
        <ele>394.8</ele>
        <time>2023-01-25T13:05:19.000Z</time>
      </trkpt>
      <trkpt lat="43.58307" lon="6.28007">
        <ele>395.9</ele>
        <time>2023-01-25T13:05:27.000Z</time>
      </trkpt>
      <trkpt lat="43.58303" lon="6.28012">
        <ele>396.5</ele>
        <time>2023-01-25T13:05:32.000Z</time>
      </trkpt>
      <trkpt lat="43.58302" lon="6.28018">
        <ele>397.4</ele>
        <time>2023-01-25T13:05:39.000Z</time>
      </trkpt>
      <trkpt lat="43.58301" lon="6.28024">
        <ele>398.1</ele>
        <time>2023-01-25T13:05:45.000Z</time>
      </trkpt>
      <trkpt lat="43.58298" lon="6.2803">
        <ele>399</ele>
        <time>2023-01-25T13:05:52.000Z</time>
      </trkpt>
      <trkpt lat="43.58297" lon="6.28036">
        <ele>399.8</ele>
        <time>2023-01-25T13:05:59.000Z</time>
      </trkpt>
      <trkpt lat="43.58296" lon="6.28042">
        <ele>400.7</ele>
        <time>2023-01-25T13:06:06.000Z</time>
      </trkpt>
      <trkpt lat="43.58294" lon="6.28048">
        <ele>401</ele>
        <time>2023-01-25T13:06:14.000Z</time>
      </trkpt>
      <trkpt lat="43.58292" lon="6.28056">
        <ele>403.4</ele>
        <time>2023-01-25T13:06:27.000Z</time>
      </trkpt>
      <trkpt lat="43.5829" lon="6.28061">
        <ele>404.5</ele>
        <time>2023-01-25T13:06:36.000Z</time>
      </trkpt>
      <trkpt lat="43.58286" lon="6.28065">
        <ele>405.4</ele>
        <time>2023-01-25T13:06:43.000Z</time>
      </trkpt>
      <trkpt lat="43.58282" lon="6.28076">
        <ele>406</ele>
        <time>2023-01-25T13:06:55.000Z</time>
      </trkpt>
      <trkpt lat="43.58282" lon="6.28086">
        <ele>407</ele>
        <time>2023-01-25T13:07:03.000Z</time>
      </trkpt>
      <trkpt lat="43.58281" lon="6.28095">
        <ele>408</ele>
        <time>2023-01-25T13:07:11.000Z</time>
      </trkpt>
      <trkpt lat="43.5828" lon="6.28105">
        <ele>408</ele>
        <time>2023-01-25T13:07:19.000Z</time>
      </trkpt>
      <trkpt lat="43.5828" lon="6.28111">
        <ele>409</ele>
        <time>2023-01-25T13:07:27.000Z</time>
      </trkpt>
      <trkpt lat="43.58277" lon="6.28116">
        <ele>409</ele>
        <time>2023-01-25T13:07:39.000Z</time>
      </trkpt>
      <trkpt lat="43.58274" lon="6.28122">
        <ele>411</ele>
        <time>2023-01-25T13:08:55.000Z</time>
      </trkpt>
      <trkpt lat="43.58271" lon="6.28129">
        <ele>411</ele>
        <time>2023-01-25T13:09:03.000Z</time>
      </trkpt>
      <trkpt lat="43.58268" lon="6.28137">
        <ele>411</ele>
        <time>2023-01-25T13:09:11.000Z</time>
      </trkpt>
      <trkpt lat="43.58266" lon="6.28144">
        <ele>412</ele>
        <time>2023-01-25T13:09:19.000Z</time>
      </trkpt>
      <trkpt lat="43.58263" lon="6.28149">
        <ele>412</ele>
        <time>2023-01-25T13:09:27.000Z</time>
      </trkpt>
      <trkpt lat="43.58259" lon="6.28155">
        <ele>413</ele>
        <time>2023-01-25T13:09:35.000Z</time>
      </trkpt>
      <trkpt lat="43.58256" lon="6.28161">
        <ele>413</ele>
        <time>2023-01-25T13:09:43.000Z</time>
      </trkpt>
      <trkpt lat="43.58252" lon="6.28171">
        <ele>414</ele>
        <time>2023-01-25T13:09:51.000Z</time>
      </trkpt>
      <trkpt lat="43.58247" lon="6.28181">
        <ele>414</ele>
        <time>2023-01-25T13:09:59.000Z</time>
      </trkpt>
      <trkpt lat="43.58241" lon="6.28189">
        <ele>414</ele>
        <time>2023-01-25T13:10:07.000Z</time>
      </trkpt>
      <trkpt lat="43.58237" lon="6.28196">
        <ele>415</ele>
        <time>2023-01-25T13:10:15.000Z</time>
      </trkpt>
      <trkpt lat="43.58233" lon="6.28203">
        <ele>415</ele>
        <time>2023-01-25T13:10:23.000Z</time>
      </trkpt>
      <trkpt lat="43.58231" lon="6.28213">
        <ele>416</ele>
        <time>2023-01-25T13:10:31.000Z</time>
      </trkpt>
      <trkpt lat="43.58233" lon="6.28222">
        <ele>417</ele>
        <time>2023-01-25T13:10:39.000Z</time>
      </trkpt>
      <trkpt lat="43.58231" lon="6.28231">
        <ele>418</ele>
        <time>2023-01-25T13:10:47.000Z</time>
      </trkpt>
      <trkpt lat="43.58228" lon="6.28239">
        <ele>418</ele>
        <time>2023-01-25T13:10:55.000Z</time>
      </trkpt>
      <trkpt lat="43.58225" lon="6.28245">
        <ele>419</ele>
        <time>2023-01-25T13:11:03.000Z</time>
      </trkpt>
      <trkpt lat="43.58221" lon="6.28252">
        <ele>420</ele>
        <time>2023-01-25T13:11:11.000Z</time>
      </trkpt>
      <trkpt lat="43.58219" lon="6.2826">
        <ele>421</ele>
        <time>2023-01-25T13:11:19.000Z</time>
      </trkpt>
      <trkpt lat="43.58224" lon="6.2826">
        <ele>424</ele>
        <time>2023-01-25T13:11:38.000Z</time>
      </trkpt>
      <trkpt lat="43.58229" lon="6.28257">
        <ele>425</ele>
        <time>2023-01-25T13:11:46.000Z</time>
      </trkpt>
      <trkpt lat="43.58237" lon="6.2826">
        <ele>425</ele>
        <time>2023-01-25T13:11:50.000Z</time>
      </trkpt>
      <trkpt lat="43.58242" lon="6.28256">
        <ele>427</ele>
        <time>2023-01-25T13:12:02.000Z</time>
      </trkpt>
      <trkpt lat="43.58249" lon="6.28253">
        <ele>428</ele>
        <time>2023-01-25T13:12:10.000Z</time>
      </trkpt>
      <trkpt lat="43.58256" lon="6.28251">
        <ele>429</ele>
        <time>2023-01-25T13:12:18.000Z</time>
      </trkpt>
      <trkpt lat="43.58261" lon="6.28247">
        <ele>430</ele>
        <time>2023-01-25T13:12:27.000Z</time>
      </trkpt>
      <trkpt lat="43.58262" lon="6.28238">
        <ele>432</ele>
        <time>2023-01-25T13:12:37.000Z</time>
      </trkpt>
      <trkpt lat="43.58267" lon="6.28232">
        <ele>432</ele>
        <time>2023-01-25T13:12:45.000Z</time>
      </trkpt>
      <trkpt lat="43.58269" lon="6.28225">
        <ele>434</ele>
        <time>2023-01-25T13:12:53.000Z</time>
      </trkpt>
      <trkpt lat="43.58269" lon="6.28219">
        <ele>436</ele>
        <time>2023-01-25T13:13:04.000Z</time>
      </trkpt>
      <trkpt lat="43.58274" lon="6.28217">
        <ele>437.3</ele>
        <time>2023-01-25T13:13:13.000Z</time>
      </trkpt>
      <trkpt lat="43.58277" lon="6.28212">
        <ele>438.3</ele>
        <time>2023-01-25T13:13:19.000Z</time>
      </trkpt>
      <trkpt lat="43.5828" lon="6.28207">
        <ele>439.4</ele>
        <time>2023-01-25T13:13:25.000Z</time>
      </trkpt>
      <trkpt lat="43.58284" lon="6.28205">
        <ele>440.5</ele>
        <time>2023-01-25T13:13:32.000Z</time>
      </trkpt>
      <trkpt lat="43.58289" lon="6.28204">
        <ele>441.4</ele>
        <time>2023-01-25T13:13:37.000Z</time>
      </trkpt>
      <trkpt lat="43.58292" lon="6.28199">
        <ele>442.4</ele>
        <time>2023-01-25T13:13:43.000Z</time>
      </trkpt>
      <trkpt lat="43.58297" lon="6.28198">
        <ele>443</ele>
        <time>2023-01-25T13:13:49.000Z</time>
      </trkpt>
      <trkpt lat="43.58303" lon="6.28195">
        <ele>443.9</ele>
        <time>2023-01-25T13:13:57.000Z</time>
      </trkpt>
      <trkpt lat="43.58308" lon="6.28193">
        <ele>444.9</ele>
        <time>2023-01-25T13:14:04.000Z</time>
      </trkpt>
      <trkpt lat="43.58306" lon="6.28186">
        <ele>446.3</ele>
        <time>2023-01-25T13:14:17.000Z</time>
      </trkpt>
      <trkpt lat="43.58311" lon="6.28187">
        <ele>448.1</ele>
        <time>2023-01-25T13:14:47.000Z</time>
      </trkpt>
      <trkpt lat="43.58315" lon="6.28188">
        <ele>448.7</ele>
        <time>2023-01-25T13:15:16.000Z</time>
      </trkpt>
      <trkpt lat="43.58321" lon="6.28188">
        <ele>449</ele>
        <time>2023-01-25T13:16:04.000Z</time>
      </trkpt>
      <trkpt lat="43.58325" lon="6.28189">
        <ele>449.5</ele>
        <time>2023-01-25T13:16:11.000Z</time>
      </trkpt>
      <trkpt lat="43.5833" lon="6.28188">
        <ele>450.2</ele>
        <time>2023-01-25T13:16:19.000Z</time>
      </trkpt>
      <trkpt lat="43.58335" lon="6.28187">
        <ele>451.2</ele>
        <time>2023-01-25T13:16:27.000Z</time>
      </trkpt>
      <trkpt lat="43.5834" lon="6.28186">
        <ele>452.5</ele>
        <time>2023-01-25T13:16:35.000Z</time>
      </trkpt>
      <trkpt lat="43.58344" lon="6.28185">
        <ele>453.7</ele>
        <time>2023-01-25T13:16:43.000Z</time>
      </trkpt>
      <trkpt lat="43.58348" lon="6.28181">
        <ele>454.9</ele>
        <time>2023-01-25T13:16:52.000Z</time>
      </trkpt>
      <trkpt lat="43.58351" lon="6.28175">
        <ele>455.9</ele>
        <time>2023-01-25T13:16:59.000Z</time>
      </trkpt>
      <trkpt lat="43.58355" lon="6.28171">
        <ele>456.5</ele>
        <time>2023-01-25T13:17:06.000Z</time>
      </trkpt>
      <trkpt lat="43.5836" lon="6.28172">
        <ele>456.8</ele>
        <time>2023-01-25T13:17:11.000Z</time>
      </trkpt>
      <trkpt lat="43.58361" lon="6.28178">
        <ele>457.3</ele>
        <time>2023-01-25T13:17:19.000Z</time>
      </trkpt>
      <trkpt lat="43.5836" lon="6.28185">
        <ele>458.1</ele>
        <time>2023-01-25T13:17:28.000Z</time>
      </trkpt>
      <trkpt lat="43.5836" lon="6.28192">
        <ele>458.7</ele>
        <time>2023-01-25T13:17:34.000Z</time>
      </trkpt>
      <trkpt lat="43.58356" lon="6.28197">
        <ele>459.6</ele>
        <time>2023-01-25T13:17:41.000Z</time>
      </trkpt>
      <trkpt lat="43.58353" lon="6.28201">
        <ele>460</ele>
        <time>2023-01-25T13:17:46.000Z</time>
      </trkpt>
      <trkpt lat="43.58351" lon="6.28207">
        <ele>460.5</ele>
        <time>2023-01-25T13:17:52.000Z</time>
      </trkpt>
      <trkpt lat="43.58351" lon="6.28214">
        <ele>460.9</ele>
        <time>2023-01-25T13:17:59.000Z</time>
      </trkpt>
      <trkpt lat="43.5835" lon="6.28221">
        <ele>461.2</ele>
        <time>2023-01-25T13:18:06.000Z</time>
      </trkpt>
      <trkpt lat="43.58348" lon="6.28227">
        <ele>461.6</ele>
        <time>2023-01-25T13:18:12.000Z</time>
      </trkpt>
      <trkpt lat="43.58348" lon="6.28233">
        <ele>462.1</ele>
        <time>2023-01-25T13:18:18.000Z</time>
      </trkpt>
      <trkpt lat="43.58346" lon="6.2824">
        <ele>463</ele>
        <time>2023-01-25T13:18:27.000Z</time>
      </trkpt>
      <trkpt lat="43.58346" lon="6.28247">
        <ele>463.8</ele>
        <time>2023-01-25T13:18:33.000Z</time>
      </trkpt>
      <trkpt lat="43.58345" lon="6.28253">
        <ele>464.6</ele>
        <time>2023-01-25T13:18:39.000Z</time>
      </trkpt>
      <trkpt lat="43.58342" lon="6.28259">
        <ele>465.4</ele>
        <time>2023-01-25T13:18:46.000Z</time>
      </trkpt>
      <trkpt lat="43.5834" lon="6.28264">
        <ele>466.1</ele>
        <time>2023-01-25T13:18:53.000Z</time>
      </trkpt>
      <trkpt lat="43.58338" lon="6.28271">
        <ele>467.1</ele>
        <time>2023-01-25T13:18:59.000Z</time>
      </trkpt>
      <trkpt lat="43.58336" lon="6.28277">
        <ele>468</ele>
        <time>2023-01-25T13:19:05.000Z</time>
      </trkpt>
      <trkpt lat="43.58337" lon="6.28283">
        <ele>468.7</ele>
        <time>2023-01-25T13:19:11.000Z</time>
      </trkpt>
      <trkpt lat="43.58341" lon="6.28286">
        <ele>470.2</ele>
        <time>2023-01-25T13:19:20.000Z</time>
      </trkpt>
      <trkpt lat="43.58346" lon="6.28285">
        <ele>471.4</ele>
        <time>2023-01-25T13:19:29.000Z</time>
      </trkpt>
      <trkpt lat="43.58351" lon="6.28284">
        <ele>472.3</ele>
        <time>2023-01-25T13:19:37.000Z</time>
      </trkpt>
      <trkpt lat="43.58356" lon="6.28285">
        <ele>473.4</ele>
        <time>2023-01-25T13:19:44.000Z</time>
      </trkpt>
      <trkpt lat="43.58361" lon="6.28284">
        <ele>474.8</ele>
        <time>2023-01-25T13:19:52.000Z</time>
      </trkpt>
      <trkpt lat="43.58366" lon="6.28285">
        <ele>475.6</ele>
        <time>2023-01-25T13:19:59.000Z</time>
      </trkpt>
      <trkpt lat="43.5837" lon="6.28285">
        <ele>476.6</ele>
        <time>2023-01-25T13:20:09.000Z</time>
      </trkpt>
      <trkpt lat="43.58375" lon="6.28285">
        <ele>477.6</ele>
        <time>2023-01-25T13:20:17.000Z</time>
      </trkpt>
      <trkpt lat="43.5838" lon="6.28285">
        <ele>478.7</ele>
        <time>2023-01-25T13:20:24.000Z</time>
      </trkpt>
      <trkpt lat="43.58384" lon="6.28288">
        <ele>480.3</ele>
        <time>2023-01-25T13:20:34.000Z</time>
      </trkpt>
      <trkpt lat="43.58386" lon="6.28294">
        <ele>481</ele>
        <time>2023-01-25T13:20:41.000Z</time>
      </trkpt>
      <trkpt lat="43.58388" lon="6.28301">
        <ele>481.8</ele>
        <time>2023-01-25T13:20:48.000Z</time>
      </trkpt>
      <trkpt lat="43.5839" lon="6.28307">
        <ele>482.9</ele>
        <time>2023-01-25T13:20:55.000Z</time>
      </trkpt>
      <trkpt lat="43.58392" lon="6.28313">
        <ele>483.8</ele>
        <time>2023-01-25T13:21:01.000Z</time>
      </trkpt>
      <trkpt lat="43.58394" lon="6.28318">
        <ele>484.8</ele>
        <time>2023-01-25T13:21:08.000Z</time>
      </trkpt>
      <trkpt lat="43.58396" lon="6.28324">
        <ele>485.7</ele>
        <time>2023-01-25T13:21:14.000Z</time>
      </trkpt>
      <trkpt lat="43.584" lon="6.28328">
        <ele>486.6</ele>
        <time>2023-01-25T13:21:20.000Z</time>
      </trkpt>
      <trkpt lat="43.58403" lon="6.28332">
        <ele>487.3</ele>
        <time>2023-01-25T13:21:25.000Z</time>
      </trkpt>
      <trkpt lat="43.58407" lon="6.28335">
        <ele>488.1</ele>
        <time>2023-01-25T13:21:31.000Z</time>
      </trkpt>
      <trkpt lat="43.58412" lon="6.28337">
        <ele>489.3</ele>
        <time>2023-01-25T13:21:40.000Z</time>
      </trkpt>
      <trkpt lat="43.58417" lon="6.28337">
        <ele>490.2</ele>
        <time>2023-01-25T13:21:48.000Z</time>
      </trkpt>
      <trkpt lat="43.58421" lon="6.28341">
        <ele>490.9</ele>
        <time>2023-01-25T13:21:54.000Z</time>
      </trkpt>
      <trkpt lat="43.58425" lon="6.28345">
        <ele>491.7</ele>
        <time>2023-01-25T13:22:01.000Z</time>
      </trkpt>
      <trkpt lat="43.58425" lon="6.28351">
        <ele>492.5</ele>
        <time>2023-01-25T13:22:08.000Z</time>
      </trkpt>
      <trkpt lat="43.5843" lon="6.28353">
        <ele>493.4</ele>
        <time>2023-01-25T13:22:47.000Z</time>
      </trkpt>
      <trkpt lat="43.58433" lon="6.28358">
        <ele>492.2</ele>
        <time>2023-01-25T13:27:11.000Z</time>
      </trkpt>
      <trkpt lat="43.58436" lon="6.28364">
        <ele>492.4</ele>
        <time>2023-01-25T13:27:17.000Z</time>
      </trkpt>
      <trkpt lat="43.58439" lon="6.28369">
        <ele>492.8</ele>
        <time>2023-01-25T13:27:22.000Z</time>
      </trkpt>
      <trkpt lat="43.58442" lon="6.28375">
        <ele>493.1</ele>
        <time>2023-01-25T13:27:28.000Z</time>
      </trkpt>
      <trkpt lat="43.58445" lon="6.2838">
        <ele>493.8</ele>
        <time>2023-01-25T13:27:35.000Z</time>
      </trkpt>
      <trkpt lat="43.58447" lon="6.28386">
        <ele>494.7</ele>
        <time>2023-01-25T13:27:41.000Z</time>
      </trkpt>
      <trkpt lat="43.58449" lon="6.28392">
        <ele>495.6</ele>
        <time>2023-01-25T13:27:48.000Z</time>
      </trkpt>
      <trkpt lat="43.58452" lon="6.28399">
        <ele>496.4</ele>
        <time>2023-01-25T13:27:54.000Z</time>
      </trkpt>
      <trkpt lat="43.58453" lon="6.28406">
        <ele>497.3</ele>
        <time>2023-01-25T13:28:00.000Z</time>
      </trkpt>
      <trkpt lat="43.58454" lon="6.28412">
        <ele>498.1</ele>
        <time>2023-01-25T13:28:05.000Z</time>
      </trkpt>
      <trkpt lat="43.58455" lon="6.28418">
        <ele>498.9</ele>
        <time>2023-01-25T13:28:10.000Z</time>
      </trkpt>
      <trkpt lat="43.58456" lon="6.28425">
        <ele>499.8</ele>
        <time>2023-01-25T13:28:16.000Z</time>
      </trkpt>
      <trkpt lat="43.58457" lon="6.28432">
        <ele>501</ele>
        <time>2023-01-25T13:28:22.000Z</time>
      </trkpt>
      <trkpt lat="43.58457" lon="6.28439">
        <ele>501.6</ele>
        <time>2023-01-25T13:28:26.000Z</time>
      </trkpt>
      <trkpt lat="43.58455" lon="6.28447">
        <ele>502.4</ele>
        <time>2023-01-25T13:28:31.000Z</time>
      </trkpt>
      <trkpt lat="43.58455" lon="6.28454">
        <ele>502.9</ele>
        <time>2023-01-25T13:28:36.000Z</time>
      </trkpt>
      <trkpt lat="43.58457" lon="6.2846">
        <ele>503.9</ele>
        <time>2023-01-25T13:28:43.000Z</time>
      </trkpt>
      <trkpt lat="43.58457" lon="6.28467">
        <ele>505.3</ele>
        <time>2023-01-25T13:28:51.000Z</time>
      </trkpt>
      <trkpt lat="43.58457" lon="6.28474">
        <ele>506.1</ele>
        <time>2023-01-25T13:28:57.000Z</time>
      </trkpt>
      <trkpt lat="43.58457" lon="6.2848">
        <ele>506.6</ele>
        <time>2023-01-25T13:29:02.000Z</time>
      </trkpt>
      <trkpt lat="43.58458" lon="6.28487">
        <ele>507.1</ele>
        <time>2023-01-25T13:29:07.000Z</time>
      </trkpt>
      <trkpt lat="43.58457" lon="6.28494">
        <ele>507.7</ele>
        <time>2023-01-25T13:29:12.000Z</time>
      </trkpt>
      <trkpt lat="43.58456" lon="6.28501">
        <ele>508.3</ele>
        <time>2023-01-25T13:29:17.000Z</time>
      </trkpt>
      <trkpt lat="43.58455" lon="6.28508">
        <ele>508.8</ele>
        <time>2023-01-25T13:29:22.000Z</time>
      </trkpt>
      <trkpt lat="43.58454" lon="6.28515">
        <ele>509.4</ele>
        <time>2023-01-25T13:29:28.000Z</time>
      </trkpt>
      <trkpt lat="43.58452" lon="6.28521">
        <ele>510</ele>
        <time>2023-01-25T13:29:34.000Z</time>
      </trkpt>
      <trkpt lat="43.58453" lon="6.28528">
        <ele>510.5</ele>
        <time>2023-01-25T13:29:39.000Z</time>
      </trkpt>
      <trkpt lat="43.58453" lon="6.28534">
        <ele>511.2</ele>
        <time>2023-01-25T13:29:44.000Z</time>
      </trkpt>
      <trkpt lat="43.58453" lon="6.28541">
        <ele>511.6</ele>
        <time>2023-01-25T13:29:48.000Z</time>
      </trkpt>
      <trkpt lat="43.58454" lon="6.28548">
        <ele>512</ele>
        <time>2023-01-25T13:29:53.000Z</time>
      </trkpt>
      <trkpt lat="43.58456" lon="6.28555">
        <ele>512.4</ele>
        <time>2023-01-25T13:29:58.000Z</time>
      </trkpt>
      <trkpt lat="43.58458" lon="6.28562">
        <ele>513</ele>
        <time>2023-01-25T13:30:03.000Z</time>
      </trkpt>
      <trkpt lat="43.58459" lon="6.28569">
        <ele>513.5</ele>
        <time>2023-01-25T13:30:08.000Z</time>
      </trkpt>
      <trkpt lat="43.5846" lon="6.28576">
        <ele>513.9</ele>
        <time>2023-01-25T13:30:13.000Z</time>
      </trkpt>
      <trkpt lat="43.5846" lon="6.28583">
        <ele>514.3</ele>
        <time>2023-01-25T13:30:18.000Z</time>
      </trkpt>
      <trkpt lat="43.5846" lon="6.2859">
        <ele>515</ele>
        <time>2023-01-25T13:30:25.000Z</time>
      </trkpt>
      <trkpt lat="43.58459" lon="6.28596">
        <ele>515.4</ele>
        <time>2023-01-25T13:30:30.000Z</time>
      </trkpt>
      <trkpt lat="43.5846" lon="6.28603">
        <ele>516</ele>
        <time>2023-01-25T13:30:36.000Z</time>
      </trkpt>
      <trkpt lat="43.5846" lon="6.28609">
        <ele>516.6</ele>
        <time>2023-01-25T13:30:42.000Z</time>
      </trkpt>
      <trkpt lat="43.58462" lon="6.28616">
        <ele>517.1</ele>
        <time>2023-01-25T13:30:48.000Z</time>
      </trkpt>
      <trkpt lat="43.58463" lon="6.28622">
        <ele>517.7</ele>
        <time>2023-01-25T13:30:53.000Z</time>
      </trkpt>
      <trkpt lat="43.58466" lon="6.28629">
        <ele>518.3</ele>
        <time>2023-01-25T13:30:58.000Z</time>
      </trkpt>
      <trkpt lat="43.58468" lon="6.28634">
        <ele>518.8</ele>
        <time>2023-01-25T13:31:02.000Z</time>
      </trkpt>
      <trkpt lat="43.58472" lon="6.28639">
        <ele>519.2</ele>
        <time>2023-01-25T13:31:06.000Z</time>
      </trkpt>
      <trkpt lat="43.58476" lon="6.28643">
        <ele>519.8</ele>
        <time>2023-01-25T13:31:11.000Z</time>
      </trkpt>
      <trkpt lat="43.58481" lon="6.28647">
        <ele>520.4</ele>
        <time>2023-01-25T13:31:16.000Z</time>
      </trkpt>
      <trkpt lat="43.58485" lon="6.28651">
        <ele>520.8</ele>
        <time>2023-01-25T13:31:20.000Z</time>
      </trkpt>
      <trkpt lat="43.58489" lon="6.28653">
        <ele>521.4</ele>
        <time>2023-01-25T13:31:24.000Z</time>
      </trkpt>
      <trkpt lat="43.58494" lon="6.28657">
        <ele>522.5</ele>
        <time>2023-01-25T13:31:30.000Z</time>
      </trkpt>
      <trkpt lat="43.58498" lon="6.28661">
        <ele>523.4</ele>
        <time>2023-01-25T13:31:36.000Z</time>
      </trkpt>
      <trkpt lat="43.58502" lon="6.28665">
        <ele>524.6</ele>
        <time>2023-01-25T13:31:43.000Z</time>
      </trkpt>
      <trkpt lat="43.58506" lon="6.28669">
        <ele>525.6</ele>
        <time>2023-01-25T13:31:50.000Z</time>
      </trkpt>
      <trkpt lat="43.5851" lon="6.28672">
        <ele>526.2</ele>
        <time>2023-01-25T13:31:56.000Z</time>
      </trkpt>
      <trkpt lat="43.58515" lon="6.28674">
        <ele>526.8</ele>
        <time>2023-01-25T13:32:01.000Z</time>
      </trkpt>
      <trkpt lat="43.58519" lon="6.28677">
        <ele>527.7</ele>
        <time>2023-01-25T13:32:06.000Z</time>
      </trkpt>
      <trkpt lat="43.58524" lon="6.28679">
        <ele>528.5</ele>
        <time>2023-01-25T13:32:12.000Z</time>
      </trkpt>
      <trkpt lat="43.58528" lon="6.28681">
        <ele>529.3</ele>
        <time>2023-01-25T13:32:18.000Z</time>
      </trkpt>
      <trkpt lat="43.58532" lon="6.28685">
        <ele>530</ele>
        <time>2023-01-25T13:32:24.000Z</time>
      </trkpt>
      <trkpt lat="43.58536" lon="6.2869">
        <ele>530.5</ele>
        <time>2023-01-25T13:32:30.000Z</time>
      </trkpt>
      <trkpt lat="43.58539" lon="6.28696">
        <ele>531.2</ele>
        <time>2023-01-25T13:32:36.000Z</time>
      </trkpt>
      <trkpt lat="43.5854" lon="6.28702">
        <ele>532</ele>
        <time>2023-01-25T13:32:42.000Z</time>
      </trkpt>
      <trkpt lat="43.58541" lon="6.28709">
        <ele>532.6</ele>
        <time>2023-01-25T13:32:47.000Z</time>
      </trkpt>
      <trkpt lat="43.58539" lon="6.28715">
        <ele>533.4</ele>
        <time>2023-01-25T13:32:53.000Z</time>
      </trkpt>
      <trkpt lat="43.58537" lon="6.28721">
        <ele>534.1</ele>
        <time>2023-01-25T13:32:58.000Z</time>
      </trkpt>
      <trkpt lat="43.58533" lon="6.28726">
        <ele>535.1</ele>
        <time>2023-01-25T13:33:04.000Z</time>
      </trkpt>
      <trkpt lat="43.58529" lon="6.28731">
        <ele>535.8</ele>
        <time>2023-01-25T13:33:09.000Z</time>
      </trkpt>
      <trkpt lat="43.58527" lon="6.28736">
        <ele>536.5</ele>
        <time>2023-01-25T13:33:14.000Z</time>
      </trkpt>
      <trkpt lat="43.58525" lon="6.28742">
        <ele>537.4</ele>
        <time>2023-01-25T13:33:20.000Z</time>
      </trkpt>
      <trkpt lat="43.58525" lon="6.28749">
        <ele>538.4</ele>
        <time>2023-01-25T13:33:28.000Z</time>
      </trkpt>
      <trkpt lat="43.58526" lon="6.28755">
        <ele>539</ele>
        <time>2023-01-25T13:33:34.000Z</time>
      </trkpt>
      <trkpt lat="43.58528" lon="6.28762">
        <ele>539.5</ele>
        <time>2023-01-25T13:33:39.000Z</time>
      </trkpt>
      <trkpt lat="43.58531" lon="6.28767">
        <ele>539.9</ele>
        <time>2023-01-25T13:33:45.000Z</time>
      </trkpt>
      <trkpt lat="43.58535" lon="6.28773">
        <ele>540.3</ele>
        <time>2023-01-25T13:33:51.000Z</time>
      </trkpt>
      <trkpt lat="43.58539" lon="6.28777">
        <ele>540.6</ele>
        <time>2023-01-25T13:33:56.000Z</time>
      </trkpt>
      <trkpt lat="43.58543" lon="6.28781">
        <ele>540.9</ele>
        <time>2023-01-25T13:34:00.000Z</time>
      </trkpt>
      <trkpt lat="43.58547" lon="6.28786">
        <ele>541.5</ele>
        <time>2023-01-25T13:34:05.000Z</time>
      </trkpt>
      <trkpt lat="43.58551" lon="6.2879">
        <ele>542</ele>
        <time>2023-01-25T13:34:10.000Z</time>
      </trkpt>
      <trkpt lat="43.58554" lon="6.28796">
        <ele>542.4</ele>
        <time>2023-01-25T13:34:15.000Z</time>
      </trkpt>
      <trkpt lat="43.58559" lon="6.288">
        <ele>543.3</ele>
        <time>2023-01-25T13:34:21.000Z</time>
      </trkpt>
      <trkpt lat="43.58564" lon="6.28803">
        <ele>544</ele>
        <time>2023-01-25T13:34:27.000Z</time>
      </trkpt>
      <trkpt lat="43.58567" lon="6.28808">
        <ele>544.6</ele>
        <time>2023-01-25T13:34:32.000Z</time>
      </trkpt>
      <trkpt lat="43.58571" lon="6.28813">
        <ele>545.4</ele>
        <time>2023-01-25T13:34:38.000Z</time>
      </trkpt>
      <trkpt lat="43.58573" lon="6.28819">
        <ele>546.4</ele>
        <time>2023-01-25T13:34:45.000Z</time>
      </trkpt>
      <trkpt lat="43.58575" lon="6.28826">
        <ele>547.1</ele>
        <time>2023-01-25T13:34:51.000Z</time>
      </trkpt>
      <trkpt lat="43.58577" lon="6.28834">
        <ele>547.6</ele>
        <time>2023-01-25T13:34:56.000Z</time>
      </trkpt>
      <trkpt lat="43.58577" lon="6.28841">
        <ele>548.1</ele>
        <time>2023-01-25T13:35:00.000Z</time>
      </trkpt>
      <trkpt lat="43.58576" lon="6.28848">
        <ele>548.6</ele>
        <time>2023-01-25T13:35:04.000Z</time>
      </trkpt>
      <trkpt lat="43.58575" lon="6.28855">
        <ele>549.1</ele>
        <time>2023-01-25T13:35:08.000Z</time>
      </trkpt>
      <trkpt lat="43.58576" lon="6.28862">
        <ele>549.7</ele>
        <time>2023-01-25T13:35:13.000Z</time>
      </trkpt>
      <trkpt lat="43.58576" lon="6.28868">
        <ele>550.1</ele>
        <time>2023-01-25T13:35:18.000Z</time>
      </trkpt>
      <trkpt lat="43.58576" lon="6.28875">
        <ele>550.4</ele>
        <time>2023-01-25T13:35:23.000Z</time>
      </trkpt>
      <trkpt lat="43.58575" lon="6.28883">
        <ele>550.8</ele>
        <time>2023-01-25T13:35:29.000Z</time>
      </trkpt>
      <trkpt lat="43.58578" lon="6.28889">
        <ele>551.2</ele>
        <time>2023-01-25T13:35:38.000Z</time>
      </trkpt>
      <trkpt lat="43.58575" lon="6.28893">
        <ele>551.6</ele>
        <time>2023-01-25T13:35:54.000Z</time>
      </trkpt>
      <trkpt lat="43.58572" lon="6.28899">
        <ele>551.5</ele>
        <time>2023-01-25T13:36:19.000Z</time>
      </trkpt>
      <trkpt lat="43.58571" lon="6.28893">
        <ele>551.6</ele>
        <time>2023-01-25T13:36:50.000Z</time>
      </trkpt>
      <trkpt lat="43.58575" lon="6.28895">
        <ele>551.6</ele>
        <time>2023-01-25T13:37:34.000Z</time>
      </trkpt>
      <trkpt lat="43.58573" lon="6.289">
        <ele>551.6</ele>
        <time>2023-01-25T13:37:46.000Z</time>
      </trkpt>
      <trkpt lat="43.58575" lon="6.28894">
        <ele>551.8</ele>
        <time>2023-01-25T13:38:47.000Z</time>
      </trkpt>
      <trkpt lat="43.58577" lon="6.28901">
        <ele>551.8</ele>
        <time>2023-01-25T13:39:26.000Z</time>
      </trkpt>
      <trkpt lat="43.5858" lon="6.28908">
        <ele>551.6</ele>
        <time>2023-01-25T13:39:31.000Z</time>
      </trkpt>
      <trkpt lat="43.58578" lon="6.28915">
        <ele>551.4</ele>
        <time>2023-01-25T13:39:35.000Z</time>
      </trkpt>
      <trkpt lat="43.58578" lon="6.28922">
        <ele>551.3</ele>
        <time>2023-01-25T13:39:40.000Z</time>
      </trkpt>
      <trkpt lat="43.58577" lon="6.28929">
        <ele>551.3</ele>
        <time>2023-01-25T13:39:45.000Z</time>
      </trkpt>
      <trkpt lat="43.58577" lon="6.28936">
        <ele>551.2</ele>
        <time>2023-01-25T13:39:50.000Z</time>
      </trkpt>
      <trkpt lat="43.58576" lon="6.28943">
        <ele>551</ele>
        <time>2023-01-25T13:39:55.000Z</time>
      </trkpt>
      <trkpt lat="43.58576" lon="6.28949">
        <ele>550.8</ele>
        <time>2023-01-25T13:40:00.000Z</time>
      </trkpt>
      <trkpt lat="43.58577" lon="6.28956">
        <ele>550.5</ele>
        <time>2023-01-25T13:40:05.000Z</time>
      </trkpt>
      <trkpt lat="43.58579" lon="6.28963">
        <ele>550.4</ele>
        <time>2023-01-25T13:40:10.000Z</time>
      </trkpt>
      <trkpt lat="43.58579" lon="6.28969">
        <ele>550.2</ele>
        <time>2023-01-25T13:40:15.000Z</time>
      </trkpt>
      <trkpt lat="43.58579" lon="6.28976">
        <ele>550.2</ele>
        <time>2023-01-25T13:40:19.000Z</time>
      </trkpt>
      <trkpt lat="43.5858" lon="6.28982">
        <ele>550.1</ele>
        <time>2023-01-25T13:40:23.000Z</time>
      </trkpt>
      <trkpt lat="43.58581" lon="6.28989">
        <ele>550.1</ele>
        <time>2023-01-25T13:40:27.000Z</time>
      </trkpt>
      <trkpt lat="43.58581" lon="6.28995">
        <ele>550</ele>
        <time>2023-01-25T13:40:31.000Z</time>
      </trkpt>
      <trkpt lat="43.58583" lon="6.29002">
        <ele>550</ele>
        <time>2023-01-25T13:40:35.000Z</time>
      </trkpt>
      <trkpt lat="43.58584" lon="6.29009">
        <ele>550.2</ele>
        <time>2023-01-25T13:40:40.000Z</time>
      </trkpt>
      <trkpt lat="43.58586" lon="6.29016">
        <ele>550.4</ele>
        <time>2023-01-25T13:40:45.000Z</time>
      </trkpt>
      <trkpt lat="43.58587" lon="6.29022">
        <ele>550.6</ele>
        <time>2023-01-25T13:40:50.000Z</time>
      </trkpt>
      <trkpt lat="43.58589" lon="6.29029">
        <ele>550.9</ele>
        <time>2023-01-25T13:40:55.000Z</time>
      </trkpt>
      <trkpt lat="43.58591" lon="6.29036">
        <ele>551.2</ele>
        <time>2023-01-25T13:41:01.000Z</time>
      </trkpt>
      <trkpt lat="43.58593" lon="6.29043">
        <ele>551.6</ele>
        <time>2023-01-25T13:41:06.000Z</time>
      </trkpt>
      <trkpt lat="43.58595" lon="6.2905">
        <ele>551.9</ele>
        <time>2023-01-25T13:41:10.000Z</time>
      </trkpt>
      <trkpt lat="43.58596" lon="6.29056">
        <ele>552.2</ele>
        <time>2023-01-25T13:41:14.000Z</time>
      </trkpt>
      <trkpt lat="43.58598" lon="6.29063">
        <ele>552.6</ele>
        <time>2023-01-25T13:41:18.000Z</time>
      </trkpt>
      <trkpt lat="43.586" lon="6.29068">
        <ele>553.1</ele>
        <time>2023-01-25T13:41:22.000Z</time>
      </trkpt>
      <trkpt lat="43.58602" lon="6.29074">
        <ele>553.6</ele>
        <time>2023-01-25T13:41:26.000Z</time>
      </trkpt>
      <trkpt lat="43.58605" lon="6.2908">
        <ele>553.9</ele>
        <time>2023-01-25T13:41:30.000Z</time>
      </trkpt>
      <trkpt lat="43.58607" lon="6.29087">
        <ele>554.2</ele>
        <time>2023-01-25T13:41:35.000Z</time>
      </trkpt>
      <trkpt lat="43.58609" lon="6.29094">
        <ele>554.5</ele>
        <time>2023-01-25T13:41:40.000Z</time>
      </trkpt>
      <trkpt lat="43.5861" lon="6.291">
        <ele>554.7</ele>
        <time>2023-01-25T13:41:45.000Z</time>
      </trkpt>
      <trkpt lat="43.58613" lon="6.29106">
        <ele>554.6</ele>
        <time>2023-01-25T13:41:49.000Z</time>
      </trkpt>
      <trkpt lat="43.58615" lon="6.29112">
        <ele>554.5</ele>
        <time>2023-01-25T13:41:53.000Z</time>
      </trkpt>
      <trkpt lat="43.58618" lon="6.29119">
        <ele>554.5</ele>
        <time>2023-01-25T13:41:58.000Z</time>
      </trkpt>
      <trkpt lat="43.5862" lon="6.29125">
        <ele>554.5</ele>
        <time>2023-01-25T13:42:02.000Z</time>
      </trkpt>
      <trkpt lat="43.58622" lon="6.29131">
        <ele>554.6</ele>
        <time>2023-01-25T13:42:06.000Z</time>
      </trkpt>
      <trkpt lat="43.58624" lon="6.29137">
        <ele>554.7</ele>
        <time>2023-01-25T13:42:10.000Z</time>
      </trkpt>
      <trkpt lat="43.58626" lon="6.29142">
        <ele>554.8</ele>
        <time>2023-01-25T13:42:13.000Z</time>
      </trkpt>
      <trkpt lat="43.58629" lon="6.29149">
        <ele>555</ele>
        <time>2023-01-25T13:42:17.000Z</time>
      </trkpt>
      <trkpt lat="43.58632" lon="6.29154">
        <ele>555.1</ele>
        <time>2023-01-25T13:42:21.000Z</time>
      </trkpt>
      <trkpt lat="43.58635" lon="6.2916">
        <ele>555.2</ele>
        <time>2023-01-25T13:42:25.000Z</time>
      </trkpt>
      <trkpt lat="43.58638" lon="6.29166">
        <ele>555.4</ele>
        <time>2023-01-25T13:42:29.000Z</time>
      </trkpt>
      <trkpt lat="43.5864" lon="6.29172">
        <ele>555.7</ele>
        <time>2023-01-25T13:42:33.000Z</time>
      </trkpt>
      <trkpt lat="43.58642" lon="6.29178">
        <ele>555.9</ele>
        <time>2023-01-25T13:42:37.000Z</time>
      </trkpt>
      <trkpt lat="43.58644" lon="6.29185">
        <ele>556</ele>
        <time>2023-01-25T13:42:41.000Z</time>
      </trkpt>
      <trkpt lat="43.58645" lon="6.29192">
        <ele>556.1</ele>
        <time>2023-01-25T13:42:45.000Z</time>
      </trkpt>
      <trkpt lat="43.58645" lon="6.29198">
        <ele>556.2</ele>
        <time>2023-01-25T13:42:49.000Z</time>
      </trkpt>
      <trkpt lat="43.58646" lon="6.29205">
        <ele>556.4</ele>
        <time>2023-01-25T13:42:53.000Z</time>
      </trkpt>
      <trkpt lat="43.58646" lon="6.29212">
        <ele>556.5</ele>
        <time>2023-01-25T13:42:57.000Z</time>
      </trkpt>
      <trkpt lat="43.58646" lon="6.29219">
        <ele>556.6</ele>
        <time>2023-01-25T13:43:01.000Z</time>
      </trkpt>
      <trkpt lat="43.58645" lon="6.29226">
        <ele>556.4</ele>
        <time>2023-01-25T13:43:05.000Z</time>
      </trkpt>
      <trkpt lat="43.58646" lon="6.29233">
        <ele>556.3</ele>
        <time>2023-01-25T13:43:09.000Z</time>
      </trkpt>
      <trkpt lat="43.58647" lon="6.29239">
        <ele>556.4</ele>
        <time>2023-01-25T13:43:13.000Z</time>
      </trkpt>
      <trkpt lat="43.58648" lon="6.29246">
        <ele>556.4</ele>
        <time>2023-01-25T13:43:17.000Z</time>
      </trkpt>
      <trkpt lat="43.58649" lon="6.29253">
        <ele>556.4</ele>
        <time>2023-01-25T13:43:21.000Z</time>
      </trkpt>
      <trkpt lat="43.58651" lon="6.29259">
        <ele>556.4</ele>
        <time>2023-01-25T13:43:25.000Z</time>
      </trkpt>
      <trkpt lat="43.58653" lon="6.29265">
        <ele>556.4</ele>
        <time>2023-01-25T13:43:29.000Z</time>
      </trkpt>
      <trkpt lat="43.58655" lon="6.29272">
        <ele>556.4</ele>
        <time>2023-01-25T13:43:34.000Z</time>
      </trkpt>
      <trkpt lat="43.58656" lon="6.29279">
        <ele>556.6</ele>
        <time>2023-01-25T13:43:39.000Z</time>
      </trkpt>
      <trkpt lat="43.58657" lon="6.29285">
        <ele>556.7</ele>
        <time>2023-01-25T13:43:43.000Z</time>
      </trkpt>
      <trkpt lat="43.58657" lon="6.29293">
        <ele>556.9</ele>
        <time>2023-01-25T13:43:48.000Z</time>
      </trkpt>
      <trkpt lat="43.58658" lon="6.293">
        <ele>557.1</ele>
        <time>2023-01-25T13:43:53.000Z</time>
      </trkpt>
      <trkpt lat="43.58659" lon="6.29306">
        <ele>557.2</ele>
        <time>2023-01-25T13:43:57.000Z</time>
      </trkpt>
      <trkpt lat="43.58659" lon="6.29313">
        <ele>557.3</ele>
        <time>2023-01-25T13:44:01.000Z</time>
      </trkpt>
      <trkpt lat="43.5866" lon="6.2932">
        <ele>557.2</ele>
        <time>2023-01-25T13:44:04.000Z</time>
      </trkpt>
      <trkpt lat="43.5866" lon="6.29326">
        <ele>557.2</ele>
        <time>2023-01-25T13:44:07.000Z</time>
      </trkpt>
      <trkpt lat="43.5866" lon="6.29333">
        <ele>557.1</ele>
        <time>2023-01-25T13:44:11.000Z</time>
      </trkpt>
      <trkpt lat="43.5866" lon="6.2934">
        <ele>557.1</ele>
        <time>2023-01-25T13:44:15.000Z</time>
      </trkpt>
      <trkpt lat="43.58663" lon="6.29347">
        <ele>557.1</ele>
        <time>2023-01-25T13:44:20.000Z</time>
      </trkpt>
      <trkpt lat="43.58666" lon="6.29353">
        <ele>557.2</ele>
        <time>2023-01-25T13:44:23.000Z</time>
      </trkpt>
      <trkpt lat="43.5867" lon="6.29358">
        <ele>557.2</ele>
        <time>2023-01-25T13:44:27.000Z</time>
      </trkpt>
      <trkpt lat="43.58675" lon="6.29362">
        <ele>557.2</ele>
        <time>2023-01-25T13:44:31.000Z</time>
      </trkpt>
      <trkpt lat="43.58679" lon="6.29365">
        <ele>557.3</ele>
        <time>2023-01-25T13:44:35.000Z</time>
      </trkpt>
      <trkpt lat="43.58683" lon="6.29368">
        <ele>557.3</ele>
        <time>2023-01-25T13:44:39.000Z</time>
      </trkpt>
      <trkpt lat="43.58688" lon="6.29371">
        <ele>557.3</ele>
        <time>2023-01-25T13:44:43.000Z</time>
      </trkpt>
      <trkpt lat="43.58693" lon="6.29373">
        <ele>557.3</ele>
        <time>2023-01-25T13:44:47.000Z</time>
      </trkpt>
      <trkpt lat="43.58698" lon="6.29375">
        <ele>557.3</ele>
        <time>2023-01-25T13:44:51.000Z</time>
      </trkpt>
      <trkpt lat="43.58702" lon="6.29376">
        <ele>557.3</ele>
        <time>2023-01-25T13:44:55.000Z</time>
      </trkpt>
      <trkpt lat="43.58707" lon="6.29378">
        <ele>557.3</ele>
        <time>2023-01-25T13:44:59.000Z</time>
      </trkpt>
      <trkpt lat="43.58711" lon="6.29382">
        <ele>557.4</ele>
        <time>2023-01-25T13:45:03.000Z</time>
      </trkpt>
      <trkpt lat="43.58715" lon="6.29386">
        <ele>557.7</ele>
        <time>2023-01-25T13:45:08.000Z</time>
      </trkpt>
      <trkpt lat="43.58718" lon="6.29392">
        <ele>557.9</ele>
        <time>2023-01-25T13:45:13.000Z</time>
      </trkpt>
      <trkpt lat="43.58722" lon="6.29396">
        <ele>558.3</ele>
        <time>2023-01-25T13:45:17.000Z</time>
      </trkpt>
      <trkpt lat="43.58726" lon="6.29399">
        <ele>558.6</ele>
        <time>2023-01-25T13:45:21.000Z</time>
      </trkpt>
      <trkpt lat="43.58731" lon="6.29402">
        <ele>558.9</ele>
        <time>2023-01-25T13:45:25.000Z</time>
      </trkpt>
      <trkpt lat="43.58736" lon="6.29405">
        <ele>559.4</ele>
        <time>2023-01-25T13:45:30.000Z</time>
      </trkpt>
      <trkpt lat="43.58741" lon="6.29407">
        <ele>559.8</ele>
        <time>2023-01-25T13:45:35.000Z</time>
      </trkpt>
      <trkpt lat="43.58746" lon="6.29409">
        <ele>560.2</ele>
        <time>2023-01-25T13:45:39.000Z</time>
      </trkpt>
      <trkpt lat="43.5875" lon="6.29414">
        <ele>560.6</ele>
        <time>2023-01-25T13:45:44.000Z</time>
      </trkpt>
      <trkpt lat="43.58752" lon="6.29422">
        <ele>561.1</ele>
        <time>2023-01-25T13:45:49.000Z</time>
      </trkpt>
      <trkpt lat="43.58751" lon="6.29428">
        <ele>561.4</ele>
        <time>2023-01-25T13:45:53.000Z</time>
      </trkpt>
      <trkpt lat="43.5875" lon="6.29434">
        <ele>561.9</ele>
        <time>2023-01-25T13:45:57.000Z</time>
      </trkpt>
      <trkpt lat="43.58749" lon="6.29441">
        <ele>562.5</ele>
        <time>2023-01-25T13:46:02.000Z</time>
      </trkpt>
      <trkpt lat="43.58748" lon="6.29448">
        <ele>563</ele>
        <time>2023-01-25T13:46:07.000Z</time>
      </trkpt>
      <trkpt lat="43.58747" lon="6.29454">
        <ele>563.4</ele>
        <time>2023-01-25T13:46:11.000Z</time>
      </trkpt>
      <trkpt lat="43.58745" lon="6.2946">
        <ele>563.8</ele>
        <time>2023-01-25T13:46:15.000Z</time>
      </trkpt>
      <trkpt lat="43.58742" lon="6.29467">
        <ele>564.1</ele>
        <time>2023-01-25T13:46:19.000Z</time>
      </trkpt>
      <trkpt lat="43.58742" lon="6.29473">
        <ele>564.5</ele>
        <time>2023-01-25T13:46:23.000Z</time>
      </trkpt>
      <trkpt lat="43.58743" lon="6.2948">
        <ele>564.9</ele>
        <time>2023-01-25T13:46:28.000Z</time>
      </trkpt>
      <trkpt lat="43.58746" lon="6.29486">
        <ele>565.3</ele>
        <time>2023-01-25T13:46:33.000Z</time>
      </trkpt>
      <trkpt lat="43.58748" lon="6.29492">
        <ele>565.6</ele>
        <time>2023-01-25T13:46:37.000Z</time>
      </trkpt>
      <trkpt lat="43.58752" lon="6.29498">
        <ele>566</ele>
        <time>2023-01-25T13:46:41.000Z</time>
      </trkpt>
      <trkpt lat="43.58754" lon="6.29505">
        <ele>566.5</ele>
        <time>2023-01-25T13:46:45.000Z</time>
      </trkpt>
      <trkpt lat="43.58757" lon="6.2951">
        <ele>566.9</ele>
        <time>2023-01-25T13:46:49.000Z</time>
      </trkpt>
      <trkpt lat="43.58759" lon="6.29515">
        <ele>567.2</ele>
        <time>2023-01-25T13:46:53.000Z</time>
      </trkpt>
      <trkpt lat="43.58762" lon="6.2952">
        <ele>567.4</ele>
        <time>2023-01-25T13:46:56.000Z</time>
      </trkpt>
      <trkpt lat="43.58765" lon="6.29525">
        <ele>567.6</ele>
        <time>2023-01-25T13:46:59.000Z</time>
      </trkpt>
      <trkpt lat="43.58768" lon="6.29531">
        <ele>567.8</ele>
        <time>2023-01-25T13:47:03.000Z</time>
      </trkpt>
      <trkpt lat="43.58771" lon="6.29535">
        <ele>568</ele>
        <time>2023-01-25T13:47:06.000Z</time>
      </trkpt>
      <trkpt lat="43.58774" lon="6.29542">
        <ele>568.5</ele>
        <time>2023-01-25T13:47:10.000Z</time>
      </trkpt>
      <trkpt lat="43.58776" lon="6.29547">
        <ele>568.8</ele>
        <time>2023-01-25T13:47:14.000Z</time>
      </trkpt>
      <trkpt lat="43.58779" lon="6.29554">
        <ele>569.2</ele>
        <time>2023-01-25T13:47:19.000Z</time>
      </trkpt>
      <trkpt lat="43.58781" lon="6.2956">
        <ele>569.4</ele>
        <time>2023-01-25T13:47:24.000Z</time>
      </trkpt>
      <trkpt lat="43.58783" lon="6.29566">
        <ele>569.3</ele>
        <time>2023-01-25T13:47:32.000Z</time>
      </trkpt>
      <trkpt lat="43.58785" lon="6.29572">
        <ele>569.1</ele>
        <time>2023-01-25T13:47:47.000Z</time>
      </trkpt>
      <trkpt lat="43.58789" lon="6.29576">
        <ele>568.7</ele>
        <time>2023-01-25T13:48:13.000Z</time>
      </trkpt>
      <trkpt lat="43.58793" lon="6.29577">
        <ele>567.9</ele>
        <time>2023-01-25T13:49:45.000Z</time>
      </trkpt>
      <trkpt lat="43.58798" lon="6.29576">
        <ele>567.7</ele>
        <time>2023-01-25T13:50:01.000Z</time>
      </trkpt>
      <trkpt lat="43.58803" lon="6.29578">
        <ele>567.7</ele>
        <time>2023-01-25T13:50:06.000Z</time>
      </trkpt>
      <trkpt lat="43.58807" lon="6.29579">
        <ele>567.6</ele>
        <time>2023-01-25T13:50:11.000Z</time>
      </trkpt>
      <trkpt lat="43.58811" lon="6.29584">
        <ele>567.5</ele>
        <time>2023-01-25T13:50:17.000Z</time>
      </trkpt>
      <trkpt lat="43.58814" lon="6.29589">
        <ele>567.4</ele>
        <time>2023-01-25T13:50:23.000Z</time>
      </trkpt>
      <trkpt lat="43.58817" lon="6.29595">
        <ele>567.3</ele>
        <time>2023-01-25T13:50:27.000Z</time>
      </trkpt>
      <trkpt lat="43.5882" lon="6.296">
        <ele>567.2</ele>
        <time>2023-01-25T13:50:31.000Z</time>
      </trkpt>
      <trkpt lat="43.58824" lon="6.29606">
        <ele>567.1</ele>
        <time>2023-01-25T13:50:35.000Z</time>
      </trkpt>
      <trkpt lat="43.58827" lon="6.29611">
        <ele>567.2</ele>
        <time>2023-01-25T13:50:39.000Z</time>
      </trkpt>
      <trkpt lat="43.58831" lon="6.29616">
        <ele>567.2</ele>
        <time>2023-01-25T13:50:43.000Z</time>
      </trkpt>
      <trkpt lat="43.58834" lon="6.29621">
        <ele>567.3</ele>
        <time>2023-01-25T13:50:47.000Z</time>
      </trkpt>
      <trkpt lat="43.58837" lon="6.29626">
        <ele>567.3</ele>
        <time>2023-01-25T13:50:51.000Z</time>
      </trkpt>
      <trkpt lat="43.58841" lon="6.29631">
        <ele>567.4</ele>
        <time>2023-01-25T13:50:55.000Z</time>
      </trkpt>
      <trkpt lat="43.58844" lon="6.29636">
        <ele>567.5</ele>
        <time>2023-01-25T13:50:59.000Z</time>
      </trkpt>
      <trkpt lat="43.58848" lon="6.29641">
        <ele>567.7</ele>
        <time>2023-01-25T13:51:04.000Z</time>
      </trkpt>
      <trkpt lat="43.58852" lon="6.29645">
        <ele>568</ele>
        <time>2023-01-25T13:51:09.000Z</time>
      </trkpt>
      <trkpt lat="43.58856" lon="6.2965">
        <ele>568.3</ele>
        <time>2023-01-25T13:51:14.000Z</time>
      </trkpt>
      <trkpt lat="43.58859" lon="6.29654">
        <ele>568.7</ele>
        <time>2023-01-25T13:51:18.000Z</time>
      </trkpt>
      <trkpt lat="43.58864" lon="6.29657">
        <ele>569.3</ele>
        <time>2023-01-25T13:51:23.000Z</time>
      </trkpt>
      <trkpt lat="43.58866" lon="6.29664">
        <ele>570.2</ele>
        <time>2023-01-25T13:51:29.000Z</time>
      </trkpt>
      <trkpt lat="43.58867" lon="6.2967">
        <ele>570.9</ele>
        <time>2023-01-25T13:51:33.000Z</time>
      </trkpt>
      <trkpt lat="43.58868" lon="6.29677">
        <ele>571.7</ele>
        <time>2023-01-25T13:51:37.000Z</time>
      </trkpt>
      <trkpt lat="43.5887" lon="6.29684">
        <ele>573</ele>
        <time>2023-01-25T13:51:43.000Z</time>
      </trkpt>
      <trkpt lat="43.58871" lon="6.2969">
        <ele>574.1</ele>
        <time>2023-01-25T13:51:48.000Z</time>
      </trkpt>
      <trkpt lat="43.58873" lon="6.29696">
        <ele>575</ele>
        <time>2023-01-25T13:51:53.000Z</time>
      </trkpt>
      <trkpt lat="43.58875" lon="6.29703">
        <ele>576.1</ele>
        <time>2023-01-25T13:51:58.000Z</time>
      </trkpt>
      <trkpt lat="43.58876" lon="6.29709">
        <ele>577.1</ele>
        <time>2023-01-25T13:52:02.000Z</time>
      </trkpt>
      <trkpt lat="43.58877" lon="6.29716">
        <ele>578</ele>
        <time>2023-01-25T13:52:06.000Z</time>
      </trkpt>
      <trkpt lat="43.58879" lon="6.29723">
        <ele>579</ele>
        <time>2023-01-25T13:52:11.000Z</time>
      </trkpt>
      <trkpt lat="43.58882" lon="6.29729">
        <ele>579.8</ele>
        <time>2023-01-25T13:52:16.000Z</time>
      </trkpt>
      <trkpt lat="43.58884" lon="6.29735">
        <ele>580.5</ele>
        <time>2023-01-25T13:52:20.000Z</time>
      </trkpt>
      <trkpt lat="43.58888" lon="6.2974">
        <ele>581.2</ele>
        <time>2023-01-25T13:52:24.000Z</time>
      </trkpt>
      <trkpt lat="43.58891" lon="6.29745">
        <ele>581.8</ele>
        <time>2023-01-25T13:52:28.000Z</time>
      </trkpt>
      <trkpt lat="43.58894" lon="6.2975">
        <ele>582.7</ele>
        <time>2023-01-25T13:52:33.000Z</time>
      </trkpt>
      <trkpt lat="43.58897" lon="6.29755">
        <ele>583.8</ele>
        <time>2023-01-25T13:52:39.000Z</time>
      </trkpt>
      <trkpt lat="43.589" lon="6.29762">
        <ele>584.8</ele>
        <time>2023-01-25T13:52:45.000Z</time>
      </trkpt>
      <trkpt lat="43.58901" lon="6.29769">
        <ele>585.5</ele>
        <time>2023-01-25T13:52:50.000Z</time>
      </trkpt>
      <trkpt lat="43.58902" lon="6.29776">
        <ele>586</ele>
        <time>2023-01-25T13:52:55.000Z</time>
      </trkpt>
      <trkpt lat="43.58902" lon="6.29783">
        <ele>586.5</ele>
        <time>2023-01-25T13:52:59.000Z</time>
      </trkpt>
      <trkpt lat="43.58902" lon="6.2979">
        <ele>587</ele>
        <time>2023-01-25T13:53:03.000Z</time>
      </trkpt>
      <trkpt lat="43.58901" lon="6.29797">
        <ele>587.5</ele>
        <time>2023-01-25T13:53:08.000Z</time>
      </trkpt>
      <trkpt lat="43.58901" lon="6.29804">
        <ele>588.1</ele>
        <time>2023-01-25T13:53:13.000Z</time>
      </trkpt>
      <trkpt lat="43.58899" lon="6.29809">
        <ele>588.5</ele>
        <time>2023-01-25T13:53:17.000Z</time>
      </trkpt>
      <trkpt lat="43.58897" lon="6.29815">
        <ele>589</ele>
        <time>2023-01-25T13:53:21.000Z</time>
      </trkpt>
      <trkpt lat="43.58896" lon="6.29823">
        <ele>589.7</ele>
        <time>2023-01-25T13:53:26.000Z</time>
      </trkpt>
      <trkpt lat="43.58896" lon="6.29829">
        <ele>590.4</ele>
        <time>2023-01-25T13:53:31.000Z</time>
      </trkpt>
      <trkpt lat="43.58897" lon="6.29836">
        <ele>591.1</ele>
        <time>2023-01-25T13:53:36.000Z</time>
      </trkpt>
      <trkpt lat="43.58899" lon="6.29842">
        <ele>592</ele>
        <time>2023-01-25T13:53:42.000Z</time>
      </trkpt>
      <trkpt lat="43.58901" lon="6.29848">
        <ele>592.8</ele>
        <time>2023-01-25T13:53:48.000Z</time>
      </trkpt>
      <trkpt lat="43.58904" lon="6.29852">
        <ele>593.6</ele>
        <time>2023-01-25T13:53:53.000Z</time>
      </trkpt>
      <trkpt lat="43.58908" lon="6.29857">
        <ele>594.5</ele>
        <time>2023-01-25T13:53:59.000Z</time>
      </trkpt>
      <trkpt lat="43.58912" lon="6.29862">
        <ele>595.4</ele>
        <time>2023-01-25T13:54:05.000Z</time>
      </trkpt>
      <trkpt lat="43.58916" lon="6.29867">
        <ele>596.2</ele>
        <time>2023-01-25T13:54:10.000Z</time>
      </trkpt>
      <trkpt lat="43.5892" lon="6.29871">
        <ele>597.2</ele>
        <time>2023-01-25T13:54:15.000Z</time>
      </trkpt>
      <trkpt lat="43.58924" lon="6.29876">
        <ele>598.3</ele>
        <time>2023-01-25T13:54:21.000Z</time>
      </trkpt>
      <trkpt lat="43.58928" lon="6.2988">
        <ele>599.1</ele>
        <time>2023-01-25T13:54:26.000Z</time>
      </trkpt>
      <trkpt lat="43.58931" lon="6.29884">
        <ele>600.2</ele>
        <time>2023-01-25T13:54:32.000Z</time>
      </trkpt>
      <trkpt lat="43.58934" lon="6.29891">
        <ele>601.2</ele>
        <time>2023-01-25T13:54:38.000Z</time>
      </trkpt>
      <trkpt lat="43.58935" lon="6.29898">
        <ele>602.4</ele>
        <time>2023-01-25T13:54:44.000Z</time>
      </trkpt>
      <trkpt lat="43.58935" lon="6.29905">
        <ele>603.5</ele>
        <time>2023-01-25T13:54:50.000Z</time>
      </trkpt>
      <trkpt lat="43.58936" lon="6.29912">
        <ele>604.7</ele>
        <time>2023-01-25T13:54:56.000Z</time>
      </trkpt>
      <trkpt lat="43.58939" lon="6.29918">
        <ele>605.6</ele>
        <time>2023-01-25T13:55:01.000Z</time>
      </trkpt>
      <trkpt lat="43.5894" lon="6.29924">
        <ele>606.7</ele>
        <time>2023-01-25T13:55:06.000Z</time>
      </trkpt>
      <trkpt lat="43.58939" lon="6.29931">
        <ele>607.5</ele>
        <time>2023-01-25T13:55:11.000Z</time>
      </trkpt>
      <trkpt lat="43.58939" lon="6.29938">
        <ele>608.6</ele>
        <time>2023-01-25T13:55:17.000Z</time>
      </trkpt>
      <trkpt lat="43.58938" lon="6.29945">
        <ele>609.6</ele>
        <time>2023-01-25T13:55:23.000Z</time>
      </trkpt>
      <trkpt lat="43.58938" lon="6.29951">
        <ele>610.7</ele>
        <time>2023-01-25T13:55:29.000Z</time>
      </trkpt>
      <trkpt lat="43.58938" lon="6.29958">
        <ele>612</ele>
        <time>2023-01-25T13:55:36.000Z</time>
      </trkpt>
      <trkpt lat="43.58937" lon="6.29964">
        <ele>612.7</ele>
        <time>2023-01-25T13:55:42.000Z</time>
      </trkpt>
      <trkpt lat="43.58935" lon="6.2997">
        <ele>613</ele>
        <time>2023-01-25T13:55:47.000Z</time>
      </trkpt>
      <trkpt lat="43.58934" lon="6.29976">
        <ele>613.4</ele>
        <time>2023-01-25T13:55:52.000Z</time>
      </trkpt>
      <trkpt lat="43.58931" lon="6.29982">
        <ele>614.1</ele>
        <time>2023-01-25T13:55:58.000Z</time>
      </trkpt>
      <trkpt lat="43.5893" lon="6.29988">
        <ele>614.8</ele>
        <time>2023-01-25T13:56:05.000Z</time>
      </trkpt>
      <trkpt lat="43.58928" lon="6.29995">
        <ele>615.6</ele>
        <time>2023-01-25T13:56:11.000Z</time>
      </trkpt>
      <trkpt lat="43.58926" lon="6.30001">
        <ele>616.4</ele>
        <time>2023-01-25T13:56:17.000Z</time>
      </trkpt>
      <trkpt lat="43.58923" lon="6.30006">
        <ele>617.4</ele>
        <time>2023-01-25T13:56:23.000Z</time>
      </trkpt>
      <trkpt lat="43.58921" lon="6.30012">
        <ele>618.6</ele>
        <time>2023-01-25T13:56:30.000Z</time>
      </trkpt>
      <trkpt lat="43.58919" lon="6.30019">
        <ele>619.8</ele>
        <time>2023-01-25T13:56:37.000Z</time>
      </trkpt>
      <trkpt lat="43.58918" lon="6.30025">
        <ele>620.7</ele>
        <time>2023-01-25T13:56:44.000Z</time>
      </trkpt>
      <trkpt lat="43.58916" lon="6.30032">
        <ele>621.8</ele>
        <time>2023-01-25T13:56:52.000Z</time>
      </trkpt>
      <trkpt lat="43.58915" lon="6.30038">
        <ele>622.7</ele>
        <time>2023-01-25T13:56:59.000Z</time>
      </trkpt>
      <trkpt lat="43.58913" lon="6.30044">
        <ele>623.8</ele>
        <time>2023-01-25T13:57:06.000Z</time>
      </trkpt>
      <trkpt lat="43.58911" lon="6.3005">
        <ele>624.9</ele>
        <time>2023-01-25T13:57:13.000Z</time>
      </trkpt>
      <trkpt lat="43.58907" lon="6.30055">
        <ele>626</ele>
        <time>2023-01-25T13:57:20.000Z</time>
      </trkpt>
      <trkpt lat="43.58905" lon="6.30061">
        <ele>627.3</ele>
        <time>2023-01-25T13:57:28.000Z</time>
      </trkpt>
      <trkpt lat="43.58904" lon="6.30067">
        <ele>628.8</ele>
        <time>2023-01-25T13:57:36.000Z</time>
      </trkpt>
      <trkpt lat="43.58901" lon="6.30072">
        <ele>629.6</ele>
        <time>2023-01-25T13:57:41.000Z</time>
      </trkpt>
      <trkpt lat="43.58898" lon="6.30078">
        <ele>630.4</ele>
        <time>2023-01-25T13:57:46.000Z</time>
      </trkpt>
      <trkpt lat="43.58895" lon="6.30084">
        <ele>631.2</ele>
        <time>2023-01-25T13:57:52.000Z</time>
      </trkpt>
      <trkpt lat="43.58893" lon="6.3009">
        <ele>632.6</ele>
        <time>2023-01-25T13:58:10.000Z</time>
      </trkpt>
      <trkpt lat="43.58889" lon="6.30093">
        <ele>633.7</ele>
        <time>2023-01-25T13:58:43.000Z</time>
      </trkpt>
      <trkpt lat="43.58894" lon="6.30094">
        <ele>634</ele>
        <time>2023-01-25T14:01:35.000Z</time>
      </trkpt>
      <trkpt lat="43.58899" lon="6.30094">
        <ele>634.7</ele>
        <time>2023-01-25T14:01:40.000Z</time>
      </trkpt>
      <trkpt lat="43.58903" lon="6.30094">
        <ele>635.2</ele>
        <time>2023-01-25T14:01:45.000Z</time>
      </trkpt>
      <trkpt lat="43.58908" lon="6.30092">
        <ele>635.7</ele>
        <time>2023-01-25T14:01:50.000Z</time>
      </trkpt>
      <trkpt lat="43.58913" lon="6.3009">
        <ele>636.3</ele>
        <time>2023-01-25T14:01:55.000Z</time>
      </trkpt>
      <trkpt lat="43.58918" lon="6.30087">
        <ele>636.8</ele>
        <time>2023-01-25T14:02:00.000Z</time>
      </trkpt>
      <trkpt lat="43.58923" lon="6.30084">
        <ele>637.3</ele>
        <time>2023-01-25T14:02:05.000Z</time>
      </trkpt>
      <trkpt lat="43.58927" lon="6.30082">
        <ele>637.7</ele>
        <time>2023-01-25T14:02:09.000Z</time>
      </trkpt>
      <trkpt lat="43.58932" lon="6.3008">
        <ele>638.4</ele>
        <time>2023-01-25T14:02:13.000Z</time>
      </trkpt>
      <trkpt lat="43.58937" lon="6.30077">
        <ele>639.1</ele>
        <time>2023-01-25T14:02:18.000Z</time>
      </trkpt>
      <trkpt lat="43.58941" lon="6.30076">
        <ele>639.8</ele>
        <time>2023-01-25T14:02:23.000Z</time>
      </trkpt>
      <trkpt lat="43.58945" lon="6.30079">
        <ele>641.3</ele>
        <time>2023-01-25T14:02:32.000Z</time>
      </trkpt>
      <trkpt lat="43.58947" lon="6.30085">
        <ele>642.7</ele>
        <time>2023-01-25T14:02:39.000Z</time>
      </trkpt>
      <trkpt lat="43.58949" lon="6.30091">
        <ele>645.2</ele>
        <time>2023-01-25T14:03:02.000Z</time>
      </trkpt>
      <trkpt lat="43.58946" lon="6.30097">
        <ele>645.9</ele>
        <time>2023-01-25T14:03:12.000Z</time>
      </trkpt>
      <trkpt lat="43.58947" lon="6.30104">
        <ele>646.8</ele>
        <time>2023-01-25T14:03:19.000Z</time>
      </trkpt>
      <trkpt lat="43.58945" lon="6.30111">
        <ele>648</ele>
        <time>2023-01-25T14:03:28.000Z</time>
      </trkpt>
      <trkpt lat="43.58944" lon="6.30118">
        <ele>648.8</ele>
        <time>2023-01-25T14:03:35.000Z</time>
      </trkpt>
      <trkpt lat="43.58944" lon="6.30125">
        <ele>649.6</ele>
        <time>2023-01-25T14:03:41.000Z</time>
      </trkpt>
      <trkpt lat="43.58949" lon="6.30128">
        <ele>651.2</ele>
        <time>2023-01-25T14:03:51.000Z</time>
      </trkpt>
      <trkpt lat="43.58953" lon="6.30131">
        <ele>652.4</ele>
        <time>2023-01-25T14:04:05.000Z</time>
      </trkpt>
      <trkpt lat="43.58954" lon="6.30137">
        <ele>653.5</ele>
        <time>2023-01-25T14:04:16.000Z</time>
      </trkpt>
      <trkpt lat="43.58958" lon="6.30141">
        <ele>655</ele>
        <time>2023-01-25T14:04:29.000Z</time>
      </trkpt>
      <trkpt lat="43.58962" lon="6.30143">
        <ele>656.2</ele>
        <time>2023-01-25T14:04:38.000Z</time>
      </trkpt>
      <trkpt lat="43.58965" lon="6.30148">
        <ele>657.7</ele>
        <time>2023-01-25T14:04:47.000Z</time>
      </trkpt>
      <trkpt lat="43.58963" lon="6.30154">
        <ele>659.5</ele>
        <time>2023-01-25T14:04:57.000Z</time>
      </trkpt>
      <trkpt lat="43.58959" lon="6.3016">
        <ele>660.1</ele>
        <time>2023-01-25T14:05:01.000Z</time>
      </trkpt>
      <trkpt lat="43.58958" lon="6.30168">
        <ele>660.8</ele>
        <time>2023-01-25T14:05:07.000Z</time>
      </trkpt>
      <trkpt lat="43.58958" lon="6.30176">
        <ele>661.1</ele>
        <time>2023-01-25T14:05:11.000Z</time>
      </trkpt>
      <trkpt lat="43.58957" lon="6.30182">
        <ele>661.6</ele>
        <time>2023-01-25T14:05:18.000Z</time>
      </trkpt>
      <trkpt lat="43.58959" lon="6.30188">
        <ele>661.9</ele>
        <time>2023-01-25T14:05:24.000Z</time>
      </trkpt>
      <trkpt lat="43.58961" lon="6.30194">
        <ele>662.2</ele>
        <time>2023-01-25T14:05:31.000Z</time>
      </trkpt>
      <trkpt lat="43.58959" lon="6.302">
        <ele>662.4</ele>
        <time>2023-01-25T14:05:37.000Z</time>
      </trkpt>
      <trkpt lat="43.58957" lon="6.30207">
        <ele>662.6</ele>
        <time>2023-01-25T14:05:44.000Z</time>
      </trkpt>
      <trkpt lat="43.58958" lon="6.30214">
        <ele>662</ele>
        <time>2023-01-25T14:05:58.000Z</time>
      </trkpt>
      <trkpt lat="43.58954" lon="6.30221">
        <ele>661.8</ele>
        <time>2023-01-25T14:06:02.000Z</time>
      </trkpt>
      <trkpt lat="43.5895" lon="6.30227">
        <ele>661.7</ele>
        <time>2023-01-25T14:06:04.000Z</time>
      </trkpt>
      <trkpt lat="43.58946" lon="6.30233">
        <ele>661.6</ele>
        <time>2023-01-25T14:06:06.000Z</time>
      </trkpt>
      <trkpt lat="43.58942" lon="6.30237">
        <ele>661.4</ele>
        <time>2023-01-25T14:06:09.000Z</time>
      </trkpt>
      <trkpt lat="43.58937" lon="6.3024">
        <ele>661.3</ele>
        <time>2023-01-25T14:06:13.000Z</time>
      </trkpt>
      <trkpt lat="43.58933" lon="6.30243">
        <ele>660.9</ele>
        <time>2023-01-25T14:06:22.000Z</time>
      </trkpt>
      <trkpt lat="43.5893" lon="6.30248">
        <ele>660.7</ele>
        <time>2023-01-25T14:06:30.000Z</time>
      </trkpt>
      <trkpt lat="43.58926" lon="6.30253">
        <ele>660.5</ele>
        <time>2023-01-25T14:06:39.000Z</time>
      </trkpt>
      <trkpt lat="43.58922" lon="6.30257">
        <ele>660.5</ele>
        <time>2023-01-25T14:06:46.000Z</time>
      </trkpt>
      <trkpt lat="43.58919" lon="6.30261">
        <ele>660.4</ele>
        <time>2023-01-25T14:06:52.000Z</time>
      </trkpt>
      <trkpt lat="43.58914" lon="6.30264">
        <ele>660.6</ele>
        <time>2023-01-25T14:07:00.000Z</time>
      </trkpt>
      <trkpt lat="43.5891" lon="6.30266">
        <ele>660.7</ele>
        <time>2023-01-25T14:07:06.000Z</time>
      </trkpt>
      <trkpt lat="43.58905" lon="6.30265">
        <ele>660.7</ele>
        <time>2023-01-25T14:07:12.000Z</time>
      </trkpt>
      <trkpt lat="43.589" lon="6.30265">
        <ele>660.6</ele>
        <time>2023-01-25T14:07:17.000Z</time>
      </trkpt>
      <trkpt lat="43.58896" lon="6.30265">
        <ele>660.5</ele>
        <time>2023-01-25T14:07:22.000Z</time>
      </trkpt>
      <trkpt lat="43.58891" lon="6.30264">
        <ele>660.4</ele>
        <time>2023-01-25T14:07:26.000Z</time>
      </trkpt>
      <trkpt lat="43.58886" lon="6.30263">
        <ele>660.3</ele>
        <time>2023-01-25T14:07:33.000Z</time>
      </trkpt>
      <trkpt lat="43.58881" lon="6.30262">
        <ele>660.1</ele>
        <time>2023-01-25T14:07:39.000Z</time>
      </trkpt>
      <trkpt lat="43.58876" lon="6.3026">
        <ele>659.9</ele>
        <time>2023-01-25T14:07:46.000Z</time>
      </trkpt>
      <trkpt lat="43.58875" lon="6.30254">
        <ele>659.5</ele>
        <time>2023-01-25T14:08:39.000Z</time>
      </trkpt>
      <trkpt lat="43.58876" lon="6.30261">
        <ele>660.1</ele>
        <time>2023-01-25T14:11:27.000Z</time>
      </trkpt>
      <trkpt lat="43.5888" lon="6.30263">
        <ele>660.1</ele>
        <time>2023-01-25T14:11:35.000Z</time>
      </trkpt>
      <trkpt lat="43.58882" lon="6.30269">
        <ele>660.1</ele>
        <time>2023-01-25T14:11:42.000Z</time>
      </trkpt>
      <trkpt lat="43.58885" lon="6.30274">
        <ele>660.1</ele>
        <time>2023-01-25T14:11:47.000Z</time>
      </trkpt>
      <trkpt lat="43.58888" lon="6.30279">
        <ele>660.1</ele>
        <time>2023-01-25T14:11:53.000Z</time>
      </trkpt>
      <trkpt lat="43.58893" lon="6.30281">
        <ele>660.2</ele>
        <time>2023-01-25T14:12:01.000Z</time>
      </trkpt>
      <trkpt lat="43.58894" lon="6.30288">
        <ele>660.4</ele>
        <time>2023-01-25T14:12:06.000Z</time>
      </trkpt>
      <trkpt lat="43.58893" lon="6.30295">
        <ele>660.5</ele>
        <time>2023-01-25T14:12:11.000Z</time>
      </trkpt>
      <trkpt lat="43.58892" lon="6.30302">
        <ele>660.7</ele>
        <time>2023-01-25T14:12:15.000Z</time>
      </trkpt>
      <trkpt lat="43.58889" lon="6.30308">
        <ele>661</ele>
        <time>2023-01-25T14:12:20.000Z</time>
      </trkpt>
      <trkpt lat="43.58885" lon="6.30313">
        <ele>661.3</ele>
        <time>2023-01-25T14:12:26.000Z</time>
      </trkpt>
      <trkpt lat="43.58882" lon="6.30317">
        <ele>661.5</ele>
        <time>2023-01-25T14:12:32.000Z</time>
      </trkpt>
      <trkpt lat="43.58878" lon="6.30322">
        <ele>661.9</ele>
        <time>2023-01-25T14:12:39.000Z</time>
      </trkpt>
      <trkpt lat="43.58875" lon="6.30328">
        <ele>662.4</ele>
        <time>2023-01-25T14:12:44.000Z</time>
      </trkpt>
      <trkpt lat="43.58873" lon="6.30334">
        <ele>662.7</ele>
        <time>2023-01-25T14:12:49.000Z</time>
      </trkpt>
      <trkpt lat="43.58871" lon="6.30341">
        <ele>663.3</ele>
        <time>2023-01-25T14:12:55.000Z</time>
      </trkpt>
      <trkpt lat="43.58868" lon="6.30346">
        <ele>663.8</ele>
        <time>2023-01-25T14:13:00.000Z</time>
      </trkpt>
      <trkpt lat="43.58866" lon="6.30352">
        <ele>664.2</ele>
        <time>2023-01-25T14:13:06.000Z</time>
      </trkpt>
      <trkpt lat="43.58863" lon="6.30358">
        <ele>664.6</ele>
        <time>2023-01-25T14:13:12.000Z</time>
      </trkpt>
      <trkpt lat="43.5886" lon="6.30363">
        <ele>664.9</ele>
        <time>2023-01-25T14:13:18.000Z</time>
      </trkpt>
      <trkpt lat="43.58857" lon="6.3037">
        <ele>665.4</ele>
        <time>2023-01-25T14:13:25.000Z</time>
      </trkpt>
      <trkpt lat="43.58854" lon="6.30375">
        <ele>665.8</ele>
        <time>2023-01-25T14:13:30.000Z</time>
      </trkpt>
      <trkpt lat="43.58851" lon="6.3038">
        <ele>666.2</ele>
        <time>2023-01-25T14:13:36.000Z</time>
      </trkpt>
      <trkpt lat="43.58848" lon="6.30386">
        <ele>666.8</ele>
        <time>2023-01-25T14:13:42.000Z</time>
      </trkpt>
      <trkpt lat="43.58846" lon="6.30392">
        <ele>667.3</ele>
        <time>2023-01-25T14:13:47.000Z</time>
      </trkpt>
      <trkpt lat="43.58843" lon="6.30398">
        <ele>668.2</ele>
        <time>2023-01-25T14:13:53.000Z</time>
      </trkpt>
      <trkpt lat="43.5884" lon="6.30403">
        <ele>669</ele>
        <time>2023-01-25T14:13:59.000Z</time>
      </trkpt>
      <trkpt lat="43.58837" lon="6.30409">
        <ele>669.5</ele>
        <time>2023-01-25T14:14:05.000Z</time>
      </trkpt>
      <trkpt lat="43.58834" lon="6.30415">
        <ele>669.9</ele>
        <time>2023-01-25T14:14:11.000Z</time>
      </trkpt>
      <trkpt lat="43.58832" lon="6.3042">
        <ele>670</ele>
        <time>2023-01-25T14:14:17.000Z</time>
      </trkpt>
      <trkpt lat="43.58829" lon="6.30425">
        <ele>670.1</ele>
        <time>2023-01-25T14:14:22.000Z</time>
      </trkpt>
      <trkpt lat="43.58827" lon="6.30432">
        <ele>670.3</ele>
        <time>2023-01-25T14:14:28.000Z</time>
      </trkpt>
      <trkpt lat="43.58826" lon="6.30439">
        <ele>670.7</ele>
        <time>2023-01-25T14:14:35.000Z</time>
      </trkpt>
      <trkpt lat="43.58828" lon="6.30446">
        <ele>672.4</ele>
        <time>2023-01-25T14:15:01.000Z</time>
      </trkpt>
      <trkpt lat="43.58833" lon="6.30445">
        <ele>673.1</ele>
        <time>2023-01-25T14:15:34.000Z</time>
      </trkpt>
      <trkpt lat="43.58834" lon="6.30452">
        <ele>673.2</ele>
        <time>2023-01-25T14:15:39.000Z</time>
      </trkpt>
      <trkpt lat="43.58834" lon="6.30459">
        <ele>673.2</ele>
        <time>2023-01-25T14:15:43.000Z</time>
      </trkpt>
      <trkpt lat="43.58832" lon="6.30466">
        <ele>673.3</ele>
        <time>2023-01-25T14:15:48.000Z</time>
      </trkpt>
      <trkpt lat="43.5883" lon="6.30472">
        <ele>673.4</ele>
        <time>2023-01-25T14:15:54.000Z</time>
      </trkpt>
      <trkpt lat="43.58832" lon="6.30479">
        <ele>673.5</ele>
        <time>2023-01-25T14:15:59.000Z</time>
      </trkpt>
      <trkpt lat="43.58828" lon="6.30477">
        <ele>674</ele>
        <time>2023-01-25T14:16:12.000Z</time>
      </trkpt>
      <trkpt lat="43.58825" lon="6.30482">
        <ele>674.4</ele>
        <time>2023-01-25T14:16:26.000Z</time>
      </trkpt>
      <trkpt lat="43.5882" lon="6.30479">
        <ele>674.6</ele>
        <time>2023-01-25T14:16:35.000Z</time>
      </trkpt>
      <trkpt lat="43.58817" lon="6.30483">
        <ele>675.2</ele>
        <time>2023-01-25T14:16:48.000Z</time>
      </trkpt>
      <trkpt lat="43.58813" lon="6.30487">
        <ele>675.4</ele>
        <time>2023-01-25T14:16:57.000Z</time>
      </trkpt>
      <trkpt lat="43.58808" lon="6.30486">
        <ele>675.4</ele>
        <time>2023-01-25T14:17:07.000Z</time>
      </trkpt>
      <trkpt lat="43.58812" lon="6.30485">
        <ele>675.3</ele>
        <time>2023-01-25T14:17:21.000Z</time>
      </trkpt>
      <trkpt lat="43.58817" lon="6.30485">
        <ele>675.4</ele>
        <time>2023-01-25T14:17:28.000Z</time>
      </trkpt>
      <trkpt lat="43.58822" lon="6.30485">
        <ele>675.5</ele>
        <time>2023-01-25T14:17:36.000Z</time>
      </trkpt>
      <trkpt lat="43.58825" lon="6.3048">
        <ele>675.5</ele>
        <time>2023-01-25T14:17:45.000Z</time>
      </trkpt>
      <trkpt lat="43.58827" lon="6.30473">
        <ele>675.6</ele>
        <time>2023-01-25T14:17:54.000Z</time>
      </trkpt>
      <trkpt lat="43.58828" lon="6.30467">
        <ele>675.6</ele>
        <time>2023-01-25T14:17:59.000Z</time>
      </trkpt>
      <trkpt lat="43.5883" lon="6.3046">
        <ele>675.3</ele>
        <time>2023-01-25T14:18:04.000Z</time>
      </trkpt>
      <trkpt lat="43.58828" lon="6.30454">
        <ele>675.1</ele>
        <time>2023-01-25T14:18:10.000Z</time>
      </trkpt>
      <trkpt lat="43.58826" lon="6.30448">
        <ele>675</ele>
        <time>2023-01-25T14:18:15.000Z</time>
      </trkpt>
      <trkpt lat="43.58821" lon="6.30444">
        <ele>674.9</ele>
        <time>2023-01-25T14:18:21.000Z</time>
      </trkpt>
      <trkpt lat="43.58817" lon="6.30442">
        <ele>674.9</ele>
        <time>2023-01-25T14:18:26.000Z</time>
      </trkpt>
      <trkpt lat="43.58811" lon="6.30444">
        <ele>674.8</ele>
        <time>2023-01-25T14:18:32.000Z</time>
      </trkpt>
      <trkpt lat="43.58808" lon="6.30448">
        <ele>674.8</ele>
        <time>2023-01-25T14:18:38.000Z</time>
      </trkpt>
      <trkpt lat="43.58805" lon="6.30453">
        <ele>674.8</ele>
        <time>2023-01-25T14:18:45.000Z</time>
      </trkpt>
      <trkpt lat="43.58801" lon="6.30458">
        <ele>674.8</ele>
        <time>2023-01-25T14:18:52.000Z</time>
      </trkpt>
      <trkpt lat="43.588" lon="6.30465">
        <ele>674.8</ele>
        <time>2023-01-25T14:18:57.000Z</time>
      </trkpt>
      <trkpt lat="43.58798" lon="6.30471">
        <ele>674.8</ele>
        <time>2023-01-25T14:19:06.000Z</time>
      </trkpt>
      <trkpt lat="43.58798" lon="6.30477">
        <ele>674.8</ele>
        <time>2023-01-25T14:19:13.000Z</time>
      </trkpt>
      <trkpt lat="43.58801" lon="6.30482">
        <ele>676.4</ele>
        <time>2023-01-25T14:19:35.000Z</time>
      </trkpt>
      <trkpt lat="43.58796" lon="6.30483">
        <ele>676.3</ele>
        <time>2023-01-25T14:19:52.000Z</time>
      </trkpt>
      <trkpt lat="43.58793" lon="6.30479">
        <ele>675.7</ele>
        <time>2023-01-25T14:20:00.000Z</time>
      </trkpt>
      <trkpt lat="43.58794" lon="6.30471">
        <ele>675.4</ele>
        <time>2023-01-25T14:20:06.000Z</time>
      </trkpt>
      <trkpt lat="43.58795" lon="6.30465">
        <ele>675</ele>
        <time>2023-01-25T14:20:12.000Z</time>
      </trkpt>
      <trkpt lat="43.58795" lon="6.30457">
        <ele>674.7</ele>
        <time>2023-01-25T14:20:18.000Z</time>
      </trkpt>
      <trkpt lat="43.58797" lon="6.30451">
        <ele>674.5</ele>
        <time>2023-01-25T14:20:24.000Z</time>
      </trkpt>
      <trkpt lat="43.58801" lon="6.30446">
        <ele>674.4</ele>
        <time>2023-01-25T14:20:30.000Z</time>
      </trkpt>
      <trkpt lat="43.58802" lon="6.3044">
        <ele>674.3</ele>
        <time>2023-01-25T14:21:01.000Z</time>
      </trkpt>
      <trkpt lat="43.58802" lon="6.30447">
        <ele>674.3</ele>
        <time>2023-01-25T14:21:24.000Z</time>
      </trkpt>
      <trkpt lat="43.58802" lon="6.30453">
        <ele>674.3</ele>
        <time>2023-01-25T14:21:31.000Z</time>
      </trkpt>
      <trkpt lat="43.58801" lon="6.3046">
        <ele>674.3</ele>
        <time>2023-01-25T14:21:41.000Z</time>
      </trkpt>
      <trkpt lat="43.58799" lon="6.30466">
        <ele>674.7</ele>
        <time>2023-01-25T14:21:55.000Z</time>
      </trkpt>
      <trkpt lat="43.58795" lon="6.3047">
        <ele>674.5</ele>
        <time>2023-01-25T14:22:18.000Z</time>
      </trkpt>
      <trkpt lat="43.58794" lon="6.30476">
        <ele>674.5</ele>
        <time>2023-01-25T14:22:24.000Z</time>
      </trkpt>
      <trkpt lat="43.58793" lon="6.3047">
        <ele>674.5</ele>
        <time>2023-01-25T14:24:20.000Z</time>
      </trkpt>
      <trkpt lat="43.58796" lon="6.30464">
        <ele>674.5</ele>
        <time>2023-01-25T14:24:26.000Z</time>
      </trkpt>
      <trkpt lat="43.58799" lon="6.30458">
        <ele>674.5</ele>
        <time>2023-01-25T14:24:32.000Z</time>
      </trkpt>
      <trkpt lat="43.58801" lon="6.30452">
        <ele>674.4</ele>
        <time>2023-01-25T14:24:38.000Z</time>
      </trkpt>
      <trkpt lat="43.58805" lon="6.30447">
        <ele>674.5</ele>
        <time>2023-01-25T14:24:44.000Z</time>
      </trkpt>
      <trkpt lat="43.58808" lon="6.30442">
        <ele>674.7</ele>
        <time>2023-01-25T14:24:50.000Z</time>
      </trkpt>
      <trkpt lat="43.58811" lon="6.30437">
        <ele>674.9</ele>
        <time>2023-01-25T14:24:56.000Z</time>
      </trkpt>
      <trkpt lat="43.58814" lon="6.30432">
        <ele>675.1</ele>
        <time>2023-01-25T14:25:04.000Z</time>
      </trkpt>
      <trkpt lat="43.58817" lon="6.30427">
        <ele>674.7</ele>
        <time>2023-01-25T14:25:11.000Z</time>
      </trkpt>
      <trkpt lat="43.5882" lon="6.30422">
        <ele>674.2</ele>
        <time>2023-01-25T14:25:19.000Z</time>
      </trkpt>
      <trkpt lat="43.58824" lon="6.30418">
        <ele>673.8</ele>
        <time>2023-01-25T14:25:23.000Z</time>
      </trkpt>
      <trkpt lat="43.58828" lon="6.30412">
        <ele>673.4</ele>
        <time>2023-01-25T14:25:28.000Z</time>
      </trkpt>
      <trkpt lat="43.58831" lon="6.30407">
        <ele>672.9</ele>
        <time>2023-01-25T14:25:32.000Z</time>
      </trkpt>
      <trkpt lat="43.58834" lon="6.30403">
        <ele>672.5</ele>
        <time>2023-01-25T14:25:36.000Z</time>
      </trkpt>
      <trkpt lat="43.58837" lon="6.30397">
        <ele>672.1</ele>
        <time>2023-01-25T14:25:40.000Z</time>
      </trkpt>
      <trkpt lat="43.5884" lon="6.30392">
        <ele>671.7</ele>
        <time>2023-01-25T14:25:45.000Z</time>
      </trkpt>
      <trkpt lat="43.58843" lon="6.30386">
        <ele>671.3</ele>
        <time>2023-01-25T14:25:50.000Z</time>
      </trkpt>
      <trkpt lat="43.58846" lon="6.30379">
        <ele>670.8</ele>
        <time>2023-01-25T14:25:55.000Z</time>
      </trkpt>
      <trkpt lat="43.58849" lon="6.30374">
        <ele>670.3</ele>
        <time>2023-01-25T14:26:00.000Z</time>
      </trkpt>
      <trkpt lat="43.58853" lon="6.30369">
        <ele>669.4</ele>
        <time>2023-01-25T14:26:06.000Z</time>
      </trkpt>
      <trkpt lat="43.58856" lon="6.30364">
        <ele>668.2</ele>
        <time>2023-01-25T14:26:19.000Z</time>
      </trkpt>
      <trkpt lat="43.58859" lon="6.30359">
        <ele>667.6</ele>
        <time>2023-01-25T14:26:24.000Z</time>
      </trkpt>
      <trkpt lat="43.58862" lon="6.30354">
        <ele>667.1</ele>
        <time>2023-01-25T14:26:29.000Z</time>
      </trkpt>
      <trkpt lat="43.58865" lon="6.3035">
        <ele>666.5</ele>
        <time>2023-01-25T14:26:34.000Z</time>
      </trkpt>
      <trkpt lat="43.58868" lon="6.30344">
        <ele>665.9</ele>
        <time>2023-01-25T14:26:39.000Z</time>
      </trkpt>
      <trkpt lat="43.58871" lon="6.30339">
        <ele>665.4</ele>
        <time>2023-01-25T14:26:44.000Z</time>
      </trkpt>
      <trkpt lat="43.58874" lon="6.30332">
        <ele>665</ele>
        <time>2023-01-25T14:26:49.000Z</time>
      </trkpt>
      <trkpt lat="43.58876" lon="6.30326">
        <ele>664.7</ele>
        <time>2023-01-25T14:26:53.000Z</time>
      </trkpt>
      <trkpt lat="43.58879" lon="6.30321">
        <ele>664</ele>
        <time>2023-01-25T14:26:59.000Z</time>
      </trkpt>
      <trkpt lat="43.58878" lon="6.30314">
        <ele>663.4</ele>
        <time>2023-01-25T14:27:07.000Z</time>
      </trkpt>
      <trkpt lat="43.58881" lon="6.30309">
        <ele>663.1</ele>
        <time>2023-01-25T14:27:12.000Z</time>
      </trkpt>
      <trkpt lat="43.58882" lon="6.30302">
        <ele>662.9</ele>
        <time>2023-01-25T14:27:17.000Z</time>
      </trkpt>
      <trkpt lat="43.58881" lon="6.30295">
        <ele>662.7</ele>
        <time>2023-01-25T14:27:23.000Z</time>
      </trkpt>
      <trkpt lat="43.58879" lon="6.30289">
        <ele>662.8</ele>
        <time>2023-01-25T14:27:30.000Z</time>
      </trkpt>
      <trkpt lat="43.58875" lon="6.30284">
        <ele>662.9</ele>
        <time>2023-01-25T14:27:41.000Z</time>
      </trkpt>
      <trkpt lat="43.58871" lon="6.30285">
        <ele>662.6</ele>
        <time>2023-01-25T14:28:30.000Z</time>
      </trkpt>
      <trkpt lat="43.58867" lon="6.30282">
        <ele>662.5</ele>
        <time>2023-01-25T14:28:39.000Z</time>
      </trkpt>
      <trkpt lat="43.58862" lon="6.30286">
        <ele>662.4</ele>
        <time>2023-01-25T14:28:51.000Z</time>
      </trkpt>
      <trkpt lat="43.58861" lon="6.3028">
        <ele>662.1</ele>
        <time>2023-01-25T14:29:43.000Z</time>
      </trkpt>
      <trkpt lat="43.58865" lon="6.30282">
        <ele>662.2</ele>
        <time>2023-01-25T14:30:03.000Z</time>
      </trkpt>
      <trkpt lat="43.58866" lon="6.30277">
        <ele>661.9</ele>
        <time>2023-01-25T14:30:36.000Z</time>
      </trkpt>
      <trkpt lat="43.5887" lon="6.30273">
        <ele>661.4</ele>
        <time>2023-01-25T14:30:43.000Z</time>
      </trkpt>
      <trkpt lat="43.58876" lon="6.30274">
        <ele>660.9</ele>
        <time>2023-01-25T14:30:49.000Z</time>
      </trkpt>
      <trkpt lat="43.5888" lon="6.30275">
        <ele>660.7</ele>
        <time>2023-01-25T14:30:53.000Z</time>
      </trkpt>
      <trkpt lat="43.58885" lon="6.30275">
        <ele>660.4</ele>
        <time>2023-01-25T14:30:58.000Z</time>
      </trkpt>
      <trkpt lat="43.58889" lon="6.30274">
        <ele>660.2</ele>
        <time>2023-01-25T14:31:03.000Z</time>
      </trkpt>
      <trkpt lat="43.58894" lon="6.30275">
        <ele>660.1</ele>
        <time>2023-01-25T14:31:08.000Z</time>
      </trkpt>
      <trkpt lat="43.58899" lon="6.30274">
        <ele>660.2</ele>
        <time>2023-01-25T14:31:13.000Z</time>
      </trkpt>
      <trkpt lat="43.58902" lon="6.30268">
        <ele>660.3</ele>
        <time>2023-01-25T14:31:19.000Z</time>
      </trkpt>
      <trkpt lat="43.58905" lon="6.30264">
        <ele>660.4</ele>
        <time>2023-01-25T14:31:26.000Z</time>
      </trkpt>
      <trkpt lat="43.5891" lon="6.3026">
        <ele>660.5</ele>
        <time>2023-01-25T14:31:34.000Z</time>
      </trkpt>
      <trkpt lat="43.58915" lon="6.30257">
        <ele>660.6</ele>
        <time>2023-01-25T14:31:39.000Z</time>
      </trkpt>
      <trkpt lat="43.58919" lon="6.30254">
        <ele>660.7</ele>
        <time>2023-01-25T14:31:44.000Z</time>
      </trkpt>
      <trkpt lat="43.58924" lon="6.30251">
        <ele>660.7</ele>
        <time>2023-01-25T14:31:51.000Z</time>
      </trkpt>
      <trkpt lat="43.58926" lon="6.30245">
        <ele>660.7</ele>
        <time>2023-01-25T14:31:58.000Z</time>
      </trkpt>
      <trkpt lat="43.58925" lon="6.30238">
        <ele>660.6</ele>
        <time>2023-01-25T14:32:02.000Z</time>
      </trkpt>
      <trkpt lat="43.58925" lon="6.30232">
        <ele>660.4</ele>
        <time>2023-01-25T14:32:08.000Z</time>
      </trkpt>
      <trkpt lat="43.58922" lon="6.30227">
        <ele>660.1</ele>
        <time>2023-01-25T14:32:14.000Z</time>
      </trkpt>
      <trkpt lat="43.58923" lon="6.3022">
        <ele>659.9</ele>
        <time>2023-01-25T14:32:19.000Z</time>
      </trkpt>
      <trkpt lat="43.58925" lon="6.30214">
        <ele>659.8</ele>
        <time>2023-01-25T14:32:22.000Z</time>
      </trkpt>
      <trkpt lat="43.58926" lon="6.30207">
        <ele>659.7</ele>
        <time>2023-01-25T14:32:26.000Z</time>
      </trkpt>
      <trkpt lat="43.58923" lon="6.30201">
        <ele>659.6</ele>
        <time>2023-01-25T14:32:29.000Z</time>
      </trkpt>
      <trkpt lat="43.58921" lon="6.30196">
        <ele>659.5</ele>
        <time>2023-01-25T14:32:32.000Z</time>
      </trkpt>
      <trkpt lat="43.58918" lon="6.30189">
        <ele>659.3</ele>
        <time>2023-01-25T14:32:36.000Z</time>
      </trkpt>
      <trkpt lat="43.58917" lon="6.30182">
        <ele>658.8</ele>
        <time>2023-01-25T14:32:41.000Z</time>
      </trkpt>
      <trkpt lat="43.58914" lon="6.30177">
        <ele>658.2</ele>
        <time>2023-01-25T14:32:47.000Z</time>
      </trkpt>
      <trkpt lat="43.58914" lon="6.30171">
        <ele>657.8</ele>
        <time>2023-01-25T14:32:52.000Z</time>
      </trkpt>
      <trkpt lat="43.58915" lon="6.30164">
        <ele>657.1</ele>
        <time>2023-01-25T14:32:57.000Z</time>
      </trkpt>
      <trkpt lat="43.58917" lon="6.30158">
        <ele>656.5</ele>
        <time>2023-01-25T14:33:02.000Z</time>
      </trkpt>
      <trkpt lat="43.58921" lon="6.30152">
        <ele>656.1</ele>
        <time>2023-01-25T14:33:07.000Z</time>
      </trkpt>
      <trkpt lat="43.58924" lon="6.30147">
        <ele>655.8</ele>
        <time>2023-01-25T14:33:11.000Z</time>
      </trkpt>
      <trkpt lat="43.58929" lon="6.30144">
        <ele>655.5</ele>
        <time>2023-01-25T14:33:16.000Z</time>
      </trkpt>
      <trkpt lat="43.58932" lon="6.30138">
        <ele>654.9</ele>
        <time>2023-01-25T14:33:22.000Z</time>
      </trkpt>
      <trkpt lat="43.58935" lon="6.30133">
        <ele>654.5</ele>
        <time>2023-01-25T14:33:27.000Z</time>
      </trkpt>
      <trkpt lat="43.58938" lon="6.30127">
        <ele>653.8</ele>
        <time>2023-01-25T14:33:33.000Z</time>
      </trkpt>
      <trkpt lat="43.58941" lon="6.30122">
        <ele>653</ele>
        <time>2023-01-25T14:33:40.000Z</time>
      </trkpt>
      <trkpt lat="43.58943" lon="6.30117">
        <ele>651.9</ele>
        <time>2023-01-25T14:33:50.000Z</time>
      </trkpt>
      <trkpt lat="43.58948" lon="6.30113">
        <ele>650.6</ele>
        <time>2023-01-25T14:34:00.000Z</time>
      </trkpt>
      <trkpt lat="43.58953" lon="6.30108">
        <ele>650.1</ele>
        <time>2023-01-25T14:34:04.000Z</time>
      </trkpt>
      <trkpt lat="43.58952" lon="6.30102">
        <ele>649.3</ele>
        <time>2023-01-25T14:34:10.000Z</time>
      </trkpt>
      <trkpt lat="43.58949" lon="6.30097">
        <ele>648.1</ele>
        <time>2023-01-25T14:34:17.000Z</time>
      </trkpt>
      <trkpt lat="43.58948" lon="6.3009">
        <ele>646.9</ele>
        <time>2023-01-25T14:34:24.000Z</time>
      </trkpt>
      <trkpt lat="43.58949" lon="6.30083">
        <ele>645.5</ele>
        <time>2023-01-25T14:34:33.000Z</time>
      </trkpt>
      <trkpt lat="43.58948" lon="6.30077">
        <ele>643.9</ele>
        <time>2023-01-25T14:34:58.000Z</time>
      </trkpt>
      <trkpt lat="43.58951" lon="6.30081">
        <ele>642.9</ele>
        <time>2023-01-25T14:35:41.000Z</time>
      </trkpt>
      <trkpt lat="43.58946" lon="6.3008">
        <ele>643.3</ele>
        <time>2023-01-25T14:36:12.000Z</time>
      </trkpt>
      <trkpt lat="43.58941" lon="6.30081">
        <ele>642.9</ele>
        <time>2023-01-25T14:36:18.000Z</time>
      </trkpt>
      <trkpt lat="43.58936" lon="6.30083">
        <ele>642.5</ele>
        <time>2023-01-25T14:36:23.000Z</time>
      </trkpt>
      <trkpt lat="43.58931" lon="6.30084">
        <ele>642.1</ele>
        <time>2023-01-25T14:36:27.000Z</time>
      </trkpt>
      <trkpt lat="43.58927" lon="6.30087">
        <ele>641.7</ele>
        <time>2023-01-25T14:36:31.000Z</time>
      </trkpt>
      <trkpt lat="43.58922" lon="6.30089">
        <ele>641.2</ele>
        <time>2023-01-25T14:36:36.000Z</time>
      </trkpt>
      <trkpt lat="43.58917" lon="6.30091">
        <ele>640.7</ele>
        <time>2023-01-25T14:36:40.000Z</time>
      </trkpt>
      <trkpt lat="43.58912" lon="6.30093">
        <ele>640.1</ele>
        <time>2023-01-25T14:36:45.000Z</time>
      </trkpt>
      <trkpt lat="43.58907" lon="6.30095">
        <ele>639.5</ele>
        <time>2023-01-25T14:36:50.000Z</time>
      </trkpt>
      <trkpt lat="43.58903" lon="6.30095">
        <ele>638.8</ele>
        <time>2023-01-25T14:36:55.000Z</time>
      </trkpt>
      <trkpt lat="43.58897" lon="6.30095">
        <ele>638</ele>
        <time>2023-01-25T14:37:00.000Z</time>
      </trkpt>
      <trkpt lat="43.58894" lon="6.3009">
        <ele>636.9</ele>
        <time>2023-01-25T14:37:06.000Z</time>
      </trkpt>
      <trkpt lat="43.58895" lon="6.30084">
        <ele>635</ele>
        <time>2023-01-25T14:37:18.000Z</time>
      </trkpt>
      <trkpt lat="43.58898" lon="6.30078">
        <ele>633.7</ele>
        <time>2023-01-25T14:37:26.000Z</time>
      </trkpt>
      <trkpt lat="43.58899" lon="6.3007">
        <ele>633</ele>
        <time>2023-01-25T14:37:32.000Z</time>
      </trkpt>
      <trkpt lat="43.589" lon="6.30064">
        <ele>632.2</ele>
        <time>2023-01-25T14:37:37.000Z</time>
      </trkpt>
      <trkpt lat="43.58903" lon="6.30059">
        <ele>631.5</ele>
        <time>2023-01-25T14:37:42.000Z</time>
      </trkpt>
      <trkpt lat="43.58906" lon="6.30054">
        <ele>630.7</ele>
        <time>2023-01-25T14:37:47.000Z</time>
      </trkpt>
      <trkpt lat="43.58909" lon="6.30047">
        <ele>629.7</ele>
        <time>2023-01-25T14:37:52.000Z</time>
      </trkpt>
      <trkpt lat="43.58911" lon="6.30041">
        <ele>628.9</ele>
        <time>2023-01-25T14:37:57.000Z</time>
      </trkpt>
      <trkpt lat="43.58914" lon="6.30035">
        <ele>628.1</ele>
        <time>2023-01-25T14:38:01.000Z</time>
      </trkpt>
      <trkpt lat="43.58916" lon="6.30029">
        <ele>627</ele>
        <time>2023-01-25T14:38:06.000Z</time>
      </trkpt>
      <trkpt lat="43.58918" lon="6.30023">
        <ele>626</ele>
        <time>2023-01-25T14:38:11.000Z</time>
      </trkpt>
      <trkpt lat="43.58921" lon="6.30017">
        <ele>625.2</ele>
        <time>2023-01-25T14:38:15.000Z</time>
      </trkpt>
      <trkpt lat="43.58923" lon="6.30012">
        <ele>624.4</ele>
        <time>2023-01-25T14:38:19.000Z</time>
      </trkpt>
      <trkpt lat="43.58925" lon="6.30005">
        <ele>623.1</ele>
        <time>2023-01-25T14:38:25.000Z</time>
      </trkpt>
      <trkpt lat="43.58926" lon="6.29999">
        <ele>622</ele>
        <time>2023-01-25T14:38:29.000Z</time>
      </trkpt>
      <trkpt lat="43.58928" lon="6.29993">
        <ele>620.7</ele>
        <time>2023-01-25T14:38:34.000Z</time>
      </trkpt>
      <trkpt lat="43.58929" lon="6.29985">
        <ele>619.4</ele>
        <time>2023-01-25T14:38:40.000Z</time>
      </trkpt>
      <trkpt lat="43.58931" lon="6.29979">
        <ele>618.7</ele>
        <time>2023-01-25T14:38:44.000Z</time>
      </trkpt>
      <trkpt lat="43.58932" lon="6.29973">
        <ele>618.1</ele>
        <time>2023-01-25T14:38:48.000Z</time>
      </trkpt>
      <trkpt lat="43.58933" lon="6.29966">
        <ele>617.7</ele>
        <time>2023-01-25T14:38:52.000Z</time>
      </trkpt>
      <trkpt lat="43.58934" lon="6.29959">
        <ele>617.2</ele>
        <time>2023-01-25T14:38:56.000Z</time>
      </trkpt>
      <trkpt lat="43.58934" lon="6.29952">
        <ele>616.6</ele>
        <time>2023-01-25T14:39:01.000Z</time>
      </trkpt>
      <trkpt lat="43.58934" lon="6.29946">
        <ele>615.9</ele>
        <time>2023-01-25T14:39:05.000Z</time>
      </trkpt>
      <trkpt lat="43.58934" lon="6.29938">
        <ele>614.9</ele>
        <time>2023-01-25T14:39:10.000Z</time>
      </trkpt>
      <trkpt lat="43.58934" lon="6.29931">
        <ele>613.9</ele>
        <time>2023-01-25T14:39:15.000Z</time>
      </trkpt>
      <trkpt lat="43.58933" lon="6.29924">
        <ele>612.9</ele>
        <time>2023-01-25T14:39:20.000Z</time>
      </trkpt>
      <trkpt lat="43.58933" lon="6.29917">
        <ele>612</ele>
        <time>2023-01-25T14:39:24.000Z</time>
      </trkpt>
      <trkpt lat="43.58933" lon="6.29911">
        <ele>610.9</ele>
        <time>2023-01-25T14:39:29.000Z</time>
      </trkpt>
      <trkpt lat="43.58934" lon="6.29904">
        <ele>609.9</ele>
        <time>2023-01-25T14:39:34.000Z</time>
      </trkpt>
      <trkpt lat="43.58934" lon="6.29897">
        <ele>609.1</ele>
        <time>2023-01-25T14:39:39.000Z</time>
      </trkpt>
      <trkpt lat="43.58931" lon="6.2989">
        <ele>607.9</ele>
        <time>2023-01-25T14:39:44.000Z</time>
      </trkpt>
      <trkpt lat="43.58927" lon="6.29885">
        <ele>606.9</ele>
        <time>2023-01-25T14:39:49.000Z</time>
      </trkpt>
      <trkpt lat="43.58923" lon="6.29881">
        <ele>605.7</ele>
        <time>2023-01-25T14:39:54.000Z</time>
      </trkpt>
      <trkpt lat="43.58919" lon="6.29876">
        <ele>604.4</ele>
        <time>2023-01-25T14:39:59.000Z</time>
      </trkpt>
      <trkpt lat="43.58915" lon="6.29872">
        <ele>603.4</ele>
        <time>2023-01-25T14:40:04.000Z</time>
      </trkpt>
      <trkpt lat="43.58911" lon="6.29867">
        <ele>602.3</ele>
        <time>2023-01-25T14:40:10.000Z</time>
      </trkpt>
      <trkpt lat="43.58907" lon="6.29862">
        <ele>601.3</ele>
        <time>2023-01-25T14:40:15.000Z</time>
      </trkpt>
      <trkpt lat="43.58903" lon="6.29857">
        <ele>600.7</ele>
        <time>2023-01-25T14:40:19.000Z</time>
      </trkpt>
      <trkpt lat="43.589" lon="6.29851">
        <ele>600</ele>
        <time>2023-01-25T14:40:23.000Z</time>
      </trkpt>
      <trkpt lat="43.58898" lon="6.29845">
        <ele>599.2</ele>
        <time>2023-01-25T14:40:27.000Z</time>
      </trkpt>
      <trkpt lat="43.58896" lon="6.29839">
        <ele>598.5</ele>
        <time>2023-01-25T14:40:31.000Z</time>
      </trkpt>
      <trkpt lat="43.58894" lon="6.29833">
        <ele>597.8</ele>
        <time>2023-01-25T14:40:35.000Z</time>
      </trkpt>
      <trkpt lat="43.58894" lon="6.29826">
        <ele>597.1</ele>
        <time>2023-01-25T14:40:40.000Z</time>
      </trkpt>
      <trkpt lat="43.58895" lon="6.29819">
        <ele>596</ele>
        <time>2023-01-25T14:40:45.000Z</time>
      </trkpt>
      <trkpt lat="43.58897" lon="6.29812">
        <ele>595.1</ele>
        <time>2023-01-25T14:40:50.000Z</time>
      </trkpt>
      <trkpt lat="43.58899" lon="6.29806">
        <ele>594.4</ele>
        <time>2023-01-25T14:40:55.000Z</time>
      </trkpt>
      <trkpt lat="43.58899" lon="6.29798">
        <ele>593.6</ele>
        <time>2023-01-25T14:41:00.000Z</time>
      </trkpt>
      <trkpt lat="43.589" lon="6.29792">
        <ele>593.1</ele>
        <time>2023-01-25T14:41:04.000Z</time>
      </trkpt>
      <trkpt lat="43.589" lon="6.29785">
        <ele>592.1</ele>
        <time>2023-01-25T14:41:09.000Z</time>
      </trkpt>
      <trkpt lat="43.58898" lon="6.29778">
        <ele>591.3</ele>
        <time>2023-01-25T14:41:14.000Z</time>
      </trkpt>
      <trkpt lat="43.58897" lon="6.29772">
        <ele>590.6</ele>
        <time>2023-01-25T14:41:18.000Z</time>
      </trkpt>
      <trkpt lat="43.58894" lon="6.29765">
        <ele>589.8</ele>
        <time>2023-01-25T14:41:23.000Z</time>
      </trkpt>
      <trkpt lat="43.58892" lon="6.29758">
        <ele>589.1</ele>
        <time>2023-01-25T14:41:28.000Z</time>
      </trkpt>
      <trkpt lat="43.5889" lon="6.29751">
        <ele>588.3</ele>
        <time>2023-01-25T14:41:33.000Z</time>
      </trkpt>
      <trkpt lat="43.58886" lon="6.29746">
        <ele>587.8</ele>
        <time>2023-01-25T14:41:38.000Z</time>
      </trkpt>
      <trkpt lat="43.58883" lon="6.29739">
        <ele>587.2</ele>
        <time>2023-01-25T14:41:43.000Z</time>
      </trkpt>
      <trkpt lat="43.58881" lon="6.29733">
        <ele>586.7</ele>
        <time>2023-01-25T14:41:47.000Z</time>
      </trkpt>
      <trkpt lat="43.58879" lon="6.29727">
        <ele>586</ele>
        <time>2023-01-25T14:41:51.000Z</time>
      </trkpt>
      <trkpt lat="43.58878" lon="6.29721">
        <ele>585.2</ele>
        <time>2023-01-25T14:41:55.000Z</time>
      </trkpt>
      <trkpt lat="43.58876" lon="6.29713">
        <ele>584.3</ele>
        <time>2023-01-25T14:42:00.000Z</time>
      </trkpt>
      <trkpt lat="43.58874" lon="6.29707">
        <ele>583.4</ele>
        <time>2023-01-25T14:42:05.000Z</time>
      </trkpt>
      <trkpt lat="43.58872" lon="6.297">
        <ele>582.3</ele>
        <time>2023-01-25T14:42:10.000Z</time>
      </trkpt>
      <trkpt lat="43.58871" lon="6.29694">
        <ele>581.3</ele>
        <time>2023-01-25T14:42:15.000Z</time>
      </trkpt>
      <trkpt lat="43.58869" lon="6.29688">
        <ele>579.8</ele>
        <time>2023-01-25T14:42:21.000Z</time>
      </trkpt>
      <trkpt lat="43.58866" lon="6.29683">
        <ele>578.7</ele>
        <time>2023-01-25T14:42:26.000Z</time>
      </trkpt>
      <trkpt lat="43.58864" lon="6.29677">
        <ele>577.5</ele>
        <time>2023-01-25T14:42:31.000Z</time>
      </trkpt>
      <trkpt lat="43.58861" lon="6.29671">
        <ele>576</ele>
        <time>2023-01-25T14:42:37.000Z</time>
      </trkpt>
      <trkpt lat="43.58857" lon="6.29667">
        <ele>574.6</ele>
        <time>2023-01-25T14:42:43.000Z</time>
      </trkpt>
      <trkpt lat="43.58853" lon="6.29662">
        <ele>573.7</ele>
        <time>2023-01-25T14:42:48.000Z</time>
      </trkpt>
      <trkpt lat="43.58848" lon="6.29657">
        <ele>572.6</ele>
        <time>2023-01-25T14:42:53.000Z</time>
      </trkpt>
      <trkpt lat="43.58845" lon="6.29653">
        <ele>572</ele>
        <time>2023-01-25T14:42:57.000Z</time>
      </trkpt>
      <trkpt lat="43.58841" lon="6.29648">
        <ele>571.5</ele>
        <time>2023-01-25T14:43:01.000Z</time>
      </trkpt>
      <trkpt lat="43.58838" lon="6.29643">
        <ele>571</ele>
        <time>2023-01-25T14:43:05.000Z</time>
      </trkpt>
      <trkpt lat="43.58835" lon="6.29638">
        <ele>570.7</ele>
        <time>2023-01-25T14:43:09.000Z</time>
      </trkpt>
      <trkpt lat="43.58832" lon="6.29632">
        <ele>570.3</ele>
        <time>2023-01-25T14:43:13.000Z</time>
      </trkpt>
      <trkpt lat="43.5883" lon="6.29626">
        <ele>569.9</ele>
        <time>2023-01-25T14:43:17.000Z</time>
      </trkpt>
      <trkpt lat="43.58827" lon="6.29621">
        <ele>569.7</ele>
        <time>2023-01-25T14:43:21.000Z</time>
      </trkpt>
      <trkpt lat="43.58824" lon="6.29615">
        <ele>569.5</ele>
        <time>2023-01-25T14:43:25.000Z</time>
      </trkpt>
      <trkpt lat="43.58821" lon="6.2961">
        <ele>569.3</ele>
        <time>2023-01-25T14:43:29.000Z</time>
      </trkpt>
      <trkpt lat="43.58817" lon="6.29606">
        <ele>569.2</ele>
        <time>2023-01-25T14:43:33.000Z</time>
      </trkpt>
      <trkpt lat="43.58815" lon="6.296">
        <ele>568.9</ele>
        <time>2023-01-25T14:43:37.000Z</time>
      </trkpt>
      <trkpt lat="43.58811" lon="6.29595">
        <ele>568.9</ele>
        <time>2023-01-25T14:43:42.000Z</time>
      </trkpt>
      <trkpt lat="43.58807" lon="6.29592">
        <ele>569</ele>
        <time>2023-01-25T14:43:47.000Z</time>
      </trkpt>
      <trkpt lat="43.58803" lon="6.29589">
        <ele>569</ele>
        <time>2023-01-25T14:43:52.000Z</time>
      </trkpt>
      <trkpt lat="43.58798" lon="6.29588">
        <ele>569</ele>
        <time>2023-01-25T14:43:57.000Z</time>
      </trkpt>
      <trkpt lat="43.58793" lon="6.29587">
        <ele>569.1</ele>
        <time>2023-01-25T14:44:03.000Z</time>
      </trkpt>
      <trkpt lat="43.58789" lon="6.29584">
        <ele>569.4</ele>
        <time>2023-01-25T14:44:11.000Z</time>
      </trkpt>
      <trkpt lat="43.58784" lon="6.29582">
        <ele>570.1</ele>
        <time>2023-01-25T14:44:29.000Z</time>
      </trkpt>
      <trkpt lat="43.5878" lon="6.29579">
        <ele>570.5</ele>
        <time>2023-01-25T14:44:49.000Z</time>
      </trkpt>
      <trkpt lat="43.58776" lon="6.29581">
        <ele>570.5</ele>
        <time>2023-01-25T14:44:55.000Z</time>
      </trkpt>
      <trkpt lat="43.5877" lon="6.29583">
        <ele>570.7</ele>
        <time>2023-01-25T14:45:01.000Z</time>
      </trkpt>
      <trkpt lat="43.58767" lon="6.29587">
        <ele>570.8</ele>
        <time>2023-01-25T14:45:06.000Z</time>
      </trkpt>
      <trkpt lat="43.58763" lon="6.29591">
        <ele>570.9</ele>
        <time>2023-01-25T14:45:11.000Z</time>
      </trkpt>
      <trkpt lat="43.58759" lon="6.29595">
        <ele>571</ele>
        <time>2023-01-25T14:45:16.000Z</time>
      </trkpt>
      <trkpt lat="43.58755" lon="6.29599">
        <ele>571.1</ele>
        <time>2023-01-25T14:45:20.000Z</time>
      </trkpt>
      <trkpt lat="43.58752" lon="6.29604">
        <ele>571.2</ele>
        <time>2023-01-25T14:45:25.000Z</time>
      </trkpt>
      <trkpt lat="43.58747" lon="6.29609">
        <ele>571.3</ele>
        <time>2023-01-25T14:45:30.000Z</time>
      </trkpt>
      <trkpt lat="43.58743" lon="6.29613">
        <ele>571.4</ele>
        <time>2023-01-25T14:45:34.000Z</time>
      </trkpt>
      <trkpt lat="43.58738" lon="6.29617">
        <ele>571.5</ele>
        <time>2023-01-25T14:45:39.000Z</time>
      </trkpt>
      <trkpt lat="43.58734" lon="6.2962">
        <ele>571.4</ele>
        <time>2023-01-25T14:45:43.000Z</time>
      </trkpt>
      <trkpt lat="43.5873" lon="6.29624">
        <ele>571.2</ele>
        <time>2023-01-25T14:45:47.000Z</time>
      </trkpt>
      <trkpt lat="43.58725" lon="6.29626">
        <ele>571</ele>
        <time>2023-01-25T14:45:52.000Z</time>
      </trkpt>
      <trkpt lat="43.5872" lon="6.29628">
        <ele>570.9</ele>
        <time>2023-01-25T14:45:56.000Z</time>
      </trkpt>
      <trkpt lat="43.58715" lon="6.2963">
        <ele>570.8</ele>
        <time>2023-01-25T14:46:01.000Z</time>
      </trkpt>
      <trkpt lat="43.58711" lon="6.29632">
        <ele>570.6</ele>
        <time>2023-01-25T14:46:04.000Z</time>
      </trkpt>
      <trkpt lat="43.58705" lon="6.29633">
        <ele>570.3</ele>
        <time>2023-01-25T14:46:08.000Z</time>
      </trkpt>
      <trkpt lat="43.587" lon="6.29634">
        <ele>570.1</ele>
        <time>2023-01-25T14:46:11.000Z</time>
      </trkpt>
      <trkpt lat="43.58695" lon="6.29635">
        <ele>569.9</ele>
        <time>2023-01-25T14:46:14.000Z</time>
      </trkpt>
      <trkpt lat="43.5869" lon="6.29636">
        <ele>569.8</ele>
        <time>2023-01-25T14:46:17.000Z</time>
      </trkpt>
      <trkpt lat="43.58685" lon="6.29637">
        <ele>569.7</ele>
        <time>2023-01-25T14:46:21.000Z</time>
      </trkpt>
      <trkpt lat="43.5868" lon="6.29638">
        <ele>569.6</ele>
        <time>2023-01-25T14:46:25.000Z</time>
      </trkpt>
      <trkpt lat="43.58675" lon="6.29639">
        <ele>569.5</ele>
        <time>2023-01-25T14:46:29.000Z</time>
      </trkpt>
      <trkpt lat="43.5867" lon="6.29639">
        <ele>569.2</ele>
        <time>2023-01-25T14:46:33.000Z</time>
      </trkpt>
      <trkpt lat="43.58665" lon="6.2964">
        <ele>569.1</ele>
        <time>2023-01-25T14:46:38.000Z</time>
      </trkpt>
      <trkpt lat="43.5866" lon="6.29641">
        <ele>569</ele>
        <time>2023-01-25T14:46:42.000Z</time>
      </trkpt>
      <trkpt lat="43.58655" lon="6.29641">
        <ele>568.9</ele>
        <time>2023-01-25T14:46:46.000Z</time>
      </trkpt>
      <trkpt lat="43.58651" lon="6.29642">
        <ele>568.7</ele>
        <time>2023-01-25T14:46:49.000Z</time>
      </trkpt>
      <trkpt lat="43.58646" lon="6.29642">
        <ele>568.5</ele>
        <time>2023-01-25T14:46:53.000Z</time>
      </trkpt>
      <trkpt lat="43.58641" lon="6.29642">
        <ele>568.3</ele>
        <time>2023-01-25T14:46:57.000Z</time>
      </trkpt>
      <trkpt lat="43.58636" lon="6.29642">
        <ele>568.2</ele>
        <time>2023-01-25T14:47:00.000Z</time>
      </trkpt>
      <trkpt lat="43.58632" lon="6.29642">
        <ele>568.1</ele>
        <time>2023-01-25T14:47:04.000Z</time>
      </trkpt>
      <trkpt lat="43.58627" lon="6.29644">
        <ele>567.7</ele>
        <time>2023-01-25T14:47:09.000Z</time>
      </trkpt>
      <trkpt lat="43.58623" lon="6.29648">
        <ele>567.5</ele>
        <time>2023-01-25T14:47:13.000Z</time>
      </trkpt>
      <trkpt lat="43.58619" lon="6.29652">
        <ele>567.3</ele>
        <time>2023-01-25T14:47:17.000Z</time>
      </trkpt>
      <trkpt lat="43.58614" lon="6.29656">
        <ele>567.1</ele>
        <time>2023-01-25T14:47:21.000Z</time>
      </trkpt>
      <trkpt lat="43.5861" lon="6.29659">
        <ele>567</ele>
        <time>2023-01-25T14:47:24.000Z</time>
      </trkpt>
      <trkpt lat="43.58606" lon="6.29663">
        <ele>566.9</ele>
        <time>2023-01-25T14:47:28.000Z</time>
      </trkpt>
      <trkpt lat="43.58601" lon="6.29667">
        <ele>566.8</ele>
        <time>2023-01-25T14:47:33.000Z</time>
      </trkpt>
      <trkpt lat="43.58598" lon="6.29672">
        <ele>566.7</ele>
        <time>2023-01-25T14:47:37.000Z</time>
      </trkpt>
      <trkpt lat="43.58594" lon="6.29677">
        <ele>566.5</ele>
        <time>2023-01-25T14:47:41.000Z</time>
      </trkpt>
      <trkpt lat="43.58589" lon="6.29681">
        <ele>566.3</ele>
        <time>2023-01-25T14:47:45.000Z</time>
      </trkpt>
      <trkpt lat="43.58586" lon="6.29687">
        <ele>566.1</ele>
        <time>2023-01-25T14:47:49.000Z</time>
      </trkpt>
      <trkpt lat="43.58583" lon="6.29692">
        <ele>565.9</ele>
        <time>2023-01-25T14:47:52.000Z</time>
      </trkpt>
      <trkpt lat="43.5858" lon="6.29697">
        <ele>565.6</ele>
        <time>2023-01-25T14:47:56.000Z</time>
      </trkpt>
      <trkpt lat="43.58576" lon="6.29703">
        <ele>565.3</ele>
        <time>2023-01-25T14:48:00.000Z</time>
      </trkpt>
      <trkpt lat="43.58572" lon="6.29708">
        <ele>565</ele>
        <time>2023-01-25T14:48:04.000Z</time>
      </trkpt>
      <trkpt lat="43.58568" lon="6.29713">
        <ele>564.8</ele>
        <time>2023-01-25T14:48:08.000Z</time>
      </trkpt>
      <trkpt lat="43.58563" lon="6.29716">
        <ele>564.5</ele>
        <time>2023-01-25T14:48:12.000Z</time>
      </trkpt>
      <trkpt lat="43.58559" lon="6.29719">
        <ele>564</ele>
        <time>2023-01-25T14:48:16.000Z</time>
      </trkpt>
      <trkpt lat="43.58553" lon="6.29721">
        <ele>563.5</ele>
        <time>2023-01-25T14:48:20.000Z</time>
      </trkpt>
      <trkpt lat="43.58549" lon="6.29723">
        <ele>563</ele>
        <time>2023-01-25T14:48:24.000Z</time>
      </trkpt>
      <trkpt lat="43.58543" lon="6.29725">
        <ele>562.2</ele>
        <time>2023-01-25T14:48:29.000Z</time>
      </trkpt>
      <trkpt lat="43.58539" lon="6.29727">
        <ele>561.6</ele>
        <time>2023-01-25T14:48:34.000Z</time>
      </trkpt>
      <trkpt lat="43.58534" lon="6.29728">
        <ele>561.2</ele>
        <time>2023-01-25T14:48:38.000Z</time>
      </trkpt>
      <trkpt lat="43.5853" lon="6.29728">
        <ele>560.9</ele>
        <time>2023-01-25T14:48:42.000Z</time>
      </trkpt>
      <trkpt lat="43.58525" lon="6.29729">
        <ele>560.3</ele>
        <time>2023-01-25T14:48:47.000Z</time>
      </trkpt>
      <trkpt lat="43.5852" lon="6.29728">
        <ele>560</ele>
        <time>2023-01-25T14:48:51.000Z</time>
      </trkpt>
      <trkpt lat="43.58515" lon="6.29728">
        <ele>559.8</ele>
        <time>2023-01-25T14:48:55.000Z</time>
      </trkpt>
      <trkpt lat="43.5851" lon="6.29727">
        <ele>559.7</ele>
        <time>2023-01-25T14:48:59.000Z</time>
      </trkpt>
      <trkpt lat="43.58506" lon="6.29724">
        <ele>559.6</ele>
        <time>2023-01-25T14:49:04.000Z</time>
      </trkpt>
      <trkpt lat="43.58501" lon="6.29722">
        <ele>559.3</ele>
        <time>2023-01-25T14:49:16.000Z</time>
      </trkpt>
      <trkpt lat="43.585" lon="6.29715">
        <ele>559.1</ele>
        <time>2023-01-25T14:49:22.000Z</time>
      </trkpt>
      <trkpt lat="43.58499" lon="6.29708">
        <ele>559</ele>
        <time>2023-01-25T14:49:27.000Z</time>
      </trkpt>
      <trkpt lat="43.58499" lon="6.29702">
        <ele>558.9</ele>
        <time>2023-01-25T14:49:31.000Z</time>
      </trkpt>
      <trkpt lat="43.58499" lon="6.29695">
        <ele>558.8</ele>
        <time>2023-01-25T14:49:35.000Z</time>
      </trkpt>
      <trkpt lat="43.58499" lon="6.29687">
        <ele>558.6</ele>
        <time>2023-01-25T14:49:40.000Z</time>
      </trkpt>
      <trkpt lat="43.58499" lon="6.2968">
        <ele>558.5</ele>
        <time>2023-01-25T14:49:44.000Z</time>
      </trkpt>
      <trkpt lat="43.58498" lon="6.29672">
        <ele>558.4</ele>
        <time>2023-01-25T14:49:48.000Z</time>
      </trkpt>
      <trkpt lat="43.58497" lon="6.29665">
        <ele>558.2</ele>
        <time>2023-01-25T14:49:52.000Z</time>
      </trkpt>
      <trkpt lat="43.58495" lon="6.2966">
        <ele>558</ele>
        <time>2023-01-25T14:49:56.000Z</time>
      </trkpt>
      <trkpt lat="43.58491" lon="6.29656">
        <ele>557.8</ele>
        <time>2023-01-25T14:50:00.000Z</time>
      </trkpt>
      <trkpt lat="43.58488" lon="6.29651">
        <ele>557.6</ele>
        <time>2023-01-25T14:50:04.000Z</time>
      </trkpt>
      <trkpt lat="43.58485" lon="6.29646">
        <ele>557.5</ele>
        <time>2023-01-25T14:50:08.000Z</time>
      </trkpt>
      <trkpt lat="43.58482" lon="6.29641">
        <ele>557.4</ele>
        <time>2023-01-25T14:50:12.000Z</time>
      </trkpt>
      <trkpt lat="43.58479" lon="6.29636">
        <ele>557.3</ele>
        <time>2023-01-25T14:50:16.000Z</time>
      </trkpt>
      <trkpt lat="43.58475" lon="6.2963">
        <ele>557.3</ele>
        <time>2023-01-25T14:50:21.000Z</time>
      </trkpt>
      <trkpt lat="43.58471" lon="6.29626">
        <ele>557.3</ele>
        <time>2023-01-25T14:50:25.000Z</time>
      </trkpt>
      <trkpt lat="43.58468" lon="6.29621">
        <ele>557.2</ele>
        <time>2023-01-25T14:50:29.000Z</time>
      </trkpt>
      <trkpt lat="43.58463" lon="6.29617">
        <ele>557</ele>
        <time>2023-01-25T14:50:34.000Z</time>
      </trkpt>
      <trkpt lat="43.58459" lon="6.29612">
        <ele>556.9</ele>
        <time>2023-01-25T14:50:38.000Z</time>
      </trkpt>
      <trkpt lat="43.58455" lon="6.29608">
        <ele>556.6</ele>
        <time>2023-01-25T14:50:42.000Z</time>
      </trkpt>
      <trkpt lat="43.58451" lon="6.29604">
        <ele>556.3</ele>
        <time>2023-01-25T14:50:46.000Z</time>
      </trkpt>
      <trkpt lat="43.58447" lon="6.29599">
        <ele>556.1</ele>
        <time>2023-01-25T14:50:50.000Z</time>
      </trkpt>
      <trkpt lat="43.58443" lon="6.29595">
        <ele>556</ele>
        <time>2023-01-25T14:50:54.000Z</time>
      </trkpt>
      <trkpt lat="43.58439" lon="6.29591">
        <ele>555.8</ele>
        <time>2023-01-25T14:50:58.000Z</time>
      </trkpt>
      <trkpt lat="43.58435" lon="6.29586">
        <ele>555.7</ele>
        <time>2023-01-25T14:51:02.000Z</time>
      </trkpt>
      <trkpt lat="43.58432" lon="6.29581">
        <ele>555.4</ele>
        <time>2023-01-25T14:51:06.000Z</time>
      </trkpt>
      <trkpt lat="43.58428" lon="6.29576">
        <ele>555.2</ele>
        <time>2023-01-25T14:51:10.000Z</time>
      </trkpt>
      <trkpt lat="43.58424" lon="6.29572">
        <ele>555</ele>
        <time>2023-01-25T14:51:14.000Z</time>
      </trkpt>
      <trkpt lat="43.5842" lon="6.29566">
        <ele>554.8</ele>
        <time>2023-01-25T14:51:18.000Z</time>
      </trkpt>
      <trkpt lat="43.58416" lon="6.29563">
        <ele>554.7</ele>
        <time>2023-01-25T14:51:22.000Z</time>
      </trkpt>
      <trkpt lat="43.58411" lon="6.29559">
        <ele>554.5</ele>
        <time>2023-01-25T14:51:26.000Z</time>
      </trkpt>
      <trkpt lat="43.58407" lon="6.29555">
        <ele>554.2</ele>
        <time>2023-01-25T14:51:30.000Z</time>
      </trkpt>
      <trkpt lat="43.58403" lon="6.29551">
        <ele>553.6</ele>
        <time>2023-01-25T14:51:34.000Z</time>
      </trkpt>
      <trkpt lat="43.58399" lon="6.29547">
        <ele>553</ele>
        <time>2023-01-25T14:51:38.000Z</time>
      </trkpt>
      <trkpt lat="43.58395" lon="6.29542">
        <ele>552.3</ele>
        <time>2023-01-25T14:51:43.000Z</time>
      </trkpt>
      <trkpt lat="43.5839" lon="6.29538">
        <ele>551.7</ele>
        <time>2023-01-25T14:51:47.000Z</time>
      </trkpt>
      <trkpt lat="43.58387" lon="6.29533">
        <ele>551.1</ele>
        <time>2023-01-25T14:51:51.000Z</time>
      </trkpt>
      <trkpt lat="43.58383" lon="6.29528">
        <ele>550.6</ele>
        <time>2023-01-25T14:51:55.000Z</time>
      </trkpt>
      <trkpt lat="43.58379" lon="6.29524">
        <ele>550.3</ele>
        <time>2023-01-25T14:51:58.000Z</time>
      </trkpt>
      <trkpt lat="43.58375" lon="6.29519">
        <ele>549.9</ele>
        <time>2023-01-25T14:52:02.000Z</time>
      </trkpt>
      <trkpt lat="43.58372" lon="6.29514">
        <ele>549.6</ele>
        <time>2023-01-25T14:52:05.000Z</time>
      </trkpt>
      <trkpt lat="43.58368" lon="6.2951">
        <ele>549.1</ele>
        <time>2023-01-25T14:52:09.000Z</time>
      </trkpt>
      <trkpt lat="43.58364" lon="6.29506">
        <ele>548.6</ele>
        <time>2023-01-25T14:52:13.000Z</time>
      </trkpt>
      <trkpt lat="43.58359" lon="6.29502">
        <ele>548.1</ele>
        <time>2023-01-25T14:52:18.000Z</time>
      </trkpt>
      <trkpt lat="43.58355" lon="6.29499">
        <ele>547.6</ele>
        <time>2023-01-25T14:52:22.000Z</time>
      </trkpt>
      <trkpt lat="43.58351" lon="6.29495">
        <ele>546.9</ele>
        <time>2023-01-25T14:52:26.000Z</time>
      </trkpt>
      <trkpt lat="43.58347" lon="6.29492">
        <ele>546.2</ele>
        <time>2023-01-25T14:52:30.000Z</time>
      </trkpt>
      <trkpt lat="43.58342" lon="6.29489">
        <ele>545.6</ele>
        <time>2023-01-25T14:52:34.000Z</time>
      </trkpt>
      <trkpt lat="43.58337" lon="6.29485">
        <ele>545</ele>
        <time>2023-01-25T14:52:38.000Z</time>
      </trkpt>
      <trkpt lat="43.58333" lon="6.2948">
        <ele>544.4</ele>
        <time>2023-01-25T14:52:42.000Z</time>
      </trkpt>
      <trkpt lat="43.58328" lon="6.29476">
        <ele>543.8</ele>
        <time>2023-01-25T14:52:46.000Z</time>
      </trkpt>
      <trkpt lat="43.58324" lon="6.29472">
        <ele>543.4</ele>
        <time>2023-01-25T14:52:50.000Z</time>
      </trkpt>
      <trkpt lat="43.58321" lon="6.29469">
        <ele>542.9</ele>
        <time>2023-01-25T14:52:54.000Z</time>
      </trkpt>
      <trkpt lat="43.58317" lon="6.29465">
        <ele>542.4</ele>
        <time>2023-01-25T14:52:58.000Z</time>
      </trkpt>
      <trkpt lat="43.58312" lon="6.29462">
        <ele>541.9</ele>
        <time>2023-01-25T14:53:02.000Z</time>
      </trkpt>
      <trkpt lat="43.58308" lon="6.29459">
        <ele>541.5</ele>
        <time>2023-01-25T14:53:06.000Z</time>
      </trkpt>
      <trkpt lat="43.58304" lon="6.29456">
        <ele>541</ele>
        <time>2023-01-25T14:53:10.000Z</time>
      </trkpt>
      <trkpt lat="43.58299" lon="6.29453">
        <ele>540.6</ele>
        <time>2023-01-25T14:53:14.000Z</time>
      </trkpt>
      <trkpt lat="43.58295" lon="6.29451">
        <ele>540.2</ele>
        <time>2023-01-25T14:53:18.000Z</time>
      </trkpt>
      <trkpt lat="43.58291" lon="6.29447">
        <ele>539.8</ele>
        <time>2023-01-25T14:53:21.000Z</time>
      </trkpt>
      <trkpt lat="43.58287" lon="6.29444">
        <ele>539.2</ele>
        <time>2023-01-25T14:53:25.000Z</time>
      </trkpt>
      <trkpt lat="43.58282" lon="6.29442">
        <ele>538.5</ele>
        <time>2023-01-25T14:53:29.000Z</time>
      </trkpt>
      <trkpt lat="43.58278" lon="6.29439">
        <ele>538</ele>
        <time>2023-01-25T14:53:33.000Z</time>
      </trkpt>
      <trkpt lat="43.58273" lon="6.29436">
        <ele>537.4</ele>
        <time>2023-01-25T14:53:37.000Z</time>
      </trkpt>
      <trkpt lat="43.58269" lon="6.29432">
        <ele>536.8</ele>
        <time>2023-01-25T14:53:41.000Z</time>
      </trkpt>
      <trkpt lat="43.58264" lon="6.29427">
        <ele>536.2</ele>
        <time>2023-01-25T14:53:45.000Z</time>
      </trkpt>
      <trkpt lat="43.5826" lon="6.29424">
        <ele>535.3</ele>
        <time>2023-01-25T14:53:49.000Z</time>
      </trkpt>
      <trkpt lat="43.58255" lon="6.29421">
        <ele>534.7</ele>
        <time>2023-01-25T14:53:53.000Z</time>
      </trkpt>
      <trkpt lat="43.5825" lon="6.29419">
        <ele>534.1</ele>
        <time>2023-01-25T14:53:57.000Z</time>
      </trkpt>
      <trkpt lat="43.58245" lon="6.29419">
        <ele>533.3</ele>
        <time>2023-01-25T14:54:02.000Z</time>
      </trkpt>
      <trkpt lat="43.58241" lon="6.29418">
        <ele>532.8</ele>
        <time>2023-01-25T14:54:06.000Z</time>
      </trkpt>
      <trkpt lat="43.58235" lon="6.29418">
        <ele>532.1</ele>
        <time>2023-01-25T14:54:11.000Z</time>
      </trkpt>
      <trkpt lat="43.5823" lon="6.29415">
        <ele>531.3</ele>
        <time>2023-01-25T14:54:16.000Z</time>
      </trkpt>
      <trkpt lat="43.58225" lon="6.29413">
        <ele>530.6</ele>
        <time>2023-01-25T14:54:20.000Z</time>
      </trkpt>
      <trkpt lat="43.58221" lon="6.2941">
        <ele>530</ele>
        <time>2023-01-25T14:54:24.000Z</time>
      </trkpt>
      <trkpt lat="43.58216" lon="6.29407">
        <ele>529.4</ele>
        <time>2023-01-25T14:54:28.000Z</time>
      </trkpt>
      <trkpt lat="43.58213" lon="6.29403">
        <ele>528.9</ele>
        <time>2023-01-25T14:54:32.000Z</time>
      </trkpt>
      <trkpt lat="43.58209" lon="6.294">
        <ele>528.3</ele>
        <time>2023-01-25T14:54:36.000Z</time>
      </trkpt>
      <trkpt lat="43.58203" lon="6.29399">
        <ele>527.8</ele>
        <time>2023-01-25T14:54:40.000Z</time>
      </trkpt>
      <trkpt lat="43.58198" lon="6.29398">
        <ele>527.1</ele>
        <time>2023-01-25T14:54:45.000Z</time>
      </trkpt>
      <trkpt lat="43.58193" lon="6.29399">
        <ele>526.3</ele>
        <time>2023-01-25T14:54:49.000Z</time>
      </trkpt>
      <trkpt lat="43.58188" lon="6.29399">
        <ele>525.5</ele>
        <time>2023-01-25T14:54:53.000Z</time>
      </trkpt>
      <trkpt lat="43.58183" lon="6.29397">
        <ele>524.6</ele>
        <time>2023-01-25T14:54:57.000Z</time>
      </trkpt>
      <trkpt lat="43.58178" lon="6.29394">
        <ele>523.7</ele>
        <time>2023-01-25T14:55:01.000Z</time>
      </trkpt>
      <trkpt lat="43.58174" lon="6.29393">
        <ele>523</ele>
        <time>2023-01-25T14:55:05.000Z</time>
      </trkpt>
      <trkpt lat="43.58169" lon="6.29391">
        <ele>521.7</ele>
        <time>2023-01-25T14:55:10.000Z</time>
      </trkpt>
      <trkpt lat="43.58164" lon="6.29387">
        <ele>520.5</ele>
        <time>2023-01-25T14:55:15.000Z</time>
      </trkpt>
      <trkpt lat="43.58159" lon="6.29385">
        <ele>519.6</ele>
        <time>2023-01-25T14:55:20.000Z</time>
      </trkpt>
      <trkpt lat="43.58154" lon="6.29385">
        <ele>518.8</ele>
        <time>2023-01-25T14:55:24.000Z</time>
      </trkpt>
      <trkpt lat="43.58149" lon="6.29384">
        <ele>518</ele>
        <time>2023-01-25T14:55:28.000Z</time>
      </trkpt>
      <trkpt lat="43.58143" lon="6.29382">
        <ele>516.9</ele>
        <time>2023-01-25T14:55:33.000Z</time>
      </trkpt>
      <trkpt lat="43.58139" lon="6.29381">
        <ele>516</ele>
        <time>2023-01-25T14:55:37.000Z</time>
      </trkpt>
      <trkpt lat="43.58134" lon="6.29379">
        <ele>515.1</ele>
        <time>2023-01-25T14:55:41.000Z</time>
      </trkpt>
      <trkpt lat="43.58129" lon="6.29376">
        <ele>514</ele>
        <time>2023-01-25T14:55:46.000Z</time>
      </trkpt>
      <trkpt lat="43.58124" lon="6.29374">
        <ele>512.9</ele>
        <time>2023-01-25T14:55:51.000Z</time>
      </trkpt>
      <trkpt lat="43.58119" lon="6.29372">
        <ele>511.7</ele>
        <time>2023-01-25T14:55:56.000Z</time>
      </trkpt>
      <trkpt lat="43.58114" lon="6.2937">
        <ele>510.6</ele>
        <time>2023-01-25T14:56:00.000Z</time>
      </trkpt>
      <trkpt lat="43.58109" lon="6.2937">
        <ele>509.6</ele>
        <time>2023-01-25T14:56:04.000Z</time>
      </trkpt>
      <trkpt lat="43.58104" lon="6.29368">
        <ele>508.4</ele>
        <time>2023-01-25T14:56:09.000Z</time>
      </trkpt>
      <trkpt lat="43.58099" lon="6.29366">
        <ele>507.1</ele>
        <time>2023-01-25T14:56:14.000Z</time>
      </trkpt>
      <trkpt lat="43.58095" lon="6.29363">
        <ele>506.2</ele>
        <time>2023-01-25T14:56:18.000Z</time>
      </trkpt>
      <trkpt lat="43.58091" lon="6.29361">
        <ele>505.1</ele>
        <time>2023-01-25T14:56:23.000Z</time>
      </trkpt>
      <trkpt lat="43.58086" lon="6.29359">
        <ele>504.2</ele>
        <time>2023-01-25T14:56:28.000Z</time>
      </trkpt>
      <trkpt lat="43.58081" lon="6.29359">
        <ele>503.5</ele>
        <time>2023-01-25T14:56:32.000Z</time>
      </trkpt>
      <trkpt lat="43.58076" lon="6.29358">
        <ele>502.9</ele>
        <time>2023-01-25T14:56:36.000Z</time>
      </trkpt>
      <trkpt lat="43.58072" lon="6.29357">
        <ele>502.3</ele>
        <time>2023-01-25T14:56:40.000Z</time>
      </trkpt>
      <trkpt lat="43.58066" lon="6.29355">
        <ele>501.7</ele>
        <time>2023-01-25T14:56:44.000Z</time>
      </trkpt>
      <trkpt lat="43.58061" lon="6.29353">
        <ele>501.1</ele>
        <time>2023-01-25T14:56:48.000Z</time>
      </trkpt>
      <trkpt lat="43.58055" lon="6.29351">
        <ele>500.4</ele>
        <time>2023-01-25T14:56:52.000Z</time>
      </trkpt>
      <trkpt lat="43.5805" lon="6.29349">
        <ele>499.8</ele>
        <time>2023-01-25T14:56:56.000Z</time>
      </trkpt>
      <trkpt lat="43.58044" lon="6.29347">
        <ele>499.3</ele>
        <time>2023-01-25T14:57:00.000Z</time>
      </trkpt>
      <trkpt lat="43.5804" lon="6.29344">
        <ele>498.9</ele>
        <time>2023-01-25T14:57:04.000Z</time>
      </trkpt>
      <trkpt lat="43.58035" lon="6.29342">
        <ele>498.6</ele>
        <time>2023-01-25T14:57:08.000Z</time>
      </trkpt>
      <trkpt lat="43.5803" lon="6.29339">
        <ele>498.4</ele>
        <time>2023-01-25T14:57:12.000Z</time>
      </trkpt>
      <trkpt lat="43.58025" lon="6.29336">
        <ele>498.1</ele>
        <time>2023-01-25T14:57:17.000Z</time>
      </trkpt>
      <trkpt lat="43.58022" lon="6.29332">
        <ele>497.7</ele>
        <time>2023-01-25T14:58:02.000Z</time>
      </trkpt>
      <trkpt lat="43.58022" lon="6.29325">
        <ele>498.2</ele>
        <time>2023-01-25T15:00:42.000Z</time>
      </trkpt>
      <trkpt lat="43.58021" lon="6.29318">
        <ele>497.6</ele>
        <time>2023-01-25T15:00:50.000Z</time>
      </trkpt>
      <trkpt lat="43.5802" lon="6.29312">
        <ele>497.1</ele>
        <time>2023-01-25T15:00:55.000Z</time>
      </trkpt>
      <trkpt lat="43.58017" lon="6.29307">
        <ele>496.3</ele>
        <time>2023-01-25T15:01:00.000Z</time>
      </trkpt>
      <trkpt lat="43.58015" lon="6.29301">
        <ele>495.6</ele>
        <time>2023-01-25T15:01:05.000Z</time>
      </trkpt>
      <trkpt lat="43.58014" lon="6.29295">
        <ele>494.9</ele>
        <time>2023-01-25T15:01:10.000Z</time>
      </trkpt>
      <trkpt lat="43.58013" lon="6.29289">
        <ele>494</ele>
        <time>2023-01-25T15:01:15.000Z</time>
      </trkpt>
      <trkpt lat="43.58013" lon="6.29282">
        <ele>493</ele>
        <time>2023-01-25T15:01:20.000Z</time>
      </trkpt>
      <trkpt lat="43.58012" lon="6.29275">
        <ele>492.2</ele>
        <time>2023-01-25T15:01:25.000Z</time>
      </trkpt>
      <trkpt lat="43.58011" lon="6.29268">
        <ele>491.5</ele>
        <time>2023-01-25T15:01:31.000Z</time>
      </trkpt>
      <trkpt lat="43.58007" lon="6.29263">
        <ele>490.4</ele>
        <time>2023-01-25T15:01:38.000Z</time>
      </trkpt>
      <trkpt lat="43.58004" lon="6.29258">
        <ele>489.6</ele>
        <time>2023-01-25T15:01:43.000Z</time>
      </trkpt>
      <trkpt lat="43.58" lon="6.29255">
        <ele>488.7</ele>
        <time>2023-01-25T15:01:48.000Z</time>
      </trkpt>
      <trkpt lat="43.57996" lon="6.29252">
        <ele>488.2</ele>
        <time>2023-01-25T15:01:52.000Z</time>
      </trkpt>
      <trkpt lat="43.57991" lon="6.29249">
        <ele>487.3</ele>
        <time>2023-01-25T15:01:56.000Z</time>
      </trkpt>
      <trkpt lat="43.57987" lon="6.29246">
        <ele>486.6</ele>
        <time>2023-01-25T15:02:00.000Z</time>
      </trkpt>
      <trkpt lat="43.57982" lon="6.29243">
        <ele>485.8</ele>
        <time>2023-01-25T15:02:05.000Z</time>
      </trkpt>
      <trkpt lat="43.57978" lon="6.29241">
        <ele>485.1</ele>
        <time>2023-01-25T15:02:09.000Z</time>
      </trkpt>
      <trkpt lat="43.57972" lon="6.29239">
        <ele>484.3</ele>
        <time>2023-01-25T15:02:14.000Z</time>
      </trkpt>
      <trkpt lat="43.57967" lon="6.29237">
        <ele>483.6</ele>
        <time>2023-01-25T15:02:19.000Z</time>
      </trkpt>
      <trkpt lat="43.57964" lon="6.29232">
        <ele>483.1</ele>
        <time>2023-01-25T15:02:24.000Z</time>
      </trkpt>
      <trkpt lat="43.57962" lon="6.29226">
        <ele>482.7</ele>
        <time>2023-01-25T15:02:28.000Z</time>
      </trkpt>
      <trkpt lat="43.5796" lon="6.29218">
        <ele>482.1</ele>
        <time>2023-01-25T15:02:33.000Z</time>
      </trkpt>
      <trkpt lat="43.57959" lon="6.29212">
        <ele>481.8</ele>
        <time>2023-01-25T15:02:37.000Z</time>
      </trkpt>
      <trkpt lat="43.57956" lon="6.29205">
        <ele>481.3</ele>
        <time>2023-01-25T15:02:42.000Z</time>
      </trkpt>
      <trkpt lat="43.57954" lon="6.29198">
        <ele>480.6</ele>
        <time>2023-01-25T15:02:47.000Z</time>
      </trkpt>
      <trkpt lat="43.57952" lon="6.29192">
        <ele>479.8</ele>
        <time>2023-01-25T15:02:53.000Z</time>
      </trkpt>
      <trkpt lat="43.57949" lon="6.29186">
        <ele>478.9</ele>
        <time>2023-01-25T15:02:58.000Z</time>
      </trkpt>
      <trkpt lat="43.57947" lon="6.29179">
        <ele>478</ele>
        <time>2023-01-25T15:03:04.000Z</time>
      </trkpt>
      <trkpt lat="43.57944" lon="6.29173">
        <ele>476.8</ele>
        <time>2023-01-25T15:03:10.000Z</time>
      </trkpt>
      <trkpt lat="43.57941" lon="6.29168">
        <ele>475.9</ele>
        <time>2023-01-25T15:03:15.000Z</time>
      </trkpt>
      <trkpt lat="43.57939" lon="6.29162">
        <ele>475</ele>
        <time>2023-01-25T15:03:20.000Z</time>
      </trkpt>
      <trkpt lat="43.57937" lon="6.29156">
        <ele>473.7</ele>
        <time>2023-01-25T15:03:26.000Z</time>
      </trkpt>
      <trkpt lat="43.57934" lon="6.2915">
        <ele>472.5</ele>
        <time>2023-01-25T15:03:32.000Z</time>
      </trkpt>
      <trkpt lat="43.57931" lon="6.29144">
        <ele>471.4</ele>
        <time>2023-01-25T15:03:38.000Z</time>
      </trkpt>
      <trkpt lat="43.57927" lon="6.2914">
        <ele>470.1</ele>
        <time>2023-01-25T15:03:44.000Z</time>
      </trkpt>
      <trkpt lat="43.57923" lon="6.29136">
        <ele>468.7</ele>
        <time>2023-01-25T15:03:50.000Z</time>
      </trkpt>
      <trkpt lat="43.57919" lon="6.29132">
        <ele>467.6</ele>
        <time>2023-01-25T15:03:56.000Z</time>
      </trkpt>
      <trkpt lat="43.57915" lon="6.29129">
        <ele>466.6</ele>
        <time>2023-01-25T15:04:01.000Z</time>
      </trkpt>
      <trkpt lat="43.57911" lon="6.29126">
        <ele>465.4</ele>
        <time>2023-01-25T15:04:07.000Z</time>
      </trkpt>
      <trkpt lat="43.57906" lon="6.29125">
        <ele>464</ele>
        <time>2023-01-25T15:04:15.000Z</time>
      </trkpt>
      <trkpt lat="43.57903" lon="6.2912">
        <ele>461.9</ele>
        <time>2023-01-25T15:04:45.000Z</time>
      </trkpt>
      <trkpt lat="43.57898" lon="6.2912">
        <ele>461.2</ele>
        <time>2023-01-25T15:04:53.000Z</time>
      </trkpt>
      <trkpt lat="43.57893" lon="6.29121">
        <ele>460.4</ele>
        <time>2023-01-25T15:04:59.000Z</time>
      </trkpt>
      <trkpt lat="43.57889" lon="6.29121">
        <ele>459.6</ele>
        <time>2023-01-25T15:05:04.000Z</time>
      </trkpt>
      <trkpt lat="43.57883" lon="6.29119">
        <ele>458.8</ele>
        <time>2023-01-25T15:05:10.000Z</time>
      </trkpt>
      <trkpt lat="43.57878" lon="6.29119">
        <ele>457.9</ele>
        <time>2023-01-25T15:05:16.000Z</time>
      </trkpt>
      <trkpt lat="43.57874" lon="6.2912">
        <ele>457</ele>
        <time>2023-01-25T15:05:21.000Z</time>
      </trkpt>
      <trkpt lat="43.57869" lon="6.29122">
        <ele>455.8</ele>
        <time>2023-01-25T15:05:26.000Z</time>
      </trkpt>
      <trkpt lat="43.57864" lon="6.29125">
        <ele>455.1</ele>
        <time>2023-01-25T15:05:30.000Z</time>
      </trkpt>
      <trkpt lat="43.5786" lon="6.29127">
        <ele>454.5</ele>
        <time>2023-01-25T15:05:34.000Z</time>
      </trkpt>
      <trkpt lat="43.57856" lon="6.2913">
        <ele>453.4</ele>
        <time>2023-01-25T15:05:39.000Z</time>
      </trkpt>
      <trkpt lat="43.57851" lon="6.29134">
        <ele>452.4</ele>
        <time>2023-01-25T15:05:44.000Z</time>
      </trkpt>
      <trkpt lat="43.57846" lon="6.29134">
        <ele>451.7</ele>
        <time>2023-01-25T15:05:49.000Z</time>
      </trkpt>
      <trkpt lat="43.57842" lon="6.2913">
        <ele>450.5</ele>
        <time>2023-01-25T15:05:56.000Z</time>
      </trkpt>
      <trkpt lat="43.57838" lon="6.29127">
        <ele>449.6</ele>
        <time>2023-01-25T15:06:02.000Z</time>
      </trkpt>
      <trkpt lat="43.57834" lon="6.29121">
        <ele>448.9</ele>
        <time>2023-01-25T15:06:07.000Z</time>
      </trkpt>
      <trkpt lat="43.57831" lon="6.29116">
        <ele>448.4</ele>
        <time>2023-01-25T15:06:11.000Z</time>
      </trkpt>
      <trkpt lat="43.57828" lon="6.2911">
        <ele>448</ele>
        <time>2023-01-25T15:06:15.000Z</time>
      </trkpt>
      <trkpt lat="43.57826" lon="6.29104">
        <ele>447.6</ele>
        <time>2023-01-25T15:06:19.000Z</time>
      </trkpt>
      <trkpt lat="43.57823" lon="6.29098">
        <ele>447</ele>
        <time>2023-01-25T15:06:24.000Z</time>
      </trkpt>
      <trkpt lat="43.5782" lon="6.29093">
        <ele>446.5</ele>
        <time>2023-01-25T15:06:29.000Z</time>
      </trkpt>
      <trkpt lat="43.57816" lon="6.29088">
        <ele>445.5</ele>
        <time>2023-01-25T15:06:35.000Z</time>
      </trkpt>
      <trkpt lat="43.57813" lon="6.29083">
        <ele>444.7</ele>
        <time>2023-01-25T15:06:40.000Z</time>
      </trkpt>
      <trkpt lat="43.57811" lon="6.29076">
        <ele>443.9</ele>
        <time>2023-01-25T15:06:45.000Z</time>
      </trkpt>
      <trkpt lat="43.57811" lon="6.29068">
        <ele>443.2</ele>
        <time>2023-01-25T15:06:50.000Z</time>
      </trkpt>
      <trkpt lat="43.57813" lon="6.29061">
        <ele>442.6</ele>
        <time>2023-01-25T15:06:55.000Z</time>
      </trkpt>
      <trkpt lat="43.57815" lon="6.29056">
        <ele>442.2</ele>
        <time>2023-01-25T15:06:59.000Z</time>
      </trkpt>
      <trkpt lat="43.5782" lon="6.29052">
        <ele>441.8</ele>
        <time>2023-01-25T15:07:03.000Z</time>
      </trkpt>
      <trkpt lat="43.57825" lon="6.2905">
        <ele>441.5</ele>
        <time>2023-01-25T15:07:07.000Z</time>
      </trkpt>
      <trkpt lat="43.57828" lon="6.29045">
        <ele>441.1</ele>
        <time>2023-01-25T15:07:12.000Z</time>
      </trkpt>
      <trkpt lat="43.57831" lon="6.29039">
        <ele>440.6</ele>
        <time>2023-01-25T15:07:18.000Z</time>
      </trkpt>
      <trkpt lat="43.57831" lon="6.29032">
        <ele>439.9</ele>
        <time>2023-01-25T15:07:23.000Z</time>
      </trkpt>
      <trkpt lat="43.57831" lon="6.29025">
        <ele>439.2</ele>
        <time>2023-01-25T15:07:28.000Z</time>
      </trkpt>
      <trkpt lat="43.5783" lon="6.29018">
        <ele>438.5</ele>
        <time>2023-01-25T15:07:33.000Z</time>
      </trkpt>
      <trkpt lat="43.57832" lon="6.29011">
        <ele>437.9</ele>
        <time>2023-01-25T15:07:38.000Z</time>
      </trkpt>
      <trkpt lat="43.57833" lon="6.29005">
        <ele>437.5</ele>
        <time>2023-01-25T15:07:42.000Z</time>
      </trkpt>
      <trkpt lat="43.57834" lon="6.28998">
        <ele>437.1</ele>
        <time>2023-01-25T15:07:47.000Z</time>
      </trkpt>
      <trkpt lat="43.57834" lon="6.28991">
        <ele>436.3</ele>
        <time>2023-01-25T15:07:52.000Z</time>
      </trkpt>
      <trkpt lat="43.57834" lon="6.28984">
        <ele>435.5</ele>
        <time>2023-01-25T15:07:57.000Z</time>
      </trkpt>
      <trkpt lat="43.57835" lon="6.28978">
        <ele>434.9</ele>
        <time>2023-01-25T15:08:01.000Z</time>
      </trkpt>
      <trkpt lat="43.57835" lon="6.28971">
        <ele>434.3</ele>
        <time>2023-01-25T15:08:06.000Z</time>
      </trkpt>
      <trkpt lat="43.57835" lon="6.28964">
        <ele>433.5</ele>
        <time>2023-01-25T15:08:11.000Z</time>
      </trkpt>
      <trkpt lat="43.57835" lon="6.28956">
        <ele>432.8</ele>
        <time>2023-01-25T15:08:16.000Z</time>
      </trkpt>
      <trkpt lat="43.57837" lon="6.2895">
        <ele>432.3</ele>
        <time>2023-01-25T15:08:20.000Z</time>
      </trkpt>
      <trkpt lat="43.57839" lon="6.28945">
        <ele>431.7</ele>
        <time>2023-01-25T15:08:24.000Z</time>
      </trkpt>
      <trkpt lat="43.5784" lon="6.28938">
        <ele>430.9</ele>
        <time>2023-01-25T15:08:29.000Z</time>
      </trkpt>
      <trkpt lat="43.57841" lon="6.28931">
        <ele>429</ele>
        <time>2023-01-25T15:08:59.000Z</time>
      </trkpt>
      <trkpt lat="43.5784" lon="6.28925">
        <ele>428.7</ele>
        <time>2023-01-25T15:11:05.000Z</time>
      </trkpt>
      <trkpt lat="43.5784" lon="6.28918">
        <ele>428.7</ele>
        <time>2023-01-25T15:11:11.000Z</time>
      </trkpt>
      <trkpt lat="43.57839" lon="6.28912">
        <ele>428.4</ele>
        <time>2023-01-25T15:11:17.000Z</time>
      </trkpt>
      <trkpt lat="43.57839" lon="6.28904">
        <ele>428</ele>
        <time>2023-01-25T15:11:23.000Z</time>
      </trkpt>
      <trkpt lat="43.57837" lon="6.28899">
        <ele>427.5</ele>
        <time>2023-01-25T15:11:28.000Z</time>
      </trkpt>
      <trkpt lat="43.57834" lon="6.28893">
        <ele>426.7</ele>
        <time>2023-01-25T15:11:34.000Z</time>
      </trkpt>
      <trkpt lat="43.5783" lon="6.28889">
        <ele>426</ele>
        <time>2023-01-25T15:11:41.000Z</time>
      </trkpt>
      <trkpt lat="43.57825" lon="6.28887">
        <ele>425.1</ele>
        <time>2023-01-25T15:11:48.000Z</time>
      </trkpt>
      <trkpt lat="43.57819" lon="6.28886">
        <ele>424.3</ele>
        <time>2023-01-25T15:11:54.000Z</time>
      </trkpt>
      <trkpt lat="43.57814" lon="6.28888">
        <ele>423.4</ele>
        <time>2023-01-25T15:11:59.000Z</time>
      </trkpt>
      <trkpt lat="43.57809" lon="6.2889">
        <ele>422.2</ele>
        <time>2023-01-25T15:12:06.000Z</time>
      </trkpt>
      <trkpt lat="43.57804" lon="6.28889">
        <ele>421.6</ele>
        <time>2023-01-25T15:12:11.000Z</time>
      </trkpt>
      <trkpt lat="43.57799" lon="6.28889">
        <ele>420.8</ele>
        <time>2023-01-25T15:12:17.000Z</time>
      </trkpt>
      <trkpt lat="43.57794" lon="6.28888">
        <ele>419.8</ele>
        <time>2023-01-25T15:12:23.000Z</time>
      </trkpt>
      <trkpt lat="43.57789" lon="6.28889">
        <ele>419</ele>
        <time>2023-01-25T15:12:28.000Z</time>
      </trkpt>
      <trkpt lat="43.57784" lon="6.28888">
        <ele>418.1</ele>
        <time>2023-01-25T15:12:33.000Z</time>
      </trkpt>
      <trkpt lat="43.5778" lon="6.28885">
        <ele>417.5</ele>
        <time>2023-01-25T15:12:37.000Z</time>
      </trkpt>
      <trkpt lat="43.57776" lon="6.28881">
        <ele>416.9</ele>
        <time>2023-01-25T15:12:41.000Z</time>
      </trkpt>
      <trkpt lat="43.57772" lon="6.28877">
        <ele>416.2</ele>
        <time>2023-01-25T15:12:45.000Z</time>
      </trkpt>
      <trkpt lat="43.57767" lon="6.28874">
        <ele>415.5</ele>
        <time>2023-01-25T15:12:50.000Z</time>
      </trkpt>
      <trkpt lat="43.57763" lon="6.28874">
        <ele>414.8</ele>
        <time>2023-01-25T15:12:55.000Z</time>
      </trkpt>
      <trkpt lat="43.57758" lon="6.28876">
        <ele>414.1</ele>
        <time>2023-01-25T15:13:00.000Z</time>
      </trkpt>
      <trkpt lat="43.57753" lon="6.28875">
        <ele>413.5</ele>
        <time>2023-01-25T15:13:05.000Z</time>
      </trkpt>
      <trkpt lat="43.57749" lon="6.28872">
        <ele>413</ele>
        <time>2023-01-25T15:13:09.000Z</time>
      </trkpt>
      <trkpt lat="43.57745" lon="6.28868">
        <ele>412.5</ele>
        <time>2023-01-25T15:13:13.000Z</time>
      </trkpt>
      <trkpt lat="43.57741" lon="6.28864">
        <ele>412</ele>
        <time>2023-01-25T15:13:17.000Z</time>
      </trkpt>
      <trkpt lat="43.57736" lon="6.28861">
        <ele>411.6</ele>
        <time>2023-01-25T15:13:21.000Z</time>
      </trkpt>
      <trkpt lat="43.57731" lon="6.28857">
        <ele>411.3</ele>
        <time>2023-01-25T15:13:25.000Z</time>
      </trkpt>
      <trkpt lat="43.57727" lon="6.28853">
        <ele>410.9</ele>
        <time>2023-01-25T15:13:29.000Z</time>
      </trkpt>
      <trkpt lat="43.57722" lon="6.28849">
        <ele>410.6</ele>
        <time>2023-01-25T15:13:33.000Z</time>
      </trkpt>
      <trkpt lat="43.57718" lon="6.28845">
        <ele>410.4</ele>
        <time>2023-01-25T15:13:37.000Z</time>
      </trkpt>
      <trkpt lat="43.57714" lon="6.28841">
        <ele>409.9</ele>
        <time>2023-01-25T15:13:41.000Z</time>
      </trkpt>
      <trkpt lat="43.5771" lon="6.28837">
        <ele>409.5</ele>
        <time>2023-01-25T15:13:45.000Z</time>
      </trkpt>
      <trkpt lat="43.57706" lon="6.28833">
        <ele>409.1</ele>
        <time>2023-01-25T15:13:49.000Z</time>
      </trkpt>
      <trkpt lat="43.57702" lon="6.28829">
        <ele>408.8</ele>
        <time>2023-01-25T15:13:53.000Z</time>
      </trkpt>
      <trkpt lat="43.57697" lon="6.28824">
        <ele>408.5</ele>
        <time>2023-01-25T15:13:57.000Z</time>
      </trkpt>
      <trkpt lat="43.57694" lon="6.28819">
        <ele>408.2</ele>
        <time>2023-01-25T15:14:01.000Z</time>
      </trkpt>
      <trkpt lat="43.57692" lon="6.28813">
        <ele>408</ele>
        <time>2023-01-25T15:14:05.000Z</time>
      </trkpt>
      <trkpt lat="43.5769" lon="6.28807">
        <ele>407.9</ele>
        <time>2023-01-25T15:14:09.000Z</time>
      </trkpt>
      <trkpt lat="43.57686" lon="6.28802">
        <ele>407.8</ele>
        <time>2023-01-25T15:14:14.000Z</time>
      </trkpt>
      <trkpt lat="43.57683" lon="6.28798">
        <ele>407.4</ele>
        <time>2023-01-25T15:14:18.000Z</time>
      </trkpt>
      <trkpt lat="43.57679" lon="6.28793">
        <ele>406.8</ele>
        <time>2023-01-25T15:14:23.000Z</time>
      </trkpt>
      <trkpt lat="43.57675" lon="6.28789">
        <ele>406</ele>
        <time>2023-01-25T15:14:28.000Z</time>
      </trkpt>
      <trkpt lat="43.57672" lon="6.28784">
        <ele>405.5</ele>
        <time>2023-01-25T15:14:32.000Z</time>
      </trkpt>
      <trkpt lat="43.57667" lon="6.28781">
        <ele>405</ele>
        <time>2023-01-25T15:14:37.000Z</time>
      </trkpt>
      <trkpt lat="43.57663" lon="6.28777">
        <ele>404.5</ele>
        <time>2023-01-25T15:14:42.000Z</time>
      </trkpt>
      <trkpt lat="43.57659" lon="6.28773">
        <ele>404.2</ele>
        <time>2023-01-25T15:14:46.000Z</time>
      </trkpt>
      <trkpt lat="43.57655" lon="6.28768">
        <ele>403.8</ele>
        <time>2023-01-25T15:14:51.000Z</time>
      </trkpt>
      <trkpt lat="43.57651" lon="6.28764">
        <ele>403.4</ele>
        <time>2023-01-25T15:14:56.000Z</time>
      </trkpt>
      <trkpt lat="43.57646" lon="6.28763">
        <ele>403.1</ele>
        <time>2023-01-25T15:15:00.000Z</time>
      </trkpt>
      <trkpt lat="43.57642" lon="6.28763">
        <ele>402.6</ele>
        <time>2023-01-25T15:15:05.000Z</time>
      </trkpt>
      <trkpt lat="43.57637" lon="6.28766">
        <ele>401.6</ele>
        <time>2023-01-25T15:15:13.000Z</time>
      </trkpt>
      <trkpt lat="43.57633" lon="6.28768">
        <ele>400.9</ele>
        <time>2023-01-25T15:15:19.000Z</time>
      </trkpt>
      <trkpt lat="43.57628" lon="6.28768">
        <ele>400.4</ele>
        <time>2023-01-25T15:15:23.000Z</time>
      </trkpt>
      <trkpt lat="43.57623" lon="6.28767">
        <ele>400</ele>
        <time>2023-01-25T15:15:27.000Z</time>
      </trkpt>
      <trkpt lat="43.57618" lon="6.28766">
        <ele>399.3</ele>
        <time>2023-01-25T15:15:32.000Z</time>
      </trkpt>
      <trkpt lat="43.57613" lon="6.28764">
        <ele>398.5</ele>
        <time>2023-01-25T15:15:37.000Z</time>
      </trkpt>
      <trkpt lat="43.57608" lon="6.28761">
        <ele>397.7</ele>
        <time>2023-01-25T15:15:42.000Z</time>
      </trkpt>
      <trkpt lat="43.57603" lon="6.28759">
        <ele>397</ele>
        <time>2023-01-25T15:15:47.000Z</time>
      </trkpt>
      <trkpt lat="43.57599" lon="6.28757">
        <ele>396.4</ele>
        <time>2023-01-25T15:15:52.000Z</time>
      </trkpt>
      <trkpt lat="43.57594" lon="6.28755">
        <ele>395.8</ele>
        <time>2023-01-25T15:15:57.000Z</time>
      </trkpt>
      <trkpt lat="43.57589" lon="6.28756">
        <ele>395.1</ele>
        <time>2023-01-25T15:16:02.000Z</time>
      </trkpt>
      <trkpt lat="43.57584" lon="6.28756">
        <ele>394.6</ele>
        <time>2023-01-25T15:16:06.000Z</time>
      </trkpt>
      <trkpt lat="43.57579" lon="6.28755">
        <ele>394.1</ele>
        <time>2023-01-25T15:16:10.000Z</time>
      </trkpt>
      <trkpt lat="43.57575" lon="6.28754">
        <ele>393.7</ele>
        <time>2023-01-25T15:16:14.000Z</time>
      </trkpt>
      <trkpt lat="43.5757" lon="6.28751">
        <ele>393.1</ele>
        <time>2023-01-25T15:16:19.000Z</time>
      </trkpt>
      <trkpt lat="43.57565" lon="6.28749">
        <ele>392.7</ele>
        <time>2023-01-25T15:16:24.000Z</time>
      </trkpt>
      <trkpt lat="43.57561" lon="6.28747">
        <ele>392.3</ele>
        <time>2023-01-25T15:16:28.000Z</time>
      </trkpt>
      <trkpt lat="43.57556" lon="6.28745">
        <ele>392</ele>
        <time>2023-01-25T15:16:32.000Z</time>
      </trkpt>
      <trkpt lat="43.57552" lon="6.28743">
        <ele>391.8</ele>
        <time>2023-01-25T15:16:36.000Z</time>
      </trkpt>
      <trkpt lat="43.57547" lon="6.28741">
        <ele>391.3</ele>
        <time>2023-01-25T15:16:41.000Z</time>
      </trkpt>
      <trkpt lat="43.57542" lon="6.28739">
        <ele>391</ele>
        <time>2023-01-25T15:16:45.000Z</time>
      </trkpt>
      <trkpt lat="43.57537" lon="6.28736">
        <ele>390.8</ele>
        <time>2023-01-25T15:16:49.000Z</time>
      </trkpt>
      <trkpt lat="43.57534" lon="6.28731">
        <ele>390.5</ele>
        <time>2023-01-25T15:16:53.000Z</time>
      </trkpt>
      <trkpt lat="43.57531" lon="6.28726">
        <ele>390.1</ele>
        <time>2023-01-25T15:16:57.000Z</time>
      </trkpt>
      <trkpt lat="43.57527" lon="6.28722">
        <ele>389.7</ele>
        <time>2023-01-25T15:17:01.000Z</time>
      </trkpt>
      <trkpt lat="43.57523" lon="6.28719">
        <ele>389.3</ele>
        <time>2023-01-25T15:17:06.000Z</time>
      </trkpt>
      <trkpt lat="43.57517" lon="6.28717">
        <ele>388.9</ele>
        <time>2023-01-25T15:17:11.000Z</time>
      </trkpt>
      <trkpt lat="43.57512" lon="6.28716">
        <ele>388.5</ele>
        <time>2023-01-25T15:17:16.000Z</time>
      </trkpt>
      <trkpt lat="43.57508" lon="6.28721">
        <ele>388</ele>
        <time>2023-01-25T15:17:21.000Z</time>
      </trkpt>
      <trkpt lat="43.57503" lon="6.28723">
        <ele>387.4</ele>
        <time>2023-01-25T15:17:27.000Z</time>
      </trkpt>
      <trkpt lat="43.57498" lon="6.28723">
        <ele>386.7</ele>
        <time>2023-01-25T15:17:33.000Z</time>
      </trkpt>
      <trkpt lat="43.57493" lon="6.28724">
        <ele>386</ele>
        <time>2023-01-25T15:17:38.000Z</time>
      </trkpt>
      <trkpt lat="43.57489" lon="6.28726">
        <ele>385.5</ele>
        <time>2023-01-25T15:17:42.000Z</time>
      </trkpt>
      <trkpt lat="43.57484" lon="6.28729">
        <ele>385.2</ele>
        <time>2023-01-25T15:17:45.000Z</time>
      </trkpt>
      <trkpt lat="43.5748" lon="6.28731">
        <ele>384.8</ele>
        <time>2023-01-25T15:17:49.000Z</time>
      </trkpt>
      <trkpt lat="43.57475" lon="6.28733">
        <ele>384.4</ele>
        <time>2023-01-25T15:17:54.000Z</time>
      </trkpt>
      <trkpt lat="43.5747" lon="6.28735">
        <ele>383.6</ele>
        <time>2023-01-25T15:17:59.000Z</time>
      </trkpt>
      <trkpt lat="43.57466" lon="6.28738">
        <ele>382.8</ele>
        <time>2023-01-25T15:18:04.000Z</time>
      </trkpt>
      <trkpt lat="43.57461" lon="6.28738">
        <ele>382.2</ele>
        <time>2023-01-25T15:18:09.000Z</time>
      </trkpt>
      <trkpt lat="43.57457" lon="6.28735">
        <ele>381.8</ele>
        <time>2023-01-25T15:18:14.000Z</time>
      </trkpt>
      <trkpt lat="43.57452" lon="6.28736">
        <ele>381.2</ele>
        <time>2023-01-25T15:18:21.000Z</time>
      </trkpt>
      <trkpt lat="43.57448" lon="6.28738">
        <ele>378.9</ele>
        <time>2023-01-25T15:18:45.000Z</time>
      </trkpt>
      <trkpt lat="43.57447" lon="6.28732">
        <ele>379.1</ele>
        <time>2023-01-25T15:20:00.000Z</time>
      </trkpt>
      <trkpt lat="43.57445" lon="6.28725">
        <ele>379.2</ele>
        <time>2023-01-25T15:20:06.000Z</time>
      </trkpt>
      <trkpt lat="43.57444" lon="6.28718">
        <ele>379.2</ele>
        <time>2023-01-25T15:20:11.000Z</time>
      </trkpt>
      <trkpt lat="43.57444" lon="6.28711">
        <ele>379.2</ele>
        <time>2023-01-25T15:20:15.000Z</time>
      </trkpt>
      <trkpt lat="43.57444" lon="6.28704">
        <ele>379.1</ele>
        <time>2023-01-25T15:20:20.000Z</time>
      </trkpt>
      <trkpt lat="43.57444" lon="6.28696">
        <ele>379</ele>
        <time>2023-01-25T15:20:25.000Z</time>
      </trkpt>
      <trkpt lat="43.57444" lon="6.28689">
        <ele>378.9</ele>
        <time>2023-01-25T15:20:29.000Z</time>
      </trkpt>
      <trkpt lat="43.57444" lon="6.28683">
        <ele>378.7</ele>
        <time>2023-01-25T15:20:33.000Z</time>
      </trkpt>
      <trkpt lat="43.57444" lon="6.28676">
        <ele>378.7</ele>
        <time>2023-01-25T15:20:37.000Z</time>
      </trkpt>
      <trkpt lat="43.57444" lon="6.2867">
        <ele>378.6</ele>
        <time>2023-01-25T15:20:41.000Z</time>
      </trkpt>
      <trkpt lat="43.57444" lon="6.28663">
        <ele>378.6</ele>
        <time>2023-01-25T15:20:46.000Z</time>
      </trkpt>
      <trkpt lat="43.57443" lon="6.28655">
        <ele>378.6</ele>
        <time>2023-01-25T15:20:51.000Z</time>
      </trkpt>
      <trkpt lat="43.57443" lon="6.28648">
        <ele>378.4</ele>
        <time>2023-01-25T15:20:56.000Z</time>
      </trkpt>
      <trkpt lat="43.57444" lon="6.28641">
        <ele>378.4</ele>
        <time>2023-01-25T15:21:00.000Z</time>
      </trkpt>
      <trkpt lat="43.57445" lon="6.28635">
        <ele>378.3</ele>
        <time>2023-01-25T15:21:04.000Z</time>
      </trkpt>
      <trkpt lat="43.57447" lon="6.28628">
        <ele>378.3</ele>
        <time>2023-01-25T15:21:08.000Z</time>
      </trkpt>
      <trkpt lat="43.57448" lon="6.28621">
        <ele>378.4</ele>
        <time>2023-01-25T15:21:13.000Z</time>
      </trkpt>
      <trkpt lat="43.5745" lon="6.28615">
        <ele>378.5</ele>
        <time>2023-01-25T15:21:17.000Z</time>
      </trkpt>
      <trkpt lat="43.57451" lon="6.28609">
        <ele>378.6</ele>
        <time>2023-01-25T15:21:21.000Z</time>
      </trkpt>
      <trkpt lat="43.57453" lon="6.28602">
        <ele>378.7</ele>
        <time>2023-01-25T15:21:26.000Z</time>
      </trkpt>
      <trkpt lat="43.57455" lon="6.28595">
        <ele>378.8</ele>
        <time>2023-01-25T15:21:31.000Z</time>
      </trkpt>
      <trkpt lat="43.57457" lon="6.2859">
        <ele>378.9</ele>
        <time>2023-01-25T15:21:35.000Z</time>
      </trkpt>
      <trkpt lat="43.57458" lon="6.28583">
        <ele>379</ele>
        <time>2023-01-25T15:21:40.000Z</time>
      </trkpt>
      <trkpt lat="43.5746" lon="6.28577">
        <ele>378.9</ele>
        <time>2023-01-25T15:21:45.000Z</time>
      </trkpt>
      <trkpt lat="43.57463" lon="6.28572">
        <ele>378.9</ele>
        <time>2023-01-25T15:21:48.000Z</time>
      </trkpt>
      <trkpt lat="43.57465" lon="6.28566">
        <ele>378.9</ele>
        <time>2023-01-25T15:21:51.000Z</time>
      </trkpt>
      <trkpt lat="43.57468" lon="6.28561">
        <ele>378.8</ele>
        <time>2023-01-25T15:21:55.000Z</time>
      </trkpt>
      <trkpt lat="43.57472" lon="6.28556">
        <ele>378.7</ele>
        <time>2023-01-25T15:21:59.000Z</time>
      </trkpt>
      <trkpt lat="43.57476" lon="6.28551">
        <ele>378.5</ele>
        <time>2023-01-25T15:22:03.000Z</time>
      </trkpt>
      <trkpt lat="43.57479" lon="6.28546">
        <ele>378.4</ele>
        <time>2023-01-25T15:22:07.000Z</time>
      </trkpt>
      <trkpt lat="43.5748" lon="6.28538">
        <ele>378.2</ele>
        <time>2023-01-25T15:22:12.000Z</time>
      </trkpt>
      <trkpt lat="43.57479" lon="6.28532">
        <ele>378.1</ele>
        <time>2023-01-25T15:22:16.000Z</time>
      </trkpt>
      <trkpt lat="43.57478" lon="6.28525">
        <ele>378</ele>
        <time>2023-01-25T15:22:21.000Z</time>
      </trkpt>
      <trkpt lat="43.57479" lon="6.28518">
        <ele>377.9</ele>
        <time>2023-01-25T15:22:26.000Z</time>
      </trkpt>
      <trkpt lat="43.5748" lon="6.28512">
        <ele>378.1</ele>
        <time>2023-01-25T15:22:31.000Z</time>
      </trkpt>
      <trkpt lat="43.57481" lon="6.28505">
        <ele>378.3</ele>
        <time>2023-01-25T15:22:36.000Z</time>
      </trkpt>
      <trkpt lat="43.57483" lon="6.28498">
        <ele>378.4</ele>
        <time>2023-01-25T15:22:41.000Z</time>
      </trkpt>
      <trkpt lat="43.57484" lon="6.28491">
        <ele>378.5</ele>
        <time>2023-01-25T15:22:46.000Z</time>
      </trkpt>
      <trkpt lat="43.57485" lon="6.28485">
        <ele>378.5</ele>
        <time>2023-01-25T15:23:10.000Z</time>
      </trkpt>
      <trkpt lat="43.57488" lon="6.28479">
        <ele>378.4</ele>
        <time>2023-01-25T15:23:24.000Z</time>
      </trkpt>
      <trkpt lat="43.57493" lon="6.28476">
        <ele>378.4</ele>
        <time>2023-01-25T15:23:30.000Z</time>
      </trkpt>
      <trkpt lat="43.57498" lon="6.28474">
        <ele>378.5</ele>
        <time>2023-01-25T15:23:36.000Z</time>
      </trkpt>
      <trkpt lat="43.57503" lon="6.28473">
        <ele>378.6</ele>
        <time>2023-01-25T15:23:41.000Z</time>
      </trkpt>
      <trkpt lat="43.57507" lon="6.28469">
        <ele>378.7</ele>
        <time>2023-01-25T15:23:47.000Z</time>
      </trkpt>
      <trkpt lat="43.57512" lon="6.28467">
        <ele>378.8</ele>
        <time>2023-01-25T15:23:52.000Z</time>
      </trkpt>
      <trkpt lat="43.57516" lon="6.28464">
        <ele>378.9</ele>
        <time>2023-01-25T15:23:58.000Z</time>
      </trkpt>
      <trkpt lat="43.57521" lon="6.28462">
        <ele>379.2</ele>
        <time>2023-01-25T15:24:03.000Z</time>
      </trkpt>
      <trkpt lat="43.57526" lon="6.2846">
        <ele>379.4</ele>
        <time>2023-01-25T15:24:09.000Z</time>
      </trkpt>
      <trkpt lat="43.57531" lon="6.28458">
        <ele>379.6</ele>
        <time>2023-01-25T15:24:14.000Z</time>
      </trkpt>
      <trkpt lat="43.57536" lon="6.28456">
        <ele>380</ele>
        <time>2023-01-25T15:24:19.000Z</time>
      </trkpt>
      <trkpt lat="43.57541" lon="6.28452">
        <ele>380.2</ele>
        <time>2023-01-25T15:24:25.000Z</time>
      </trkpt>
      <trkpt lat="43.57544" lon="6.28449">
        <ele>380.5</ele>
        <time>2023-01-25T15:24:30.000Z</time>
      </trkpt>
      <trkpt lat="43.57549" lon="6.28445">
        <ele>380.7</ele>
        <time>2023-01-25T15:24:35.000Z</time>
      </trkpt>
      <trkpt lat="43.57553" lon="6.28442">
        <ele>380.8</ele>
        <time>2023-01-25T15:24:40.000Z</time>
      </trkpt>
      <trkpt lat="43.57558" lon="6.28439">
        <ele>380.9</ele>
        <time>2023-01-25T15:24:44.000Z</time>
      </trkpt>
      <trkpt lat="43.57563" lon="6.28437">
        <ele>381</ele>
        <time>2023-01-25T15:24:48.000Z</time>
      </trkpt>
      <trkpt lat="43.57567" lon="6.28435">
        <ele>381.1</ele>
        <time>2023-01-25T15:24:52.000Z</time>
      </trkpt>
      <trkpt lat="43.57571" lon="6.28431">
        <ele>381.2</ele>
        <time>2023-01-25T15:24:56.000Z</time>
      </trkpt>
      <trkpt lat="43.57575" lon="6.28427">
        <ele>381.5</ele>
        <time>2023-01-25T15:25:01.000Z</time>
      </trkpt>
      <trkpt lat="43.57579" lon="6.28425">
        <ele>381.9</ele>
        <time>2023-01-25T15:25:06.000Z</time>
      </trkpt>
      <trkpt lat="43.57584" lon="6.28423">
        <ele>382.3</ele>
        <time>2023-01-25T15:25:11.000Z</time>
      </trkpt>
      <trkpt lat="43.57588" lon="6.28423">
        <ele>382.7</ele>
        <time>2023-01-25T15:25:15.000Z</time>
      </trkpt>
      <trkpt lat="43.57593" lon="6.2842">
        <ele>383</ele>
        <time>2023-01-25T15:25:19.000Z</time>
      </trkpt>
      <trkpt lat="43.57598" lon="6.28419">
        <ele>383.3</ele>
        <time>2023-01-25T15:25:23.000Z</time>
      </trkpt>
      <trkpt lat="43.57603" lon="6.2842">
        <ele>383.5</ele>
        <time>2023-01-25T15:25:28.000Z</time>
      </trkpt>
      <trkpt lat="43.57608" lon="6.28422">
        <ele>383.7</ele>
        <time>2023-01-25T15:25:33.000Z</time>
      </trkpt>
      <trkpt lat="43.57613" lon="6.28424">
        <ele>383.9</ele>
        <time>2023-01-25T15:25:38.000Z</time>
      </trkpt>
      <trkpt lat="43.57617" lon="6.28426">
        <ele>383.8</ele>
        <time>2023-01-25T15:25:44.000Z</time>
      </trkpt>
      <trkpt lat="43.57621" lon="6.28429">
        <ele>383.7</ele>
        <time>2023-01-25T15:25:48.000Z</time>
      </trkpt>
      <trkpt lat="43.57626" lon="6.28432">
        <ele>383.5</ele>
        <time>2023-01-25T15:25:52.000Z</time>
      </trkpt>
      <trkpt lat="43.57631" lon="6.28435">
        <ele>383.4</ele>
        <time>2023-01-25T15:25:55.000Z</time>
      </trkpt>
      <trkpt lat="43.57635" lon="6.28438">
        <ele>383.2</ele>
        <time>2023-01-25T15:25:59.000Z</time>
      </trkpt>
      <trkpt lat="43.5764" lon="6.28439">
        <ele>383.1</ele>
        <time>2023-01-25T15:26:03.000Z</time>
      </trkpt>
      <trkpt lat="43.57644" lon="6.28441">
        <ele>383</ele>
        <time>2023-01-25T15:26:07.000Z</time>
      </trkpt>
      <trkpt lat="43.57649" lon="6.28442">
        <ele>382.9</ele>
        <time>2023-01-25T15:26:12.000Z</time>
      </trkpt>
      <trkpt lat="43.57654" lon="6.28442">
        <ele>382.8</ele>
        <time>2023-01-25T15:26:17.000Z</time>
      </trkpt>
      <trkpt lat="43.57659" lon="6.28441">
        <ele>382.6</ele>
        <time>2023-01-25T15:26:21.000Z</time>
      </trkpt>
      <trkpt lat="43.57663" lon="6.28437">
        <ele>382.4</ele>
        <time>2023-01-25T15:26:25.000Z</time>
      </trkpt>
      <trkpt lat="43.57666" lon="6.28433">
        <ele>382.2</ele>
        <time>2023-01-25T15:26:29.000Z</time>
      </trkpt>
      <trkpt lat="43.5767" lon="6.28428">
        <ele>382</ele>
        <time>2023-01-25T15:26:34.000Z</time>
      </trkpt>
      <trkpt lat="43.57674" lon="6.28422">
        <ele>381.6</ele>
        <time>2023-01-25T15:26:39.000Z</time>
      </trkpt>
      <trkpt lat="43.57677" lon="6.28417">
        <ele>381.3</ele>
        <time>2023-01-25T15:26:44.000Z</time>
      </trkpt>
      <trkpt lat="43.57681" lon="6.28411">
        <ele>381</ele>
        <time>2023-01-25T15:26:49.000Z</time>
      </trkpt>
      <trkpt lat="43.57683" lon="6.28406">
        <ele>380.8</ele>
        <time>2023-01-25T15:26:53.000Z</time>
      </trkpt>
      <trkpt lat="43.57687" lon="6.28401">
        <ele>380.4</ele>
        <time>2023-01-25T15:26:58.000Z</time>
      </trkpt>
      <trkpt lat="43.57689" lon="6.28395">
        <ele>379.9</ele>
        <time>2023-01-25T15:27:04.000Z</time>
      </trkpt>
      <trkpt lat="43.57692" lon="6.2839">
        <ele>379.5</ele>
        <time>2023-01-25T15:27:09.000Z</time>
      </trkpt>
      <trkpt lat="43.57696" lon="6.28386">
        <ele>379.2</ele>
        <time>2023-01-25T15:27:13.000Z</time>
      </trkpt>
      <trkpt lat="43.577" lon="6.28381">
        <ele>378.9</ele>
        <time>2023-01-25T15:27:17.000Z</time>
      </trkpt>
      <trkpt lat="43.57704" lon="6.28378">
        <ele>378.2</ele>
        <time>2023-01-25T15:27:22.000Z</time>
      </trkpt>
      <trkpt lat="43.57709" lon="6.28375">
        <ele>377.7</ele>
        <time>2023-01-25T15:27:27.000Z</time>
      </trkpt>
      <trkpt lat="43.57713" lon="6.28372">
        <ele>377.4</ele>
        <time>2023-01-25T15:27:31.000Z</time>
      </trkpt>
      <trkpt lat="43.57718" lon="6.28374">
        <ele>376.8</ele>
        <time>2023-01-25T15:27:36.000Z</time>
      </trkpt>
      <trkpt lat="43.57723" lon="6.28376">
        <ele>376.4</ele>
        <time>2023-01-25T15:27:40.000Z</time>
      </trkpt>
      <trkpt lat="43.57727" lon="6.28379">
        <ele>375.9</ele>
        <time>2023-01-25T15:27:45.000Z</time>
      </trkpt>
      <trkpt lat="43.57731" lon="6.28383">
        <ele>375.5</ele>
        <time>2023-01-25T15:27:50.000Z</time>
      </trkpt>
      <trkpt lat="43.57734" lon="6.28388">
        <ele>375</ele>
        <time>2023-01-25T15:27:55.000Z</time>
      </trkpt>
      <trkpt lat="43.57737" lon="6.28393">
        <ele>374.6</ele>
        <time>2023-01-25T15:28:00.000Z</time>
      </trkpt>
      <trkpt lat="43.57739" lon="6.28398">
        <ele>373.9</ele>
        <time>2023-01-25T15:28:09.000Z</time>
      </trkpt>
      <trkpt lat="43.57744" lon="6.28399">
        <ele>373.2</ele>
        <time>2023-01-25T15:28:16.000Z</time>
      </trkpt>
      <trkpt lat="43.57749" lon="6.284">
        <ele>372.5</ele>
        <time>2023-01-25T15:28:22.000Z</time>
      </trkpt>
      <trkpt lat="43.57754" lon="6.28399">
        <ele>372</ele>
        <time>2023-01-25T15:28:27.000Z</time>
      </trkpt>
      <trkpt lat="43.57758" lon="6.28395">
        <ele>371</ele>
        <time>2023-01-25T15:28:32.000Z</time>
      </trkpt>
      <trkpt lat="43.57761" lon="6.2839">
        <ele>370.3</ele>
        <time>2023-01-25T15:28:38.000Z</time>
      </trkpt>
      <trkpt lat="43.57765" lon="6.28385">
        <ele>369.8</ele>
        <time>2023-01-25T15:28:43.000Z</time>
      </trkpt>
      <trkpt lat="43.57769" lon="6.28381">
        <ele>369.3</ele>
        <time>2023-01-25T15:28:49.000Z</time>
      </trkpt>
      <trkpt lat="43.57773" lon="6.28378">
        <ele>368.9</ele>
        <time>2023-01-25T15:28:55.000Z</time>
      </trkpt>
      <trkpt lat="43.57778" lon="6.2838">
        <ele>369.1</ele>
        <time>2023-01-25T15:29:02.000Z</time>
      </trkpt>
      <trkpt lat="43.57782" lon="6.2838">
        <ele>369.5</ele>
        <time>2023-01-25T15:29:10.000Z</time>
      </trkpt>
      <trkpt lat="43.57788" lon="6.28379">
        <ele>370.2</ele>
        <time>2023-01-25T15:29:18.000Z</time>
      </trkpt>
      <trkpt lat="43.57792" lon="6.28378">
        <ele>370.8</ele>
        <time>2023-01-25T15:29:23.000Z</time>
      </trkpt>
      <trkpt lat="43.57797" lon="6.28377">
        <ele>371.6</ele>
        <time>2023-01-25T15:29:30.000Z</time>
      </trkpt>
      <trkpt lat="43.57801" lon="6.28372">
        <ele>372.7</ele>
        <time>2023-01-25T15:29:39.000Z</time>
      </trkpt>
      <trkpt lat="43.57805" lon="6.28369">
        <ele>373.7</ele>
        <time>2023-01-25T15:29:47.000Z</time>
      </trkpt>
      <trkpt lat="43.5781" lon="6.28366">
        <ele>374.5</ele>
        <time>2023-01-25T15:29:53.000Z</time>
      </trkpt>
      <trkpt lat="43.57814" lon="6.28362">
        <ele>375.3</ele>
        <time>2023-01-25T15:29:59.000Z</time>
      </trkpt>
      <trkpt lat="43.57818" lon="6.28358">
        <ele>375.9</ele>
        <time>2023-01-25T15:30:05.000Z</time>
      </trkpt>
      <trkpt lat="43.57821" lon="6.28353">
        <ele>376.6</ele>
        <time>2023-01-25T15:30:11.000Z</time>
      </trkpt>
      <trkpt lat="43.57823" lon="6.28347">
        <ele>377.1</ele>
        <time>2023-01-25T15:30:16.000Z</time>
      </trkpt>
      <trkpt lat="43.57824" lon="6.2834">
        <ele>377.5</ele>
        <time>2023-01-25T15:30:22.000Z</time>
      </trkpt>
      <trkpt lat="43.57827" lon="6.28335">
        <ele>378.1</ele>
        <time>2023-01-25T15:30:29.000Z</time>
      </trkpt>
      <trkpt lat="43.57831" lon="6.28338">
        <ele>378.7</ele>
        <time>2023-01-25T15:30:35.000Z</time>
      </trkpt>
      <trkpt lat="43.57832" lon="6.28345">
        <ele>379.3</ele>
        <time>2023-01-25T15:30:41.000Z</time>
      </trkpt>
      <trkpt lat="43.57834" lon="6.28352">
        <ele>379.8</ele>
        <time>2023-01-25T15:30:48.000Z</time>
      </trkpt>
      <trkpt lat="43.57837" lon="6.28357">
        <ele>380.3</ele>
        <time>2023-01-25T15:30:55.000Z</time>
      </trkpt>
      <trkpt lat="43.57841" lon="6.28361">
        <ele>380.6</ele>
        <time>2023-01-25T15:31:01.000Z</time>
      </trkpt>
      <trkpt lat="43.57846" lon="6.28365">
        <ele>380.9</ele>
        <time>2023-01-25T15:31:07.000Z</time>
      </trkpt>
      <trkpt lat="43.5785" lon="6.28368">
        <ele>381.6</ele>
        <time>2023-01-25T15:31:14.000Z</time>
      </trkpt>
      <trkpt lat="43.57855" lon="6.28372">
        <ele>382.3</ele>
        <time>2023-01-25T15:31:20.000Z</time>
      </trkpt>
      <trkpt lat="43.57859" lon="6.28374">
        <ele>383.1</ele>
        <time>2023-01-25T15:31:26.000Z</time>
      </trkpt>
      <trkpt lat="43.57864" lon="6.28379">
        <ele>384</ele>
        <time>2023-01-25T15:31:32.000Z</time>
      </trkpt>
      <trkpt lat="43.57867" lon="6.28383">
        <ele>384.9</ele>
        <time>2023-01-25T15:31:38.000Z</time>
      </trkpt>
      <trkpt lat="43.57872" lon="6.28387">
        <ele>385.4</ele>
        <time>2023-01-25T15:31:43.000Z</time>
      </trkpt>
      <trkpt lat="43.57876" lon="6.2839">
        <ele>385.7</ele>
        <time>2023-01-25T15:31:47.000Z</time>
      </trkpt>
      <trkpt lat="43.5788" lon="6.28392">
        <ele>385.9</ele>
        <time>2023-01-25T15:31:51.000Z</time>
      </trkpt>
      <trkpt lat="43.57884" lon="6.28395">
        <ele>385.9</ele>
        <time>2023-01-25T15:31:55.000Z</time>
      </trkpt>
      <trkpt lat="43.57889" lon="6.28397">
        <ele>385.7</ele>
        <time>2023-01-25T15:32:00.000Z</time>
      </trkpt>
      <trkpt lat="43.57894" lon="6.28399">
        <ele>385.4</ele>
        <time>2023-01-25T15:32:06.000Z</time>
      </trkpt>
      <trkpt lat="43.57898" lon="6.28402">
        <ele>385</ele>
        <time>2023-01-25T15:32:19.000Z</time>
      </trkpt>
      <trkpt lat="43.57901" lon="6.28407">
        <ele>384.6</ele>
        <time>2023-01-25T15:32:53.000Z</time>
      </trkpt>
      <trkpt lat="43.57899" lon="6.28412">
        <ele>384.5</ele>
        <time>2023-01-25T15:33:04.000Z</time>
      </trkpt>
      <trkpt lat="43.57903" lon="6.28408">
        <ele>384.4</ele>
        <time>2023-01-25T15:33:17.000Z</time>
      </trkpt>
      <trkpt lat="43.57907" lon="6.28407">
        <ele>384</ele>
        <time>2023-01-25T15:34:08.000Z</time>
      </trkpt>
      <trkpt lat="43.57903" lon="6.28407">
        <ele>383.3</ele>
        <time>2023-01-25T15:35:20.000Z</time>
      </trkpt>
      <trkpt lat="43.57898" lon="6.28405">
        <ele>382.8</ele>
        <time>2023-01-25T15:36:18.000Z</time>
      </trkpt>
      <trkpt lat="43.57902" lon="6.28402">
        <ele>382.8</ele>
        <time>2023-01-25T15:36:58.000Z</time>
      </trkpt>
      <trkpt lat="43.57905" lon="6.28397">
        <ele>382.2</ele>
        <time>2023-01-25T15:37:40.000Z</time>
      </trkpt>
      <trkpt lat="43.57909" lon="6.28393">
        <ele>382.2</ele>
        <time>2023-01-25T15:37:48.000Z</time>
      </trkpt>
      <trkpt lat="43.57913" lon="6.28391">
        <ele>382.2</ele>
        <time>2023-01-25T15:37:53.000Z</time>
      </trkpt>
      <trkpt lat="43.57918" lon="6.28387">
        <ele>382.2</ele>
        <time>2023-01-25T15:37:59.000Z</time>
      </trkpt>
      <trkpt lat="43.57923" lon="6.28386">
        <ele>382.1</ele>
        <time>2023-01-25T15:38:04.000Z</time>
      </trkpt>
      <trkpt lat="43.57928" lon="6.28385">
        <ele>381.9</ele>
        <time>2023-01-25T15:38:08.000Z</time>
      </trkpt>
      <trkpt lat="43.57932" lon="6.28385">
        <ele>381.7</ele>
        <time>2023-01-25T15:38:12.000Z</time>
      </trkpt>
      <trkpt lat="43.57937" lon="6.28384">
        <ele>381.6</ele>
        <time>2023-01-25T15:38:16.000Z</time>
      </trkpt>
      <trkpt lat="43.57942" lon="6.28384">
        <ele>381.5</ele>
        <time>2023-01-25T15:38:21.000Z</time>
      </trkpt>
      <trkpt lat="43.57947" lon="6.28381">
        <ele>381.6</ele>
        <time>2023-01-25T15:38:26.000Z</time>
      </trkpt>
      <trkpt lat="43.57951" lon="6.28378">
        <ele>382</ele>
        <time>2023-01-25T15:38:32.000Z</time>
      </trkpt>
      <trkpt lat="43.57954" lon="6.28373">
        <ele>382.3</ele>
        <time>2023-01-25T15:38:37.000Z</time>
      </trkpt>
      <trkpt lat="43.57959" lon="6.2837">
        <ele>382.8</ele>
        <time>2023-01-25T15:38:42.000Z</time>
      </trkpt>
      <trkpt lat="43.57963" lon="6.28367">
        <ele>383.1</ele>
        <time>2023-01-25T15:38:47.000Z</time>
      </trkpt>
      <trkpt lat="43.57967" lon="6.28364">
        <ele>383.5</ele>
        <time>2023-01-25T15:38:52.000Z</time>
      </trkpt>
      <trkpt lat="43.57972" lon="6.2836">
        <ele>383.9</ele>
        <time>2023-01-25T15:38:57.000Z</time>
      </trkpt>
      <trkpt lat="43.57977" lon="6.28358">
        <ele>384.3</ele>
        <time>2023-01-25T15:39:02.000Z</time>
      </trkpt>
      <trkpt lat="43.57983" lon="6.28356">
        <ele>384.7</ele>
        <time>2023-01-25T15:39:07.000Z</time>
      </trkpt>
      <trkpt lat="43.57988" lon="6.28354">
        <ele>384.9</ele>
        <time>2023-01-25T15:39:11.000Z</time>
      </trkpt>
      <trkpt lat="43.57993" lon="6.28352">
        <ele>385.1</ele>
        <time>2023-01-25T15:39:16.000Z</time>
      </trkpt>
      <trkpt lat="43.57998" lon="6.2835">
        <ele>385</ele>
        <time>2023-01-25T15:39:21.000Z</time>
      </trkpt>
      <trkpt lat="43.58003" lon="6.28349">
        <ele>384.7</ele>
        <time>2023-01-25T15:39:27.000Z</time>
      </trkpt>
      <trkpt lat="43.58007" lon="6.28348">
        <ele>384.2</ele>
        <time>2023-01-25T15:39:32.000Z</time>
      </trkpt>
      <trkpt lat="43.58012" lon="6.28346">
        <ele>383.8</ele>
        <time>2023-01-25T15:39:37.000Z</time>
      </trkpt>
      <trkpt lat="43.58016" lon="6.28342">
        <ele>383.5</ele>
        <time>2023-01-25T15:39:41.000Z</time>
      </trkpt>
      <trkpt lat="43.5802" lon="6.28338">
        <ele>383.4</ele>
        <time>2023-01-25T15:39:45.000Z</time>
      </trkpt>
      <trkpt lat="43.58025" lon="6.28335">
        <ele>383.2</ele>
        <time>2023-01-25T15:39:50.000Z</time>
      </trkpt>
      <trkpt lat="43.58029" lon="6.28331">
        <ele>383</ele>
        <time>2023-01-25T15:39:54.000Z</time>
      </trkpt>
      <trkpt lat="43.58032" lon="6.28325">
        <ele>382.6</ele>
        <time>2023-01-25T15:39:59.000Z</time>
      </trkpt>
      <trkpt lat="43.58036" lon="6.28321">
        <ele>382.3</ele>
        <time>2023-01-25T15:40:04.000Z</time>
      </trkpt>
      <trkpt lat="43.5804" lon="6.28326">
        <ele>381.4</ele>
        <time>2023-01-25T15:40:10.000Z</time>
      </trkpt>
      <trkpt lat="43.58039" lon="6.28333">
        <ele>380.3</ele>
        <time>2023-01-25T15:40:17.000Z</time>
      </trkpt>
      <trkpt lat="43.58041" lon="6.28339">
        <ele>378.8</ele>
        <time>2023-01-25T15:40:25.000Z</time>
      </trkpt>
      <trkpt lat="43.58046" lon="6.2834">
        <ele>377.8</ele>
        <time>2023-01-25T15:40:30.000Z</time>
      </trkpt>
      <trkpt lat="43.5805" lon="6.28339">
        <ele>377.2</ele>
        <time>2023-01-25T15:40:35.000Z</time>
      </trkpt>
      <trkpt lat="43.58055" lon="6.28338">
        <ele>376.8</ele>
        <time>2023-01-25T15:40:40.000Z</time>
      </trkpt>
      <trkpt lat="43.5806" lon="6.28337">
        <ele>376.5</ele>
        <time>2023-01-25T15:40:45.000Z</time>
      </trkpt>
      <trkpt lat="43.58064" lon="6.28334">
        <ele>376.3</ele>
        <time>2023-01-25T15:40:49.000Z</time>
      </trkpt>
      <trkpt lat="43.58069" lon="6.28335">
        <ele>376.1</ele>
        <time>2023-01-25T15:40:54.000Z</time>
      </trkpt>
      <trkpt lat="43.58069" lon="6.28342">
        <ele>376.6</ele>
        <time>2023-01-25T15:41:06.000Z</time>
      </trkpt>
      <trkpt lat="43.58073" lon="6.28344">
        <ele>376.9</ele>
        <time>2023-01-25T15:41:11.000Z</time>
      </trkpt>
      <trkpt lat="43.58079" lon="6.28344">
        <ele>377.6</ele>
        <time>2023-01-25T15:41:17.000Z</time>
      </trkpt>
      <trkpt lat="43.58081" lon="6.28338">
        <ele>378.4</ele>
        <time>2023-01-25T15:41:23.000Z</time>
      </trkpt>
      <trkpt lat="43.58082" lon="6.28331">
        <ele>378.8</ele>
        <time>2023-01-25T15:41:29.000Z</time>
      </trkpt>
      <trkpt lat="43.58085" lon="6.28325">
        <ele>378.9</ele>
        <time>2023-01-25T15:41:35.000Z</time>
      </trkpt>
      <trkpt lat="43.58088" lon="6.2832">
        <ele>378.8</ele>
        <time>2023-01-25T15:41:40.000Z</time>
      </trkpt>
      <trkpt lat="43.58088" lon="6.28313">
        <ele>378.5</ele>
        <time>2023-01-25T15:41:46.000Z</time>
      </trkpt>
      <trkpt lat="43.58089" lon="6.28306">
        <ele>377.7</ele>
        <time>2023-01-25T15:41:53.000Z</time>
      </trkpt>
      <trkpt lat="43.5809" lon="6.28299">
        <ele>377.1</ele>
        <time>2023-01-25T15:41:59.000Z</time>
      </trkpt>
      <trkpt lat="43.5809" lon="6.28292">
        <ele>376.4</ele>
        <time>2023-01-25T15:42:05.000Z</time>
      </trkpt>
      <trkpt lat="43.58092" lon="6.28284">
        <ele>376.3</ele>
        <time>2023-01-25T15:42:10.000Z</time>
      </trkpt>
      <trkpt lat="43.58094" lon="6.28279">
        <ele>376.4</ele>
        <time>2023-01-25T15:42:15.000Z</time>
      </trkpt>
      <trkpt lat="43.58099" lon="6.28274">
        <ele>376.8</ele>
        <time>2023-01-25T15:42:22.000Z</time>
      </trkpt>
      <trkpt lat="43.58103" lon="6.28271">
        <ele>377.5</ele>
        <time>2023-01-25T15:42:31.000Z</time>
      </trkpt>
      <trkpt lat="43.58107" lon="6.28268">
        <ele>378.2</ele>
        <time>2023-01-25T15:42:36.000Z</time>
      </trkpt>
      <trkpt lat="43.58112" lon="6.28266">
        <ele>379.6</ele>
        <time>2023-01-25T15:42:46.000Z</time>
      </trkpt>
      <trkpt lat="43.58109" lon="6.2826">
        <ele>382.2</ele>
        <time>2023-01-25T15:43:02.000Z</time>
      </trkpt>
      <trkpt lat="43.58107" lon="6.28253">
        <ele>383.7</ele>
        <time>2023-01-25T15:43:11.000Z</time>
      </trkpt>
      <trkpt lat="43.58107" lon="6.28246">
        <ele>385</ele>
        <time>2023-01-25T15:43:18.000Z</time>
      </trkpt>
      <trkpt lat="43.58106" lon="6.2824">
        <ele>386.1</ele>
        <time>2023-01-25T15:43:25.000Z</time>
      </trkpt>
      <trkpt lat="43.58109" lon="6.28235">
        <ele>387.2</ele>
        <time>2023-01-25T15:43:32.000Z</time>
      </trkpt>
      <trkpt lat="43.58108" lon="6.28228">
        <ele>388.7</ele>
        <time>2023-01-25T15:43:40.000Z</time>
      </trkpt>
      <trkpt lat="43.58107" lon="6.28222">
        <ele>390.4</ele>
        <time>2023-01-25T15:43:51.000Z</time>
      </trkpt>
      <trkpt lat="43.58106" lon="6.28216">
        <ele>391.7</ele>
        <time>2023-01-25T15:44:00.000Z</time>
      </trkpt>
      <trkpt lat="43.58104" lon="6.2821">
        <ele>393.3</ele>
        <time>2023-01-25T15:44:27.000Z</time>
      </trkpt>
      <trkpt lat="43.58108" lon="6.28206">
        <ele>392.5</ele>
        <time>2023-01-25T15:46:20.000Z</time>
      </trkpt>
      <trkpt lat="43.58112" lon="6.28204">
        <ele>392.7</ele>
        <time>2023-01-25T15:46:28.000Z</time>
      </trkpt>
      <trkpt lat="43.58117" lon="6.28202">
        <ele>393.1</ele>
        <time>2023-01-25T15:46:34.000Z</time>
      </trkpt>
      <trkpt lat="43.58122" lon="6.282">
        <ele>394</ele>
        <time>2023-01-25T15:46:41.000Z</time>
      </trkpt>
      <trkpt lat="43.58125" lon="6.28194">
        <ele>394.7</ele>
        <time>2023-01-25T15:46:47.000Z</time>
      </trkpt>
      <trkpt lat="43.58129" lon="6.28192">
        <ele>395.4</ele>
        <time>2023-01-25T15:46:52.000Z</time>
      </trkpt>
      <trkpt lat="43.58134" lon="6.2819">
        <ele>396.4</ele>
        <time>2023-01-25T15:46:58.000Z</time>
      </trkpt>
      <trkpt lat="43.58139" lon="6.28189">
        <ele>397</ele>
        <time>2023-01-25T15:47:04.000Z</time>
      </trkpt>
      <trkpt lat="43.58144" lon="6.28189">
        <ele>397.5</ele>
        <time>2023-01-25T15:47:10.000Z</time>
      </trkpt>
      <trkpt lat="43.58149" lon="6.28193">
        <ele>398.1</ele>
        <time>2023-01-25T15:47:17.000Z</time>
      </trkpt>
      <trkpt lat="43.58153" lon="6.28195">
        <ele>398.5</ele>
        <time>2023-01-25T15:47:22.000Z</time>
      </trkpt>
      <trkpt lat="43.58158" lon="6.28193">
        <ele>398.8</ele>
        <time>2023-01-25T15:47:28.000Z</time>
      </trkpt>
      <trkpt lat="43.58163" lon="6.28191">
        <ele>398.9</ele>
        <time>2023-01-25T15:47:35.000Z</time>
      </trkpt>
      <trkpt lat="43.58167" lon="6.28189">
        <ele>398.7</ele>
        <time>2023-01-25T15:47:42.000Z</time>
      </trkpt>
      <trkpt lat="43.58172" lon="6.28187">
        <ele>398.3</ele>
        <time>2023-01-25T15:47:48.000Z</time>
      </trkpt>
      <trkpt lat="43.58176" lon="6.28184">
        <ele>397.4</ele>
        <time>2023-01-25T15:47:56.000Z</time>
      </trkpt>
      <trkpt lat="43.58179" lon="6.28178">
        <ele>395.7</ele>
        <time>2023-01-25T15:48:06.000Z</time>
      </trkpt>
      <trkpt lat="43.58181" lon="6.28172">
        <ele>394.3</ele>
        <time>2023-01-25T15:48:15.000Z</time>
      </trkpt>
      <trkpt lat="43.58184" lon="6.28167">
        <ele>393.4</ele>
        <time>2023-01-25T15:48:21.000Z</time>
      </trkpt>
      <trkpt lat="43.58188" lon="6.28164">
        <ele>392.5</ele>
        <time>2023-01-25T15:48:26.000Z</time>
      </trkpt>
      <trkpt lat="43.58191" lon="6.2816">
        <ele>391.4</ele>
        <time>2023-01-25T15:48:32.000Z</time>
      </trkpt>
      <trkpt lat="43.5819" lon="6.28153">
        <ele>390.7</ele>
        <time>2023-01-25T15:48:38.000Z</time>
      </trkpt>
      <trkpt lat="43.58192" lon="6.28147">
        <ele>390.2</ele>
        <time>2023-01-25T15:48:43.000Z</time>
      </trkpt>
      <trkpt lat="43.58194" lon="6.2814">
        <ele>389.8</ele>
        <time>2023-01-25T15:48:48.000Z</time>
      </trkpt>
      <trkpt lat="43.58198" lon="6.28135">
        <ele>389.5</ele>
        <time>2023-01-25T15:48:52.000Z</time>
      </trkpt>
      <trkpt lat="43.58201" lon="6.2813">
        <ele>389.3</ele>
        <time>2023-01-25T15:48:56.000Z</time>
      </trkpt>
      <trkpt lat="43.58205" lon="6.28125">
        <ele>389</ele>
        <time>2023-01-25T15:49:01.000Z</time>
      </trkpt>
      <trkpt lat="43.58208" lon="6.2812">
        <ele>388.9</ele>
        <time>2023-01-25T15:49:06.000Z</time>
      </trkpt>
      <trkpt lat="43.58209" lon="6.28114">
        <ele>388.7</ele>
        <time>2023-01-25T15:49:12.000Z</time>
      </trkpt>
      <trkpt lat="43.58211" lon="6.28106">
        <ele>388.4</ele>
        <time>2023-01-25T15:49:19.000Z</time>
      </trkpt>
      <trkpt lat="43.58214" lon="6.281">
        <ele>388</ele>
        <time>2023-01-25T15:49:25.000Z</time>
      </trkpt>
      <trkpt lat="43.58217" lon="6.28095">
        <ele>387.4</ele>
        <time>2023-01-25T15:49:31.000Z</time>
      </trkpt>
      <trkpt lat="43.58222" lon="6.28091">
        <ele>386.8</ele>
        <time>2023-01-25T15:49:36.000Z</time>
      </trkpt>
      <trkpt lat="43.58226" lon="6.28086">
        <ele>386.3</ele>
        <time>2023-01-25T15:49:41.000Z</time>
      </trkpt>
      <trkpt lat="43.5823" lon="6.28081">
        <ele>385.8</ele>
        <time>2023-01-25T15:49:46.000Z</time>
      </trkpt>
      <trkpt lat="43.58234" lon="6.28077">
        <ele>385.4</ele>
        <time>2023-01-25T15:49:50.000Z</time>
      </trkpt>
      <trkpt lat="43.58238" lon="6.28072">
        <ele>385.1</ele>
        <time>2023-01-25T15:49:55.000Z</time>
      </trkpt>
      <trkpt lat="43.58241" lon="6.28067">
        <ele>384.9</ele>
        <time>2023-01-25T15:50:00.000Z</time>
      </trkpt>
      <trkpt lat="43.58244" lon="6.28062">
        <ele>384.8</ele>
        <time>2023-01-25T15:50:05.000Z</time>
      </trkpt>
      <trkpt lat="43.58248" lon="6.28058">
        <ele>384.7</ele>
        <time>2023-01-25T15:50:10.000Z</time>
      </trkpt>
      <trkpt lat="43.58251" lon="6.28053">
        <ele>384.4</ele>
        <time>2023-01-25T15:50:15.000Z</time>
      </trkpt>
      <trkpt lat="43.58254" lon="6.28047">
        <ele>384.1</ele>
        <time>2023-01-25T15:50:19.000Z</time>
      </trkpt>
      <trkpt lat="43.58257" lon="6.28042">
        <ele>383.9</ele>
        <time>2023-01-25T15:50:23.000Z</time>
      </trkpt>
      <trkpt lat="43.5826" lon="6.28036">
        <ele>383.7</ele>
        <time>2023-01-25T15:50:28.000Z</time>
      </trkpt>
      <trkpt lat="43.58262" lon="6.28031">
        <ele>383.6</ele>
        <time>2023-01-25T15:50:32.000Z</time>
      </trkpt>
      <trkpt lat="43.58265" lon="6.28026">
        <ele>383.3</ele>
        <time>2023-01-25T15:50:37.000Z</time>
      </trkpt>
      <trkpt lat="43.58269" lon="6.28021">
        <ele>382.9</ele>
        <time>2023-01-25T15:50:41.000Z</time>
      </trkpt>
      <trkpt lat="43.58272" lon="6.28016">
        <ele>382.4</ele>
        <time>2023-01-25T15:50:45.000Z</time>
      </trkpt>
      <trkpt lat="43.58274" lon="6.28009">
        <ele>382</ele>
        <time>2023-01-25T15:50:50.000Z</time>
      </trkpt>
      <trkpt lat="43.58275" lon="6.28002">
        <ele>381.4</ele>
        <time>2023-01-25T15:50:56.000Z</time>
      </trkpt>
      <trkpt lat="43.58276" lon="6.27996">
        <ele>380.8</ele>
        <time>2023-01-25T15:51:02.000Z</time>
      </trkpt>
      <trkpt lat="43.58274" lon="6.27989">
        <ele>380</ele>
        <time>2023-01-25T15:51:09.000Z</time>
      </trkpt>
      <trkpt lat="43.58273" lon="6.27981">
        <ele>379.2</ele>
        <time>2023-01-25T15:51:14.000Z</time>
      </trkpt>
      <trkpt lat="43.58273" lon="6.27974">
        <ele>378.4</ele>
        <time>2023-01-25T15:51:20.000Z</time>
      </trkpt>
      <trkpt lat="43.58273" lon="6.27967">
        <ele>377.5</ele>
        <time>2023-01-25T15:51:26.000Z</time>
      </trkpt>
      <trkpt lat="43.58273" lon="6.2796">
        <ele>376.6</ele>
        <time>2023-01-25T15:51:32.000Z</time>
      </trkpt>
      <trkpt lat="43.58275" lon="6.27954">
        <ele>375.9</ele>
        <time>2023-01-25T15:51:38.000Z</time>
      </trkpt>
      <trkpt lat="43.58276" lon="6.27947">
        <ele>374.3</ele>
        <time>2023-01-25T15:51:57.000Z</time>
      </trkpt>
      <trkpt lat="43.58276" lon="6.27941">
        <ele>371.5</ele>
        <time>2023-01-25T15:53:44.000Z</time>
      </trkpt>
      <trkpt lat="43.58273" lon="6.27936">
        <ele>370.9</ele>
        <time>2023-01-25T15:53:50.000Z</time>
      </trkpt>
      <trkpt lat="43.58271" lon="6.27929">
        <ele>370.3</ele>
        <time>2023-01-25T15:53:56.000Z</time>
      </trkpt>
      <trkpt lat="43.58271" lon="6.27922">
        <ele>370</ele>
        <time>2023-01-25T15:54:02.000Z</time>
      </trkpt>
      <trkpt lat="43.58271" lon="6.27915">
        <ele>369.8</ele>
        <time>2023-01-25T15:54:08.000Z</time>
      </trkpt>
      <trkpt lat="43.58271" lon="6.27907">
        <ele>369.5</ele>
        <time>2023-01-25T15:54:12.000Z</time>
      </trkpt>
      <trkpt lat="43.58271" lon="6.27899">
        <ele>369.1</ele>
        <time>2023-01-25T15:54:17.000Z</time>
      </trkpt>
      <trkpt lat="43.58274" lon="6.27893">
        <ele>368.8</ele>
        <time>2023-01-25T15:54:21.000Z</time>
      </trkpt>
      <trkpt lat="43.58275" lon="6.27885">
        <ele>368.6</ele>
        <time>2023-01-25T15:54:26.000Z</time>
      </trkpt>
      <trkpt lat="43.58276" lon="6.27877">
        <ele>368.4</ele>
        <time>2023-01-25T15:54:30.000Z</time>
      </trkpt>
      <trkpt lat="43.58278" lon="6.27871">
        <ele>368.1</ele>
        <time>2023-01-25T15:54:35.000Z</time>
      </trkpt>
      <trkpt lat="43.58282" lon="6.27866">
        <ele>367.9</ele>
        <time>2023-01-25T15:54:39.000Z</time>
      </trkpt>
      <trkpt lat="43.58286" lon="6.27861">
        <ele>367.7</ele>
        <time>2023-01-25T15:54:43.000Z</time>
      </trkpt>
      <trkpt lat="43.5829" lon="6.27857">
        <ele>367.3</ele>
        <time>2023-01-25T15:54:47.000Z</time>
      </trkpt>
      <trkpt lat="43.58295" lon="6.27852">
        <ele>367</ele>
        <time>2023-01-25T15:54:51.000Z</time>
      </trkpt>
      <trkpt lat="43.58298" lon="6.27847">
        <ele>366.7</ele>
        <time>2023-01-25T15:54:55.000Z</time>
      </trkpt>
      <trkpt lat="43.58301" lon="6.27841">
        <ele>366.5</ele>
        <time>2023-01-25T15:54:59.000Z</time>
      </trkpt>
      <trkpt lat="43.58305" lon="6.27836">
        <ele>366.2</ele>
        <time>2023-01-25T15:55:04.000Z</time>
      </trkpt>
      <trkpt lat="43.58309" lon="6.27832">
        <ele>365.9</ele>
        <time>2023-01-25T15:55:08.000Z</time>
      </trkpt>
      <trkpt lat="43.58313" lon="6.27828">
        <ele>365.5</ele>
        <time>2023-01-25T15:55:13.000Z</time>
      </trkpt>
      <trkpt lat="43.58318" lon="6.27824">
        <ele>365.1</ele>
        <time>2023-01-25T15:55:19.000Z</time>
      </trkpt>
      <trkpt lat="43.58321" lon="6.2782">
        <ele>364.7</ele>
        <time>2023-01-25T15:55:24.000Z</time>
      </trkpt>
      <trkpt lat="43.58324" lon="6.27814">
        <ele>363.9</ele>
        <time>2023-01-25T15:55:29.000Z</time>
      </trkpt>
      <trkpt lat="43.58326" lon="6.27807">
        <ele>362.9</ele>
        <time>2023-01-25T15:55:35.000Z</time>
      </trkpt>
      <trkpt lat="43.58327" lon="6.27801">
        <ele>362</ele>
        <time>2023-01-25T15:55:40.000Z</time>
      </trkpt>
      <trkpt lat="43.58327" lon="6.27794">
        <ele>361.2</ele>
        <time>2023-01-25T15:55:46.000Z</time>
      </trkpt>
      <trkpt lat="43.58327" lon="6.27787">
        <ele>360.5</ele>
        <time>2023-01-25T15:55:50.000Z</time>
      </trkpt>
      <trkpt lat="43.58329" lon="6.2778">
        <ele>359.7</ele>
        <time>2023-01-25T15:55:56.000Z</time>
      </trkpt>
      <trkpt lat="43.5833" lon="6.27773">
        <ele>358.7</ele>
        <time>2023-01-25T15:56:01.000Z</time>
      </trkpt>
      <trkpt lat="43.58332" lon="6.27768">
        <ele>357.8</ele>
        <time>2023-01-25T15:56:06.000Z</time>
      </trkpt>
      <trkpt lat="43.58336" lon="6.27762">
        <ele>357.1</ele>
        <time>2023-01-25T15:56:10.000Z</time>
      </trkpt>
      <trkpt lat="43.58337" lon="6.27755">
        <ele>356.2</ele>
        <time>2023-01-25T15:56:15.000Z</time>
      </trkpt>
      <trkpt lat="43.58335" lon="6.27749">
        <ele>355.6</ele>
        <time>2023-01-25T15:56:19.000Z</time>
      </trkpt>
      <trkpt lat="43.58332" lon="6.27743">
        <ele>355.2</ele>
        <time>2023-01-25T15:56:23.000Z</time>
      </trkpt>
      <trkpt lat="43.58329" lon="6.27738">
        <ele>354.4</ele>
        <time>2023-01-25T15:56:28.000Z</time>
      </trkpt>
      <trkpt lat="43.58325" lon="6.27734">
        <ele>354</ele>
        <time>2023-01-25T15:56:31.000Z</time>
      </trkpt>
      <trkpt lat="43.58322" lon="6.27728">
        <ele>353.2</ele>
        <time>2023-01-25T15:56:35.000Z</time>
      </trkpt>
      <trkpt lat="43.58326" lon="6.27725">
        <ele>352.2</ele>
        <time>2023-01-25T15:56:41.000Z</time>
      </trkpt>
      <trkpt lat="43.5833" lon="6.27724">
        <ele>351</ele>
        <time>2023-01-25T15:56:48.000Z</time>
      </trkpt>
      <trkpt lat="43.58335" lon="6.27725">
        <ele>350.1</ele>
        <time>2023-01-25T15:56:53.000Z</time>
      </trkpt>
      <trkpt lat="43.5834" lon="6.27725">
        <ele>349.4</ele>
        <time>2023-01-25T15:56:58.000Z</time>
      </trkpt>
      <trkpt lat="43.58344" lon="6.27722">
        <ele>348.9</ele>
        <time>2023-01-25T15:57:03.000Z</time>
      </trkpt>
      <trkpt lat="43.58348" lon="6.27719">
        <ele>348.4</ele>
        <time>2023-01-25T15:57:07.000Z</time>
      </trkpt>
      <trkpt lat="43.58351" lon="6.27714">
        <ele>347.8</ele>
        <time>2023-01-25T15:57:12.000Z</time>
      </trkpt>
      <trkpt lat="43.58351" lon="6.27707">
        <ele>347.4</ele>
        <time>2023-01-25T15:57:17.000Z</time>
      </trkpt>
      <trkpt lat="43.58349" lon="6.27701">
        <ele>347.1</ele>
        <time>2023-01-25T15:57:22.000Z</time>
      </trkpt>
      <trkpt lat="43.58346" lon="6.27695">
        <ele>346.9</ele>
        <time>2023-01-25T15:57:27.000Z</time>
      </trkpt>
      <trkpt lat="43.58342" lon="6.27691">
        <ele>346.4</ele>
        <time>2023-01-25T15:57:33.000Z</time>
      </trkpt>
      <trkpt lat="43.58338" lon="6.27687">
        <ele>346</ele>
        <time>2023-01-25T15:57:40.000Z</time>
      </trkpt>
      <trkpt lat="43.58334" lon="6.27684">
        <ele>345.7</ele>
        <time>2023-01-25T15:57:47.000Z</time>
      </trkpt>
      <trkpt lat="43.58329" lon="6.27685">
        <ele>345.4</ele>
        <time>2023-01-25T15:57:55.000Z</time>
      </trkpt>
      <trkpt lat="43.58324" lon="6.27685">
        <ele>345.3</ele>
        <time>2023-01-25T15:57:59.000Z</time>
      </trkpt>
      <trkpt lat="43.58318" lon="6.27682">
        <ele>345.3</ele>
        <time>2023-01-25T15:58:04.000Z</time>
      </trkpt>
      <trkpt lat="43.58314" lon="6.27677">
        <ele>345.2</ele>
        <time>2023-01-25T15:58:10.000Z</time>
      </trkpt>
      <trkpt lat="43.5831" lon="6.27674">
        <ele>345.1</ele>
        <time>2023-01-25T15:58:15.000Z</time>
      </trkpt>
      <trkpt lat="43.58304" lon="6.27674">
        <ele>345.1</ele>
        <time>2023-01-25T15:58:21.000Z</time>
      </trkpt>
      <trkpt lat="43.583" lon="6.27671">
        <ele>345</ele>
        <time>2023-01-25T15:58:25.000Z</time>
      </trkpt>
      <trkpt lat="43.58296" lon="6.27667">
        <ele>345</ele>
        <time>2023-01-25T15:58:28.000Z</time>
      </trkpt>
      <trkpt lat="43.58292" lon="6.27661">
        <ele>345</ele>
        <time>2023-01-25T15:58:32.000Z</time>
      </trkpt>
      <trkpt lat="43.58289" lon="6.27656">
        <ele>344.8</ele>
        <time>2023-01-25T15:58:40.000Z</time>
      </trkpt>
      <trkpt lat="43.58287" lon="6.2765">
        <ele>344.6</ele>
        <time>2023-01-25T15:59:03.000Z</time>
      </trkpt>
      <trkpt lat="43.58283" lon="6.27648">
        <ele>344.5</ele>
        <time>2023-01-25T15:59:23.000Z</time>
      </trkpt>
      <trkpt lat="43.58278" lon="6.27649">
        <ele>344.5</ele>
        <time>2023-01-25T16:00:14.000Z</time>
      </trkpt>
      <trkpt lat="43.58273" lon="6.2765">
        <ele>344.4</ele>
        <time>2023-01-25T16:00:26.000Z</time>
      </trkpt>
      <trkpt lat="43.58269" lon="6.27652">
        <ele>344.6</ele>
        <time>2023-01-25T16:01:07.000Z</time>
      </trkpt>
      <trkpt lat="43.58273" lon="6.27648">
        <ele>344.5</ele>
        <time>2023-01-25T16:01:37.000Z</time>
      </trkpt>
      <trkpt lat="43.58277" lon="6.27646">
        <ele>344.4</ele>
        <time>2023-01-25T16:01:45.000Z</time>
      </trkpt>
      <trkpt lat="43.58282" lon="6.27644">
        <ele>344.6</ele>
        <time>2023-01-25T16:01:52.000Z</time>
      </trkpt>
      <trkpt lat="43.58286" lon="6.27641">
        <ele>344.6</ele>
        <time>2023-01-25T16:01:56.000Z</time>
      </trkpt>
      <trkpt lat="43.58289" lon="6.27635">
        <ele>344.7</ele>
        <time>2023-01-25T16:02:01.000Z</time>
      </trkpt>
      <trkpt lat="43.58292" lon="6.27631">
        <ele>344.8</ele>
        <time>2023-01-25T16:02:06.000Z</time>
      </trkpt>
      <trkpt lat="43.58294" lon="6.27625">
        <ele>344.9</ele>
        <time>2023-01-25T16:02:12.000Z</time>
      </trkpt>
      <trkpt lat="43.58296" lon="6.27619">
        <ele>345.2</ele>
        <time>2023-01-25T16:02:19.000Z</time>
      </trkpt>
      <trkpt lat="43.583" lon="6.27614">
        <ele>345</ele>
        <time>2023-01-25T16:02:36.000Z</time>
      </trkpt>
      <trkpt lat="43.58306" lon="6.27614">
        <ele>345</ele>
        <time>2023-01-25T16:02:40.000Z</time>
      </trkpt>
      <trkpt lat="43.58312" lon="6.27616">
        <ele>345.9</ele>
        <time>2023-01-25T16:02:43.000Z</time>
      </trkpt>
      <trkpt lat="43.58317" lon="6.27616">
        <ele>345.9</ele>
        <time>2023-01-25T16:02:45.000Z</time>
      </trkpt>
      <trkpt lat="43.58321" lon="6.27613">
        <ele>345.9</ele>
        <time>2023-01-25T16:02:48.000Z</time>
      </trkpt>
      <trkpt lat="43.58327" lon="6.27612">
        <ele>345.9</ele>
        <time>2023-01-25T16:02:52.000Z</time>
      </trkpt>
      <trkpt lat="43.58331" lon="6.2761">
        <ele>346</ele>
        <time>2023-01-25T16:02:57.000Z</time>
      </trkpt>
      <trkpt lat="43.58336" lon="6.27607">
        <ele>346</ele>
        <time>2023-01-25T16:03:03.000Z</time>
      </trkpt>
      <trkpt lat="43.58341" lon="6.27604">
        <ele>346.1</ele>
        <time>2023-01-25T16:03:07.000Z</time>
      </trkpt>
      <trkpt lat="43.58346" lon="6.27603">
        <ele>346.2</ele>
        <time>2023-01-25T16:03:12.000Z</time>
      </trkpt>
      <trkpt lat="43.5835" lon="6.276">
        <ele>346.3</ele>
        <time>2023-01-25T16:03:17.000Z</time>
      </trkpt>
      <trkpt lat="43.58355" lon="6.27598">
        <ele>346.4</ele>
        <time>2023-01-25T16:03:23.000Z</time>
      </trkpt>
      <trkpt lat="43.58358" lon="6.27594">
        <ele>346.5</ele>
        <time>2023-01-25T16:03:33.000Z</time>
      </trkpt>
      <trkpt lat="43.58362" lon="6.2759">
        <ele>346.5</ele>
        <time>2023-01-25T16:04:06.000Z</time>
      </trkpt>
      <trkpt lat="43.58363" lon="6.27593">
        <ele>346.7</ele>
        <time>2023-01-25T16:06:35.000Z</time>
      </trkpt>
    </trkseg>
  </trk>
</gpx>